<?xml version='1.0' encoding='UTF-8'?>
<gpx version="1.1" creator="https://www.komoot.de" xmlns="http://www.topografix.com/GPX/1/1" xmlns:xsi="http://www.w3.org/2001/XMLSchema-instance" xsi:schemaLocation="http://www.topografix.com/GPX/1/1 http://www.topografix.com/GPX/1/1/gpx.xsd">
  <metadata>
    <name>55_750OmumpfWoelfKaist</name>
    <author>
      <link href="https://www.komoot.de">
        <text>komoot</text>
        <type>text/html</type>
      </link>
    </author>
  </metadata>
  <trk>
    <name>55_750OmumpfWoelfKaist</name>
    <trkseg>
      <trkpt lat="47.541246" lon="7.870927">
        <ele>340.740270</ele>
        <time>2021-11-14T15:06:51.457Z</time>
      </trkpt>
      <trkpt lat="47.541410" lon="7.870791">
        <ele>340.740270</ele>
        <time>2021-11-14T15:06:54.295Z</time>
      </trkpt>
      <trkpt lat="47.541576" lon="7.870664">
        <ele>340.740270</ele>
        <time>2021-11-14T15:06:58.424Z</time>
      </trkpt>
      <trkpt lat="47.541796" lon="7.871042">
        <ele>340.740270</ele>
        <time>2021-11-14T15:07:05.573Z</time>
      </trkpt>
      <trkpt lat="47.541953" lon="7.871286">
        <ele>340.883003</ele>
        <time>2021-11-14T15:07:10.355Z</time>
      </trkpt>
      <trkpt lat="47.542039" lon="7.871556">
        <ele>341.603506</ele>
        <time>2021-11-14T15:07:14.907Z</time>
      </trkpt>
      <trkpt lat="47.542067" lon="7.871664">
        <ele>341.882712</ele>
        <time>2021-11-14T15:07:16.448Z</time>
      </trkpt>
      <trkpt lat="47.542091" lon="7.871721">
        <ele>342.044839</ele>
        <time>2021-11-14T15:07:17.036Z</time>
      </trkpt>
      <trkpt lat="47.542218" lon="7.871866">
        <ele>342.618081</ele>
        <time>2021-11-14T15:07:22.209Z</time>
      </trkpt>
      <trkpt lat="47.542249" lon="7.871951">
        <ele>342.851240</ele>
        <time>2021-11-14T15:07:24.070Z</time>
      </trkpt>
      <trkpt lat="47.542394" lon="7.872341">
        <ele>343.925763</ele>
        <time>2021-11-14T15:07:32.278Z</time>
      </trkpt>
      <trkpt lat="47.542436" lon="7.872494">
        <ele>344.324368</ele>
        <time>2021-11-14T15:07:35.685Z</time>
      </trkpt>
      <trkpt lat="47.542537" lon="7.872430">
        <ele>344.717100</ele>
        <time>2021-11-14T15:07:37.682Z</time>
      </trkpt>
      <trkpt lat="47.542683" lon="7.872351">
        <ele>345.272794</ele>
        <time>2021-11-14T15:07:43.715Z</time>
      </trkpt>
      <trkpt lat="47.542714" lon="7.872334">
        <ele>345.390972</ele>
        <time>2021-11-14T15:07:44.835Z</time>
      </trkpt>
      <trkpt lat="47.542814" lon="7.872280">
        <ele>345.771493</ele>
        <time>2021-11-14T15:07:47.695Z</time>
      </trkpt>
      <trkpt lat="47.542919" lon="7.872226">
        <ele>346.168856</ele>
        <time>2021-11-14T15:07:51.496Z</time>
      </trkpt>
      <trkpt lat="47.543013" lon="7.872182">
        <ele>346.521292</ele>
        <time>2021-11-14T15:07:55.114Z</time>
      </trkpt>
      <trkpt lat="47.543233" lon="7.872082">
        <ele>347.473161</ele>
        <time>2021-11-14T15:08:02.235Z</time>
      </trkpt>
      <trkpt lat="47.543251" lon="7.872152">
        <ele>347.788573</ele>
        <time>2021-11-14T15:08:05.632Z</time>
      </trkpt>
      <trkpt lat="47.543332" lon="7.872237">
        <ele>348.407759</ele>
        <time>2021-11-14T15:08:09.068Z</time>
      </trkpt>
      <trkpt lat="47.544390" lon="7.872423">
        <ele>355.053671</ele>
        <time>2021-11-14T15:08:50.647Z</time>
      </trkpt>
      <trkpt lat="47.544883" lon="7.872555">
        <ele>358.178733</ele>
        <time>2021-11-14T15:09:12.990Z</time>
      </trkpt>
      <trkpt lat="47.545131" lon="7.872664">
        <ele>359.890928</ele>
        <time>2021-11-14T15:09:23.994Z</time>
      </trkpt>
      <trkpt lat="47.545375" lon="7.872836">
        <ele>361.694964</ele>
        <time>2021-11-14T15:09:34.935Z</time>
      </trkpt>
      <trkpt lat="47.545478" lon="7.872968">
        <ele>362.604219</ele>
        <time>2021-11-14T15:09:41.742Z</time>
      </trkpt>
      <trkpt lat="47.545515" lon="7.873015">
        <ele>362.929616</ele>
        <time>2021-11-14T15:09:43.699Z</time>
      </trkpt>
      <trkpt lat="47.545746" lon="7.873302">
        <ele>364.942401</ele>
        <time>2021-11-14T15:09:56.899Z</time>
      </trkpt>
      <trkpt lat="47.545934" lon="7.873549">
        <ele>366.620023</ele>
        <time>2021-11-14T15:10:06.999Z</time>
      </trkpt>
      <trkpt lat="47.546077" lon="7.873763">
        <ele>367.977055</ele>
        <time>2021-11-14T15:10:16.195Z</time>
      </trkpt>
      <trkpt lat="47.546135" lon="7.873859">
        <ele>368.557665</ele>
        <time>2021-11-14T15:10:19.434Z</time>
      </trkpt>
      <trkpt lat="47.546309" lon="7.874154">
        <ele>370.323124</ele>
        <time>2021-11-14T15:10:30.549Z</time>
      </trkpt>
      <trkpt lat="47.547126" lon="7.875801">
        <ele>376.015431</ele>
        <time>2021-11-14T15:11:16.310Z</time>
      </trkpt>
      <trkpt lat="47.547574" lon="7.876801">
        <ele>377.624127</ele>
        <time>2021-11-14T15:11:35.306Z</time>
      </trkpt>
      <trkpt lat="47.547992" lon="7.877974">
        <ele>377.252457</ele>
        <time>2021-11-14T15:11:48.106Z</time>
      </trkpt>
      <trkpt lat="47.548234" lon="7.878638">
        <ele>377.041014</ele>
        <time>2021-11-14T15:11:53.418Z</time>
      </trkpt>
      <trkpt lat="47.548422" lon="7.878959">
        <ele>375.934644</ele>
        <time>2021-11-14T15:11:56.261Z</time>
      </trkpt>
      <trkpt lat="47.548718" lon="7.879258">
        <ele>374.488852</ele>
        <time>2021-11-14T15:11:59.800Z</time>
      </trkpt>
      <trkpt lat="47.549140" lon="7.879391">
        <ele>372.747691</ele>
        <time>2021-11-14T15:12:03.986Z</time>
      </trkpt>
      <trkpt lat="47.549318" lon="7.879398">
        <ele>372.029088</ele>
        <time>2021-11-14T15:12:05.613Z</time>
      </trkpt>
      <trkpt lat="47.549327" lon="7.879547">
        <ele>371.621605</ele>
        <time>2021-11-14T15:12:06.600Z</time>
      </trkpt>
      <trkpt lat="47.549726" lon="7.880786">
        <ele>368.044363</ele>
        <time>2021-11-14T15:12:15.534Z</time>
      </trkpt>
      <trkpt lat="47.549927" lon="7.881490">
        <ele>366.140449</ele>
        <time>2021-11-14T15:12:20.566Z</time>
      </trkpt>
      <trkpt lat="47.550234" lon="7.883221">
        <ele>361.499074</ele>
        <time>2021-11-14T15:12:32.967Z</time>
      </trkpt>
      <trkpt lat="47.550332" lon="7.884727">
        <ele>357.255664</ele>
        <time>2021-11-14T15:12:42.811Z</time>
      </trkpt>
      <trkpt lat="47.550391" lon="7.885109">
        <ele>356.156590</ele>
        <time>2021-11-14T15:12:45.344Z</time>
      </trkpt>
      <trkpt lat="47.550548" lon="7.885799">
        <ele>353.585644</ele>
        <time>2021-11-14T15:12:49.948Z</time>
      </trkpt>
      <trkpt lat="47.550677" lon="7.886476">
        <ele>350.939872</ele>
        <time>2021-11-14T15:12:54.378Z</time>
      </trkpt>
      <trkpt lat="47.550758" lon="7.887295">
        <ele>347.826666</ele>
        <time>2021-11-14T15:12:59.521Z</time>
      </trkpt>
      <trkpt lat="47.550789" lon="7.887816">
        <ele>345.859555</ele>
        <time>2021-11-14T15:13:02.752Z</time>
      </trkpt>
      <trkpt lat="47.550831" lon="7.888611">
        <ele>342.511736</ele>
        <time>2021-11-14T15:13:07.708Z</time>
      </trkpt>
      <trkpt lat="47.550833" lon="7.889069">
        <ele>340.573232</ele>
        <time>2021-11-14T15:13:10.518Z</time>
      </trkpt>
      <trkpt lat="47.550915" lon="7.890600">
        <ele>334.155753</ele>
        <time>2021-11-14T15:13:19.911Z</time>
      </trkpt>
      <trkpt lat="47.550904" lon="7.891725">
        <ele>330.753588</ele>
        <time>2021-11-14T15:13:26.915Z</time>
      </trkpt>
      <trkpt lat="47.550892" lon="7.893176">
        <ele>326.365683</ele>
        <time>2021-11-14T15:13:36.527Z</time>
      </trkpt>
      <trkpt lat="47.550908" lon="7.894308">
        <ele>325.289820</ele>
        <time>2021-11-14T15:13:45.732Z</time>
      </trkpt>
      <trkpt lat="47.550878" lon="7.895158">
        <ele>324.513110</ele>
        <time>2021-11-14T15:13:52.917Z</time>
      </trkpt>
      <trkpt lat="47.550838" lon="7.895509">
        <ele>324.188278</ele>
        <time>2021-11-14T15:13:56.081Z</time>
      </trkpt>
      <trkpt lat="47.550660" lon="7.896255">
        <ele>323.131928</ele>
        <time>2021-11-14T15:14:02.570Z</time>
      </trkpt>
      <trkpt lat="47.550639" lon="7.896345">
        <ele>322.973571</ele>
        <time>2021-11-14T15:14:03.757Z</time>
      </trkpt>
      <trkpt lat="47.550648" lon="7.896481">
        <ele>322.746326</ele>
        <time>2021-11-14T15:14:04.712Z</time>
      </trkpt>
      <trkpt lat="47.550819" lon="7.898109">
        <ele>320.006466</ele>
        <time>2021-11-14T15:14:16.460Z</time>
      </trkpt>
      <trkpt lat="47.550801" lon="7.900244">
        <ele>314.304705</ele>
        <time>2021-11-14T15:14:30.297Z</time>
      </trkpt>
      <trkpt lat="47.550769" lon="7.901362">
        <ele>311.293252</ele>
        <time>2021-11-14T15:14:37.569Z</time>
      </trkpt>
      <trkpt lat="47.550757" lon="7.901591">
        <ele>310.811287</ele>
        <time>2021-11-14T15:14:39.705Z</time>
      </trkpt>
      <trkpt lat="47.550688" lon="7.902451">
        <ele>308.994011</ele>
        <time>2021-11-14T15:14:48.139Z</time>
      </trkpt>
      <trkpt lat="47.550498" lon="7.903445">
        <ele>306.826226</ele>
        <time>2021-11-14T15:14:58.556Z</time>
      </trkpt>
      <trkpt lat="47.550302" lon="7.904164">
        <ele>305.921622</ele>
        <time>2021-11-14T15:15:06.903Z</time>
      </trkpt>
      <trkpt lat="47.550025" lon="7.904774">
        <ele>305.465846</ele>
        <time>2021-11-14T15:15:15.387Z</time>
      </trkpt>
      <trkpt lat="47.549868" lon="7.905010">
        <ele>305.260422</ele>
        <time>2021-11-14T15:15:19.393Z</time>
      </trkpt>
      <trkpt lat="47.549867" lon="7.905155">
        <ele>305.170527</ele>
        <time>2021-11-14T15:15:21.123Z</time>
      </trkpt>
      <trkpt lat="47.549793" lon="7.905202">
        <ele>305.096577</ele>
        <time>2021-11-14T15:15:22.653Z</time>
      </trkpt>
      <trkpt lat="47.549674" lon="7.905336">
        <ele>304.959292</ele>
        <time>2021-11-14T15:15:25.446Z</time>
      </trkpt>
      <trkpt lat="47.549519" lon="7.906378">
        <ele>304.827745</ele>
        <time>2021-11-14T15:15:39.784Z</time>
      </trkpt>
      <trkpt lat="47.549039" lon="7.907742">
        <ele>305.713531</ele>
        <time>2021-11-14T15:16:04.090Z</time>
      </trkpt>
      <trkpt lat="47.548638" lon="7.908599">
        <ele>306.371623</ele>
        <time>2021-11-14T15:16:23.232Z</time>
      </trkpt>
      <trkpt lat="47.548279" lon="7.909060">
        <ele>306.889765</ele>
        <time>2021-11-14T15:16:35.464Z</time>
      </trkpt>
      <trkpt lat="47.548222" lon="7.909154">
        <ele>306.982787</ele>
        <time>2021-11-14T15:16:38.008Z</time>
      </trkpt>
      <trkpt lat="47.547859" lon="7.909845">
        <ele>307.627377</ele>
        <time>2021-11-14T15:16:51.883Z</time>
      </trkpt>
      <trkpt lat="47.547648" lon="7.910267">
        <ele>308.013985</ele>
        <time>2021-11-14T15:16:59.963Z</time>
      </trkpt>
      <trkpt lat="47.547348" lon="7.911011">
        <ele>309.052469</ele>
        <time>2021-11-14T15:17:09.482Z</time>
      </trkpt>
      <trkpt lat="47.546526" lon="7.912513">
        <ele>311.758524</ele>
        <time>2021-11-14T15:17:36.489Z</time>
      </trkpt>
      <trkpt lat="47.546113" lon="7.913536">
        <ele>319.179371</ele>
        <time>2021-11-14T15:18:12.579Z</time>
      </trkpt>
      <trkpt lat="47.546064" lon="7.913662">
        <ele>320.084656</ele>
        <time>2021-11-14T15:18:21.421Z</time>
      </trkpt>
      <trkpt lat="47.545846" lon="7.913439">
        <ele>322.527997</ele>
        <time>2021-11-14T15:18:35.362Z</time>
      </trkpt>
      <trkpt lat="47.545803" lon="7.913417">
        <ele>322.947569</ele>
        <time>2021-11-14T15:18:40.222Z</time>
      </trkpt>
      <trkpt lat="47.545760" lon="7.913396">
        <ele>323.365151</ele>
        <time>2021-11-14T15:18:45.358Z</time>
      </trkpt>
      <trkpt lat="47.545512" lon="7.913459">
        <ele>325.685838</ele>
        <time>2021-11-14T15:18:58.996Z</time>
      </trkpt>
      <trkpt lat="47.545283" lon="7.913975">
        <ele>329.083416</ele>
        <time>2021-11-14T15:19:29.538Z</time>
      </trkpt>
      <trkpt lat="47.544842" lon="7.914607">
        <ele>333.125308</ele>
        <time>2021-11-14T15:20:09.438Z</time>
      </trkpt>
      <trkpt lat="47.544667" lon="7.914777">
        <ele>334.503851</ele>
        <time>2021-11-14T15:20:26.274Z</time>
      </trkpt>
      <trkpt lat="47.544535" lon="7.914938">
        <ele>335.630185</ele>
        <time>2021-11-14T15:20:30.565Z</time>
      </trkpt>
      <trkpt lat="47.544436" lon="7.915136">
        <ele>336.725847</ele>
        <time>2021-11-14T15:20:36.457Z</time>
      </trkpt>
      <trkpt lat="47.544381" lon="7.915381">
        <ele>337.873943</ele>
        <time>2021-11-14T15:20:39.030Z</time>
      </trkpt>
      <trkpt lat="47.544170" lon="7.916929">
        <ele>337.951347</ele>
        <time>2021-11-14T15:20:56.023Z</time>
      </trkpt>
      <trkpt lat="47.544062" lon="7.917335">
        <ele>337.239763</ele>
        <time>2021-11-14T15:21:00.048Z</time>
      </trkpt>
      <trkpt lat="47.544023" lon="7.917429">
        <ele>337.059846</ele>
        <time>2021-11-14T15:21:01.069Z</time>
      </trkpt>
      <trkpt lat="47.543882" lon="7.917804">
        <ele>336.359897</ele>
        <time>2021-11-14T15:21:05.170Z</time>
      </trkpt>
      <trkpt lat="47.543788" lon="7.917949">
        <ele>336.032076</ele>
        <time>2021-11-14T15:21:07.124Z</time>
      </trkpt>
      <trkpt lat="47.543490" lon="7.918167">
        <ele>335.844162</ele>
        <time>2021-11-14T15:21:12.076Z</time>
      </trkpt>
      <trkpt lat="47.543011" lon="7.918178">
        <ele>337.644113</ele>
        <time>2021-11-14T15:21:22.795Z</time>
      </trkpt>
      <trkpt lat="47.542951" lon="7.918203">
        <ele>337.878296</ele>
        <time>2021-11-14T15:21:25.472Z</time>
      </trkpt>
      <trkpt lat="47.542901" lon="7.918253">
        <ele>338.104957</ele>
        <time>2021-11-14T15:21:27.014Z</time>
      </trkpt>
      <trkpt lat="47.542847" lon="7.918520">
        <ele>338.811891</ele>
        <time>2021-11-14T15:21:33.633Z</time>
      </trkpt>
      <trkpt lat="47.542897" lon="7.919138">
        <ele>340.390544</ele>
        <time>2021-11-14T15:21:53.493Z</time>
      </trkpt>
      <trkpt lat="47.542830" lon="7.919388">
        <ele>341.072764</ele>
        <time>2021-11-14T15:22:02.903Z</time>
      </trkpt>
      <trkpt lat="47.542762" lon="7.919488">
        <ele>341.432773</ele>
        <time>2021-11-14T15:22:07.181Z</time>
      </trkpt>
      <trkpt lat="47.542663" lon="7.919567">
        <ele>341.855276</ele>
        <time>2021-11-14T15:22:20.037Z</time>
      </trkpt>
      <trkpt lat="47.542445" lon="7.919627">
        <ele>342.950370</ele>
        <time>2021-11-14T15:22:44.244Z</time>
      </trkpt>
      <trkpt lat="47.541893" lon="7.920117">
        <ele>346.743786</ele>
        <time>2021-11-14T15:23:53.278Z</time>
      </trkpt>
      <trkpt lat="47.541270" lon="7.921054">
        <ele>351.977300</ele>
        <time>2021-11-14T15:25:24.917Z</time>
      </trkpt>
      <trkpt lat="47.541174" lon="7.921158">
        <ele>352.678384</ele>
        <time>2021-11-14T15:25:35.876Z</time>
      </trkpt>
      <trkpt lat="47.540576" lon="7.921805">
        <ele>354.824648</ele>
        <time>2021-11-14T15:26:42.765Z</time>
      </trkpt>
      <trkpt lat="47.540468" lon="7.922009">
        <ele>355.312951</ele>
        <time>2021-11-14T15:26:58.282Z</time>
      </trkpt>
      <trkpt lat="47.540426" lon="7.922257">
        <ele>355.794539</ele>
        <time>2021-11-14T15:27:13.374Z</time>
      </trkpt>
      <trkpt lat="47.540276" lon="7.922517">
        <ele>356.438728</ele>
        <time>2021-11-14T15:27:33.562Z</time>
      </trkpt>
      <trkpt lat="47.539357" lon="7.923066">
        <ele>360.056569</ele>
        <time>2021-11-14T15:29:01.858Z</time>
      </trkpt>
      <trkpt lat="47.538673" lon="7.923346">
        <ele>363.283480</ele>
        <time>2021-11-14T15:30:10.933Z</time>
      </trkpt>
      <trkpt lat="47.538225" lon="7.923716">
        <ele>365.615905</ele>
        <time>2021-11-14T15:31:06.400Z</time>
      </trkpt>
      <trkpt lat="47.537704" lon="7.924286">
        <ele>368.042661</ele>
        <time>2021-11-14T15:32:12.503Z</time>
      </trkpt>
      <trkpt lat="47.537368" lon="7.924418">
        <ele>369.299831</ele>
        <time>2021-11-14T15:32:46.036Z</time>
      </trkpt>
      <trkpt lat="47.537009" lon="7.924729">
        <ele>370.803911</ele>
        <time>2021-11-14T15:33:25.321Z</time>
      </trkpt>
      <trkpt lat="47.536706" lon="7.925193">
        <ele>372.380062</ele>
        <time>2021-11-14T15:33:37.069Z</time>
      </trkpt>
      <trkpt lat="47.536480" lon="7.925533">
        <ele>372.106146</ele>
        <time>2021-11-14T15:33:43.623Z</time>
      </trkpt>
      <trkpt lat="47.536299" lon="7.925637">
        <ele>371.810293</ele>
        <time>2021-11-14T15:33:46.779Z</time>
      </trkpt>
      <trkpt lat="47.535703" lon="7.925981">
        <ele>370.835524</ele>
        <time>2021-11-14T15:33:56.589Z</time>
      </trkpt>
      <trkpt lat="47.535496" lon="7.926292">
        <ele>370.386204</ele>
        <time>2021-11-14T15:34:00.723Z</time>
      </trkpt>
      <trkpt lat="47.535366" lon="7.926580">
        <ele>370.029771</ele>
        <time>2021-11-14T15:34:04.108Z</time>
      </trkpt>
      <trkpt lat="47.535237" lon="7.926835">
        <ele>369.810004</ele>
        <time>2021-11-14T15:34:07.731Z</time>
      </trkpt>
      <trkpt lat="47.534394" lon="7.928043">
        <ele>370.173383</ele>
        <time>2021-11-14T15:34:31.460Z</time>
      </trkpt>
      <trkpt lat="47.534319" lon="7.928138">
        <ele>370.203955</ele>
        <time>2021-11-14T15:34:33.871Z</time>
      </trkpt>
      <trkpt lat="47.534250" lon="7.928183">
        <ele>370.227312</ele>
        <time>2021-11-14T15:34:36.029Z</time>
      </trkpt>
      <trkpt lat="47.534226" lon="7.928203">
        <ele>370.235843</ele>
        <time>2021-11-14T15:34:36.951Z</time>
      </trkpt>
      <trkpt lat="47.534168" lon="7.928273">
        <ele>370.259022</ele>
        <time>2021-11-14T15:34:39.484Z</time>
      </trkpt>
      <trkpt lat="47.533454" lon="7.928933">
        <ele>371.271337</ele>
        <time>2021-11-14T15:35:03.601Z</time>
      </trkpt>
      <trkpt lat="47.533316" lon="7.929060">
        <ele>371.543157</ele>
        <time>2021-11-14T15:35:06.728Z</time>
      </trkpt>
      <trkpt lat="47.532796" lon="7.929524">
        <ele>372.558828</ele>
        <time>2021-11-14T15:35:19.642Z</time>
      </trkpt>
      <trkpt lat="47.532584" lon="7.929704">
        <ele>372.967661</ele>
        <time>2021-11-14T15:35:26.597Z</time>
      </trkpt>
      <trkpt lat="47.532610" lon="7.929877">
        <ele>373.167864</ele>
        <time>2021-11-14T15:35:27.848Z</time>
      </trkpt>
      <trkpt lat="47.532643" lon="7.929996">
        <ele>373.313182</ele>
        <time>2021-11-14T15:35:30.064Z</time>
      </trkpt>
      <trkpt lat="47.532726" lon="7.930299">
        <ele>373.355761</ele>
        <time>2021-11-14T15:35:35.175Z</time>
      </trkpt>
      <trkpt lat="47.532726" lon="7.930392">
        <ele>373.354974</ele>
        <time>2021-11-14T15:35:35.770Z</time>
      </trkpt>
      <trkpt lat="47.532599" lon="7.930581">
        <ele>373.352718</ele>
        <time>2021-11-14T15:35:40.849Z</time>
      </trkpt>
      <trkpt lat="47.532261" lon="7.931393">
        <ele>373.344649</ele>
        <time>2021-11-14T15:35:49.017Z</time>
      </trkpt>
      <trkpt lat="47.532237" lon="7.931571">
        <ele>373.343114</ele>
        <time>2021-11-14T15:35:51.979Z</time>
      </trkpt>
      <trkpt lat="47.532170" lon="7.931998">
        <ele>373.339406</ele>
        <time>2021-11-14T15:35:55.267Z</time>
      </trkpt>
      <trkpt lat="47.531984" lon="7.932581">
        <ele>373.321366</ele>
        <time>2021-11-14T15:36:00.991Z</time>
      </trkpt>
      <trkpt lat="47.531985" lon="7.932692">
        <ele>373.313492</ele>
        <time>2021-11-14T15:36:01.860Z</time>
      </trkpt>
      <trkpt lat="47.531984" lon="7.932824">
        <ele>373.304128</ele>
        <time>2021-11-14T15:36:03.011Z</time>
      </trkpt>
      <trkpt lat="47.531931" lon="7.933297">
        <ele>373.270118</ele>
        <time>2021-11-14T15:36:07.760Z</time>
      </trkpt>
      <trkpt lat="47.531622" lon="7.934065">
        <ele>373.206703</ele>
        <time>2021-11-14T15:36:16.904Z</time>
      </trkpt>
      <trkpt lat="47.531503" lon="7.934360">
        <ele>373.182327</ele>
        <time>2021-11-14T15:36:20.173Z</time>
      </trkpt>
      <trkpt lat="47.531505" lon="7.934420">
        <ele>373.178066</ele>
        <time>2021-11-14T15:36:20.854Z</time>
      </trkpt>
      <trkpt lat="47.531519" lon="7.934461">
        <ele>373.174807</ele>
        <time>2021-11-14T15:36:21.297Z</time>
      </trkpt>
      <trkpt lat="47.531561" lon="7.934562">
        <ele>373.166393</ele>
        <time>2021-11-14T15:36:22.305Z</time>
      </trkpt>
      <trkpt lat="47.531638" lon="7.934766">
        <ele>373.149815</ele>
        <time>2021-11-14T15:36:24.534Z</time>
      </trkpt>
      <trkpt lat="47.531548" lon="7.934833">
        <ele>373.219279</ele>
        <time>2021-11-14T15:36:26.226Z</time>
      </trkpt>
      <trkpt lat="47.531129" lon="7.935142">
        <ele>373.697657</ele>
        <time>2021-11-14T15:36:34.266Z</time>
      </trkpt>
      <trkpt lat="47.530759" lon="7.935410">
        <ele>374.118606</ele>
        <time>2021-11-14T15:36:42.287Z</time>
      </trkpt>
      <trkpt lat="47.530404" lon="7.935710">
        <ele>374.536332</ele>
        <time>2021-11-14T15:36:50.784Z</time>
      </trkpt>
      <trkpt lat="47.530062" lon="7.936223">
        <ele>375.061114</ele>
        <time>2021-11-14T15:37:01.143Z</time>
      </trkpt>
      <trkpt lat="47.530009" lon="7.936303">
        <ele>375.181655</ele>
        <time>2021-11-14T15:37:02.803Z</time>
      </trkpt>
      <trkpt lat="47.529827" lon="7.936525">
        <ele>375.557223</ele>
        <time>2021-11-14T15:37:07.320Z</time>
      </trkpt>
      <trkpt lat="47.529626" lon="7.936730">
        <ele>375.945961</ele>
        <time>2021-11-14T15:37:12.060Z</time>
      </trkpt>
      <trkpt lat="47.529468" lon="7.936891">
        <ele>376.251450</ele>
        <time>2021-11-14T15:37:15.650Z</time>
      </trkpt>
      <trkpt lat="47.529273" lon="7.937297">
        <ele>376.787315</ele>
        <time>2021-11-14T15:37:22.206Z</time>
      </trkpt>
      <trkpt lat="47.529185" lon="7.937741">
        <ele>377.284996</ele>
        <time>2021-11-14T15:37:28.856Z</time>
      </trkpt>
      <trkpt lat="47.529106" lon="7.937991">
        <ele>377.581866</ele>
        <time>2021-11-14T15:37:33.349Z</time>
      </trkpt>
      <trkpt lat="47.528958" lon="7.938333">
        <ele>378.162868</ele>
        <time>2021-11-14T15:37:39.997Z</time>
      </trkpt>
      <trkpt lat="47.528822" lon="7.938652">
        <ele>378.915015</ele>
        <time>2021-11-14T15:37:46.364Z</time>
      </trkpt>
      <trkpt lat="47.528658" lon="7.939111">
        <ele>379.950339</ele>
        <time>2021-11-14T15:37:55.617Z</time>
      </trkpt>
      <trkpt lat="47.528467" lon="7.939644">
        <ele>381.153354</ele>
        <time>2021-11-14T15:38:06.596Z</time>
      </trkpt>
      <trkpt lat="47.528286" lon="7.940193">
        <ele>382.371400</ele>
        <time>2021-11-14T15:38:17.958Z</time>
      </trkpt>
      <trkpt lat="47.528232" lon="7.940349">
        <ele>382.720905</ele>
        <time>2021-11-14T15:38:21.302Z</time>
      </trkpt>
      <trkpt lat="47.528193" lon="7.940482">
        <ele>383.009993</ele>
        <time>2021-11-14T15:38:24.070Z</time>
      </trkpt>
      <trkpt lat="47.528074" lon="7.940914">
        <ele>384.122196</ele>
        <time>2021-11-14T15:38:33.247Z</time>
      </trkpt>
      <trkpt lat="47.527738" lon="7.942144">
        <ele>387.385228</ele>
        <time>2021-11-14T15:38:59.581Z</time>
      </trkpt>
      <trkpt lat="47.527562" lon="7.942799">
        <ele>389.118896</ele>
        <time>2021-11-14T15:39:13.121Z</time>
      </trkpt>
      <trkpt lat="47.527379" lon="7.943358">
        <ele>391.049744</ele>
        <time>2021-11-14T15:39:25.484Z</time>
      </trkpt>
      <trkpt lat="47.527098" lon="7.943983">
        <ele>393.692244</ele>
        <time>2021-11-14T15:39:43.813Z</time>
      </trkpt>
      <trkpt lat="47.526465" lon="7.944912">
        <ele>398.336939</ele>
        <time>2021-11-14T15:40:17.725Z</time>
      </trkpt>
      <trkpt lat="47.526210" lon="7.945167">
        <ele>399.871283</ele>
        <time>2021-11-14T15:40:29.493Z</time>
      </trkpt>
      <trkpt lat="47.526080" lon="7.945282">
        <ele>400.596516</ele>
        <time>2021-11-14T15:40:35.150Z</time>
      </trkpt>
      <trkpt lat="47.525932" lon="7.945400">
        <ele>401.401533</ele>
        <time>2021-11-14T15:40:41.198Z</time>
      </trkpt>
      <trkpt lat="47.525755" lon="7.945530">
        <ele>402.347771</ele>
        <time>2021-11-14T15:40:48.488Z</time>
      </trkpt>
      <trkpt lat="47.525003" lon="7.946035">
        <ele>406.302340</ele>
        <time>2021-11-14T15:41:16.864Z</time>
      </trkpt>
      <trkpt lat="47.524540" lon="7.946546">
        <ele>408.574849</ele>
        <time>2021-11-14T15:41:33.307Z</time>
      </trkpt>
      <trkpt lat="47.524015" lon="7.947474">
        <ele>411.078884</ele>
        <time>2021-11-14T15:41:53.420Z</time>
      </trkpt>
      <trkpt lat="47.522871" lon="7.949842">
        <ele>417.771166</ele>
        <time>2021-11-14T15:42:48.306Z</time>
      </trkpt>
      <trkpt lat="47.522583" lon="7.950558">
        <ele>419.826235</ele>
        <time>2021-11-14T15:43:05.425Z</time>
      </trkpt>
      <trkpt lat="47.522551" lon="7.950637">
        <ele>420.111354</ele>
        <time>2021-11-14T15:43:08.100Z</time>
      </trkpt>
      <trkpt lat="47.522166" lon="7.951598">
        <ele>423.569700</ele>
        <time>2021-11-14T15:43:32.979Z</time>
      </trkpt>
      <trkpt lat="47.521947" lon="7.952039">
        <ele>425.263939</ele>
        <time>2021-11-14T15:43:45.732Z</time>
      </trkpt>
      <trkpt lat="47.521866" lon="7.952202">
        <ele>425.890303</ele>
        <time>2021-11-14T15:43:50.196Z</time>
      </trkpt>
      <trkpt lat="47.520960" lon="7.953410">
        <ele>432.150375</ele>
        <time>2021-11-14T15:44:31.408Z</time>
      </trkpt>
      <trkpt lat="47.520196" lon="7.954168">
        <ele>437.159738</ele>
        <time>2021-11-14T15:45:07.856Z</time>
      </trkpt>
      <trkpt lat="47.519633" lon="7.954614">
        <ele>439.694455</ele>
        <time>2021-11-14T15:45:31.108Z</time>
      </trkpt>
      <trkpt lat="47.519421" lon="7.954816">
        <ele>440.625572</ele>
        <time>2021-11-14T15:45:40.018Z</time>
      </trkpt>
      <trkpt lat="47.518957" lon="7.955430">
        <ele>442.923956</ele>
        <time>2021-11-14T15:45:58.717Z</time>
      </trkpt>
      <trkpt lat="47.518757" lon="7.955695">
        <ele>443.915215</ele>
        <time>2021-11-14T15:46:04.739Z</time>
      </trkpt>
      <trkpt lat="47.518060" lon="7.957077">
        <ele>443.875233</ele>
        <time>2021-11-14T15:46:20.513Z</time>
      </trkpt>
      <trkpt lat="47.517852" lon="7.957582">
        <ele>443.693708</ele>
        <time>2021-11-14T15:46:25.098Z</time>
      </trkpt>
      <trkpt lat="47.517628" lon="7.958176">
        <ele>443.514033</ele>
        <time>2021-11-14T15:46:30.497Z</time>
      </trkpt>
      <trkpt lat="47.517484" lon="7.958473">
        <ele>443.468879</ele>
        <time>2021-11-14T15:46:33.411Z</time>
      </trkpt>
      <trkpt lat="47.517422" lon="7.958602">
        <ele>443.449324</ele>
        <time>2021-11-14T15:46:34.742Z</time>
      </trkpt>
      <trkpt lat="47.516682" lon="7.959949">
        <ele>443.234873</ele>
        <time>2021-11-14T15:46:51.828Z</time>
      </trkpt>
      <trkpt lat="47.516286" lon="7.960801">
        <ele>443.992483</ele>
        <time>2021-11-14T15:47:05.422Z</time>
      </trkpt>
      <trkpt lat="47.515417" lon="7.961931">
        <ele>445.699879</ele>
        <time>2021-11-14T15:47:31.623Z</time>
      </trkpt>
      <trkpt lat="47.515199" lon="7.962207">
        <ele>446.135098</ele>
        <time>2021-11-14T15:47:36.983Z</time>
      </trkpt>
      <trkpt lat="47.515187" lon="7.962222">
        <ele>446.159319</ele>
        <time>2021-11-14T15:47:37.886Z</time>
      </trkpt>
      <trkpt lat="47.514883" lon="7.962671">
        <ele>446.821573</ele>
        <time>2021-11-14T15:47:45.814Z</time>
      </trkpt>
      <trkpt lat="47.514842" lon="7.962822">
        <ele>446.991100</ele>
        <time>2021-11-14T15:47:47.995Z</time>
      </trkpt>
      <trkpt lat="47.514838" lon="7.962840">
        <ele>447.010839</ele>
        <time>2021-11-14T15:47:48.135Z</time>
      </trkpt>
      <trkpt lat="47.514838" lon="7.963162">
        <ele>447.346257</ele>
        <time>2021-11-14T15:47:52.552Z</time>
      </trkpt>
      <trkpt lat="47.514830" lon="7.963311">
        <ele>447.501956</ele>
        <time>2021-11-14T15:47:54.849Z</time>
      </trkpt>
      <trkpt lat="47.514809" lon="7.963450">
        <ele>447.650326</ele>
        <time>2021-11-14T15:47:56.356Z</time>
      </trkpt>
      <trkpt lat="47.514722" lon="7.963775">
        <ele>448.014491</ele>
        <time>2021-11-14T15:48:02.225Z</time>
      </trkpt>
      <trkpt lat="47.514703" lon="7.963873">
        <ele>448.120697</ele>
        <time>2021-11-14T15:48:03.475Z</time>
      </trkpt>
      <trkpt lat="47.514699" lon="7.963986">
        <ele>448.238568</ele>
        <time>2021-11-14T15:48:04.830Z</time>
      </trkpt>
      <trkpt lat="47.514665" lon="7.964238">
        <ele>448.506256</ele>
        <time>2021-11-14T15:48:09.378Z</time>
      </trkpt>
      <trkpt lat="47.514616" lon="7.964407">
        <ele>448.750835</ele>
        <time>2021-11-14T15:48:12.076Z</time>
      </trkpt>
      <trkpt lat="47.514429" lon="7.964841">
        <ele>449.732821</ele>
        <time>2021-11-14T15:48:20.084Z</time>
      </trkpt>
      <trkpt lat="47.514345" lon="7.964927">
        <ele>450.021256</ele>
        <time>2021-11-14T15:48:22.007Z</time>
      </trkpt>
      <trkpt lat="47.514266" lon="7.964968">
        <ele>450.257684</ele>
        <time>2021-11-14T15:48:23.993Z</time>
      </trkpt>
      <trkpt lat="47.514153" lon="7.964997">
        <ele>450.581586</ele>
        <time>2021-11-14T15:48:26.910Z</time>
      </trkpt>
      <trkpt lat="47.513988" lon="7.964994">
        <ele>451.047628</ele>
        <time>2021-11-14T15:48:30.350Z</time>
      </trkpt>
      <trkpt lat="47.513857" lon="7.965014">
        <ele>451.419570</ele>
        <time>2021-11-14T15:48:33.881Z</time>
      </trkpt>
      <trkpt lat="47.513799" lon="7.965061">
        <ele>451.606309</ele>
        <time>2021-11-14T15:48:35.697Z</time>
      </trkpt>
      <trkpt lat="47.513691" lon="7.965208">
        <ele>452.020638</ele>
        <time>2021-11-14T15:48:39.117Z</time>
      </trkpt>
      <trkpt lat="47.513617" lon="7.965308">
        <ele>452.303600</ele>
        <time>2021-11-14T15:48:41.704Z</time>
      </trkpt>
      <trkpt lat="47.513496" lon="7.965435">
        <ele>452.722497</ele>
        <time>2021-11-14T15:48:45.815Z</time>
      </trkpt>
      <trkpt lat="47.513552" lon="7.965694">
        <ele>453.241255</ele>
        <time>2021-11-14T15:48:51.136Z</time>
      </trkpt>
      <trkpt lat="47.513574" lon="7.965795">
        <ele>453.443690</ele>
        <time>2021-11-14T15:48:53.663Z</time>
      </trkpt>
      <trkpt lat="47.513607" lon="7.966067">
        <ele>454.222954</ele>
        <time>2021-11-14T15:48:59.447Z</time>
      </trkpt>
      <trkpt lat="47.513677" lon="7.966493">
        <ele>455.879964</ele>
        <time>2021-11-14T15:49:09.715Z</time>
      </trkpt>
      <trkpt lat="47.513719" lon="7.966609">
        <ele>456.377401</ele>
        <time>2021-11-14T15:49:13.391Z</time>
      </trkpt>
      <trkpt lat="47.513963" lon="7.966968">
        <ele>458.302284</ele>
        <time>2021-11-14T15:49:26.454Z</time>
      </trkpt>
      <trkpt lat="47.514175" lon="7.967361">
        <ele>460.203194</ele>
        <time>2021-11-14T15:49:38.620Z</time>
      </trkpt>
      <trkpt lat="47.514265" lon="7.967596">
        <ele>461.224204</ele>
        <time>2021-11-14T15:49:45.243Z</time>
      </trkpt>
      <trkpt lat="47.514516" lon="7.968208">
        <ele>464.014527</ele>
        <time>2021-11-14T15:50:03.589Z</time>
      </trkpt>
      <trkpt lat="47.514581" lon="7.968390">
        <ele>465.225392</ele>
        <time>2021-11-14T15:50:10.917Z</time>
      </trkpt>
      <trkpt lat="47.514762" lon="7.968835">
        <ele>468.280589</ele>
        <time>2021-11-14T15:50:27.596Z</time>
      </trkpt>
      <trkpt lat="47.515012" lon="7.969232">
        <ele>471.472964</ele>
        <time>2021-11-14T15:50:46.045Z</time>
      </trkpt>
      <trkpt lat="47.515227" lon="7.969425">
        <ele>473.662424</ele>
        <time>2021-11-14T15:50:58.806Z</time>
      </trkpt>
      <trkpt lat="47.515307" lon="7.969493">
        <ele>474.465705</ele>
        <time>2021-11-14T15:51:04.174Z</time>
      </trkpt>
      <trkpt lat="47.515780" lon="7.969896">
        <ele>479.217886</ele>
        <time>2021-11-14T15:51:33.419Z</time>
      </trkpt>
      <trkpt lat="47.516258" lon="7.970425">
        <ele>483.472907</ele>
        <time>2021-11-14T15:52:04.479Z</time>
      </trkpt>
      <trkpt lat="47.516475" lon="7.970786">
        <ele>485.776987</ele>
        <time>2021-11-14T15:52:22.171Z</time>
      </trkpt>
      <trkpt lat="47.516639" lon="7.971156">
        <ele>487.886973</ele>
        <time>2021-11-14T15:52:37.004Z</time>
      </trkpt>
      <trkpt lat="47.516849" lon="7.971986">
        <ele>492.112644</ele>
        <time>2021-11-14T15:52:58.361Z</time>
      </trkpt>
      <trkpt lat="47.517017" lon="7.972944">
        <ele>489.538550</ele>
        <time>2021-11-14T15:53:06.110Z</time>
      </trkpt>
      <trkpt lat="47.517070" lon="7.973149">
        <ele>488.958811</ele>
        <time>2021-11-14T15:53:07.533Z</time>
      </trkpt>
      <trkpt lat="47.517191" lon="7.973538">
        <ele>487.827697</ele>
        <time>2021-11-14T15:53:10.325Z</time>
      </trkpt>
      <trkpt lat="47.517208" lon="7.973572">
        <ele>487.715969</ele>
        <time>2021-11-14T15:53:10.568Z</time>
      </trkpt>
      <trkpt lat="47.517263" lon="7.973683">
        <ele>487.352371</ele>
        <time>2021-11-14T15:53:11.402Z</time>
      </trkpt>
      <trkpt lat="47.517422" lon="7.973976">
        <ele>486.359680</ele>
        <time>2021-11-14T15:53:13.730Z</time>
      </trkpt>
      <trkpt lat="47.517539" lon="7.974133">
        <ele>485.742205</ele>
        <time>2021-11-14T15:53:15.124Z</time>
      </trkpt>
      <trkpt lat="47.517601" lon="7.974216">
        <ele>485.415345</ele>
        <time>2021-11-14T15:53:15.851Z</time>
      </trkpt>
      <trkpt lat="47.517803" lon="7.974479">
        <ele>483.392078</ele>
        <time>2021-11-14T15:53:18.199Z</time>
      </trkpt>
      <trkpt lat="47.517897" lon="7.974601">
        <ele>482.262612</ele>
        <time>2021-11-14T15:53:19.263Z</time>
      </trkpt>
      <trkpt lat="47.518511" lon="7.975376">
        <ele>474.972433</ele>
        <time>2021-11-14T15:53:26.175Z</time>
      </trkpt>
      <trkpt lat="47.518771" lon="7.975833">
        <ele>471.326005</ele>
        <time>2021-11-14T15:53:29.687Z</time>
      </trkpt>
      <trkpt lat="47.518954" lon="7.976318">
        <ele>468.299361</ele>
        <time>2021-11-14T15:53:33.029Z</time>
      </trkpt>
      <trkpt lat="47.519021" lon="7.976610">
        <ele>467.163858</ele>
        <time>2021-11-14T15:53:34.946Z</time>
      </trkpt>
      <trkpt lat="47.519068" lon="7.976937">
        <ele>465.932880</ele>
        <time>2021-11-14T15:53:37.035Z</time>
      </trkpt>
      <trkpt lat="47.519130" lon="7.977741">
        <ele>462.953323</ele>
        <time>2021-11-14T15:53:42.045Z</time>
      </trkpt>
      <trkpt lat="47.519217" lon="7.979377">
        <ele>458.923561</ele>
        <time>2021-11-14T15:53:52.836Z</time>
      </trkpt>
      <trkpt lat="47.519262" lon="7.980038">
        <ele>458.783041</ele>
        <time>2021-11-14T15:53:58.051Z</time>
      </trkpt>
      <trkpt lat="47.518938" lon="7.980093">
        <ele>458.680901</ele>
        <time>2021-11-14T15:54:34.505Z</time>
      </trkpt>
      <trkpt lat="47.518298" lon="7.980206">
        <ele>458.537216</ele>
        <time>2021-11-14T15:55:51.315Z</time>
      </trkpt>
      <trkpt lat="47.517633" lon="7.980418">
        <ele>461.535248</ele>
        <time>2021-11-14T15:57:18.844Z</time>
      </trkpt>
      <trkpt lat="47.517255" lon="7.980642">
        <ele>463.329685</ele>
        <time>2021-11-14T15:58:13.755Z</time>
      </trkpt>
      <trkpt lat="47.516970" lon="7.981153">
        <ele>465.302320</ele>
        <time>2021-11-14T15:59:13.355Z</time>
      </trkpt>
      <trkpt lat="47.516666" lon="7.982302">
        <ele>468.185019</ele>
        <time>2021-11-14T16:00:58.102Z</time>
      </trkpt>
      <trkpt lat="47.516360" lon="7.983035">
        <ele>469.959675</ele>
        <time>2021-11-14T16:02:09.255Z</time>
      </trkpt>
      <trkpt lat="47.516251" lon="7.983296">
        <ele>470.591648</ele>
        <time>2021-11-14T16:02:33.682Z</time>
      </trkpt>
      <trkpt lat="47.516036" lon="7.983707">
        <ele>471.662278</ele>
        <time>2021-11-14T16:03:15.487Z</time>
      </trkpt>
      <trkpt lat="47.515459" lon="7.984619">
        <ele>472.502687</ele>
        <time>2021-11-14T16:05:00.654Z</time>
      </trkpt>
      <trkpt lat="47.515212" lon="7.985092">
        <ele>472.822466</ele>
        <time>2021-11-14T16:05:45.464Z</time>
      </trkpt>
      <trkpt lat="47.515029" lon="7.985591">
        <ele>473.126160</ele>
        <time>2021-11-14T16:06:27.381Z</time>
      </trkpt>
      <trkpt lat="47.514984" lon="7.985795">
        <ele>473.240941</ele>
        <time>2021-11-14T16:06:44.308Z</time>
      </trkpt>
      <trkpt lat="47.514955" lon="7.985985">
        <ele>473.141903</ele>
        <time>2021-11-14T16:06:57.882Z</time>
      </trkpt>
      <trkpt lat="47.514922" lon="7.986199">
        <ele>472.345039</ele>
        <time>2021-11-14T16:07:12.854Z</time>
      </trkpt>
      <trkpt lat="47.514895" lon="7.986454">
        <ele>471.408020</ele>
        <time>2021-11-14T16:07:31.375Z</time>
      </trkpt>
      <trkpt lat="47.515286" lon="7.986787">
        <ele>468.983532</ele>
        <time>2021-11-14T16:08:15.178Z</time>
      </trkpt>
      <trkpt lat="47.516043" lon="7.987468">
        <ele>464.222529</ele>
        <time>2021-11-14T16:09:37.590Z</time>
      </trkpt>
      <trkpt lat="47.516345" lon="7.987828">
        <ele>461.645435</ele>
        <time>2021-11-14T16:10:11.804Z</time>
      </trkpt>
      <trkpt lat="47.516750" lon="7.989123">
        <ele>454.776016</ele>
        <time>2021-11-14T16:11:41.341Z</time>
      </trkpt>
      <trkpt lat="47.516898" lon="7.989617">
        <ele>452.174680</ele>
        <time>2021-11-14T16:12:15.379Z</time>
      </trkpt>
      <trkpt lat="47.517356" lon="7.990419">
        <ele>449.280989</ele>
        <time>2021-11-14T16:13:21.978Z</time>
      </trkpt>
      <trkpt lat="47.517519" lon="7.990545">
        <ele>448.733506</ele>
        <time>2021-11-14T16:13:39.359Z</time>
      </trkpt>
      <trkpt lat="47.517593" lon="7.990690">
        <ele>448.368044</ele>
        <time>2021-11-14T16:13:52.078Z</time>
      </trkpt>
      <trkpt lat="47.517593" lon="7.990870">
        <ele>448.006088</ele>
        <time>2021-11-14T16:14:04.920Z</time>
      </trkpt>
      <trkpt lat="47.517464" lon="7.991086">
        <ele>447.426274</ele>
        <time>2021-11-14T16:14:24.136Z</time>
      </trkpt>
      <trkpt lat="47.517341" lon="7.991184">
        <ele>447.010393</ele>
        <time>2021-11-14T16:14:40.480Z</time>
      </trkpt>
      <trkpt lat="47.517258" lon="7.991214">
        <ele>446.756007</ele>
        <time>2021-11-14T16:14:48.444Z</time>
      </trkpt>
      <trkpt lat="47.517167" lon="7.991185">
        <ele>446.478854</ele>
        <time>2021-11-14T16:14:58.416Z</time>
      </trkpt>
      <trkpt lat="47.516589" lon="7.990525">
        <ele>446.951554</ele>
        <time>2021-11-14T16:16:22.813Z</time>
      </trkpt>
      <trkpt lat="47.516178" lon="7.990219">
        <ele>448.676456</ele>
        <time>2021-11-14T16:17:21.885Z</time>
      </trkpt>
      <trkpt lat="47.516017" lon="7.990191">
        <ele>449.284276</ele>
        <time>2021-11-14T16:17:43.133Z</time>
      </trkpt>
      <trkpt lat="47.515875" lon="7.990250">
        <ele>449.837271</ele>
        <time>2021-11-14T16:18:02.683Z</time>
      </trkpt>
      <trkpt lat="47.515515" lon="7.990682">
        <ele>451.574746</ele>
        <time>2021-11-14T16:19:05.296Z</time>
      </trkpt>
      <trkpt lat="47.515449" lon="7.990902">
        <ele>452.184358</ele>
        <time>2021-11-14T16:19:28.617Z</time>
      </trkpt>
      <trkpt lat="47.515409" lon="7.991061">
        <ele>452.214108</ele>
        <time>2021-11-14T16:19:42.158Z</time>
      </trkpt>
      <trkpt lat="47.515400" lon="7.991097">
        <ele>452.212469</ele>
        <time>2021-11-14T16:19:45.740Z</time>
      </trkpt>
      <trkpt lat="47.515370" lon="7.991325">
        <ele>452.202548</ele>
        <time>2021-11-14T16:20:06.996Z</time>
      </trkpt>
      <trkpt lat="47.515415" lon="7.992607">
        <ele>452.147720</ele>
        <time>2021-11-14T16:21:47.971Z</time>
      </trkpt>
      <trkpt lat="47.515469" lon="7.993541">
        <ele>452.107683</ele>
        <time>2021-11-14T16:22:51.190Z</time>
      </trkpt>
      <trkpt lat="47.515448" lon="7.993885">
        <ele>450.332626</ele>
        <time>2021-11-14T16:23:12.850Z</time>
      </trkpt>
      <trkpt lat="47.515413" lon="7.994077">
        <ele>449.261426</ele>
        <time>2021-11-14T16:23:24.775Z</time>
      </trkpt>
      <trkpt lat="47.515316" lon="7.994599">
        <ele>446.345230</ele>
        <time>2021-11-14T16:23:58.156Z</time>
      </trkpt>
      <trkpt lat="47.515206" lon="7.995085">
        <ele>443.584336</ele>
        <time>2021-11-14T16:24:29.511Z</time>
      </trkpt>
      <trkpt lat="47.514973" lon="7.996922">
        <ele>433.873067</ele>
        <time>2021-11-14T16:26:22.199Z</time>
      </trkpt>
      <trkpt lat="47.514781" lon="7.998695">
        <ele>425.013249</ele>
        <time>2021-11-14T16:28:15.010Z</time>
      </trkpt>
      <trkpt lat="47.514738" lon="7.999392">
        <ele>422.781130</ele>
        <time>2021-11-14T16:29:00.944Z</time>
      </trkpt>
      <trkpt lat="47.514683" lon="8.000037">
        <ele>420.852480</ele>
        <time>2021-11-14T16:29:44.245Z</time>
      </trkpt>
      <trkpt lat="47.514720" lon="8.000490">
        <ele>419.498817</ele>
        <time>2021-11-14T16:29:48.762Z</time>
      </trkpt>
      <trkpt lat="47.514816" lon="8.000810">
        <ele>418.460069</ele>
        <time>2021-11-14T16:29:52.234Z</time>
      </trkpt>
      <trkpt lat="47.515153" lon="8.001723">
        <ele>414.144349</ele>
        <time>2021-11-14T16:30:02.165Z</time>
      </trkpt>
      <trkpt lat="47.515473" lon="8.002693">
        <ele>408.023440</ele>
        <time>2021-11-14T16:30:11.348Z</time>
      </trkpt>
      <trkpt lat="47.515838" lon="8.003776">
        <ele>400.998238</ele>
        <time>2021-11-14T16:30:21.200Z</time>
      </trkpt>
      <trkpt lat="47.515877" lon="8.004029">
        <ele>399.008753</ele>
        <time>2021-11-14T16:30:23.348Z</time>
      </trkpt>
      <trkpt lat="47.515875" lon="8.004180">
        <ele>397.850901</ele>
        <time>2021-11-14T16:30:24.541Z</time>
      </trkpt>
      <trkpt lat="47.515824" lon="8.004390">
        <ele>396.140031</ele>
        <time>2021-11-14T16:30:26.333Z</time>
      </trkpt>
      <trkpt lat="47.515631" lon="8.004843">
        <ele>392.033873</ele>
        <time>2021-11-14T16:30:30.643Z</time>
      </trkpt>
      <trkpt lat="47.515267" lon="8.005405">
        <ele>386.064306</ele>
        <time>2021-11-14T16:30:36.940Z</time>
      </trkpt>
      <trkpt lat="47.515015" lon="8.005732">
        <ele>382.260720</ele>
        <time>2021-11-14T16:30:40.945Z</time>
      </trkpt>
      <trkpt lat="47.513977" lon="8.006824">
        <ele>371.239862</ele>
        <time>2021-11-14T16:30:56.808Z</time>
      </trkpt>
      <trkpt lat="47.513972" lon="8.006834">
        <ele>371.168914</ele>
        <time>2021-11-14T16:30:56.902Z</time>
      </trkpt>
      <trkpt lat="47.513859" lon="8.007069">
        <ele>369.523948</ele>
        <time>2021-11-14T16:30:59.415Z</time>
      </trkpt>
      <trkpt lat="47.513657" lon="8.007746">
        <ele>365.568025</ele>
        <time>2021-11-14T16:31:05.811Z</time>
      </trkpt>
      <trkpt lat="47.513440" lon="8.008376">
        <ele>363.023497</ele>
        <time>2021-11-14T16:31:11.886Z</time>
      </trkpt>
      <trkpt lat="47.513295" lon="8.008556">
        <ele>362.015468</ele>
        <time>2021-11-14T16:31:14.418Z</time>
      </trkpt>
      <trkpt lat="47.513067" lon="8.008790">
        <ele>360.537587</ele>
        <time>2021-11-14T16:31:18.061Z</time>
      </trkpt>
      <trkpt lat="47.513019" lon="8.009088">
        <ele>359.435285</ele>
        <time>2021-11-14T16:31:20.878Z</time>
      </trkpt>
      <trkpt lat="47.513008" lon="8.009559">
        <ele>357.739567</ele>
        <time>2021-11-14T16:31:25.444Z</time>
      </trkpt>
      <trkpt lat="47.513001" lon="8.010158">
        <ele>356.244576</ele>
        <time>2021-11-14T16:31:31.327Z</time>
      </trkpt>
      <trkpt lat="47.512828" lon="8.010284">
        <ele>356.011424</ele>
        <time>2021-11-14T16:31:34.274Z</time>
      </trkpt>
      <trkpt lat="47.512231" lon="8.010689">
        <ele>355.217291</ele>
        <time>2021-11-14T16:31:44.240Z</time>
      </trkpt>
      <trkpt lat="47.511819" lon="8.010960">
        <ele>354.672100</ele>
        <time>2021-11-14T16:31:53.114Z</time>
      </trkpt>
      <trkpt lat="47.511743" lon="8.011016">
        <ele>354.569440</ele>
        <time>2021-11-14T16:31:55.170Z</time>
      </trkpt>
      <trkpt lat="47.511725" lon="8.011067">
        <ele>354.522438</ele>
        <time>2021-11-14T16:31:55.651Z</time>
      </trkpt>
      <trkpt lat="47.511369" lon="8.012112">
        <ele>355.215903</ele>
        <time>2021-11-14T16:32:13.348Z</time>
      </trkpt>
      <trkpt lat="47.511339" lon="8.012189">
        <ele>355.315116</ele>
        <time>2021-11-14T16:32:14.756Z</time>
      </trkpt>
      <trkpt lat="47.511240" lon="8.012453">
        <ele>355.652137</ele>
        <time>2021-11-14T16:32:20.046Z</time>
      </trkpt>
      <trkpt lat="47.511153" lon="8.012630">
        <ele>355.896461</ele>
        <time>2021-11-14T16:32:22.894Z</time>
      </trkpt>
      <trkpt lat="47.511060" lon="8.012793">
        <ele>356.134608</ele>
        <time>2021-11-14T16:32:26.735Z</time>
      </trkpt>
      <trkpt lat="47.510610" lon="8.013245">
        <ele>357.033180</ele>
        <time>2021-11-14T16:32:37.985Z</time>
      </trkpt>
      <trkpt lat="47.510195" lon="8.013657">
        <ele>357.133637</ele>
        <time>2021-11-14T16:32:48.155Z</time>
      </trkpt>
      <trkpt lat="47.510139" lon="8.013722">
        <ele>357.114405</ele>
        <time>2021-11-14T16:32:49.624Z</time>
      </trkpt>
      <trkpt lat="47.510028" lon="8.013857">
        <ele>357.075579</ele>
        <time>2021-11-14T16:32:51.569Z</time>
      </trkpt>
      <trkpt lat="47.509928" lon="8.014411">
        <ele>356.970890</ele>
        <time>2021-11-14T16:32:57.455Z</time>
      </trkpt>
      <trkpt lat="47.509891" lon="8.014585">
        <ele>356.937587</ele>
        <time>2021-11-14T16:32:59.169Z</time>
      </trkpt>
      <trkpt lat="47.509823" lon="8.014904">
        <ele>356.876518</ele>
        <time>2021-11-14T16:33:01.729Z</time>
      </trkpt>
      <trkpt lat="47.509799" lon="8.014989">
        <ele>356.859699</ele>
        <time>2021-11-14T16:33:02.511Z</time>
      </trkpt>
      <trkpt lat="47.509686" lon="8.015069">
        <ele>356.825845</ele>
        <time>2021-11-14T16:33:03.993Z</time>
      </trkpt>
      <trkpt lat="47.509612" lon="8.015079">
        <ele>356.805761</ele>
        <time>2021-11-14T16:33:04.779Z</time>
      </trkpt>
      <trkpt lat="47.509546" lon="8.015060">
        <ele>356.787589</ele>
        <time>2021-11-14T16:33:05.482Z</time>
      </trkpt>
      <trkpt lat="47.509444" lon="8.014982">
        <ele>356.756560</ele>
        <time>2021-11-14T16:33:06.860Z</time>
      </trkpt>
      <trkpt lat="47.509142" lon="8.014737">
        <ele>356.391071</ele>
        <time>2021-11-14T16:33:10.684Z</time>
      </trkpt>
      <trkpt lat="47.508749" lon="8.014436">
        <ele>355.892496</ele>
        <time>2021-11-14T16:33:15.911Z</time>
      </trkpt>
      <trkpt lat="47.508646" lon="8.014383">
        <ele>355.769628</ele>
        <time>2021-11-14T16:33:17.139Z</time>
      </trkpt>
      <trkpt lat="47.508562" lon="8.014341">
        <ele>355.669726</ele>
        <time>2021-11-14T16:33:18.152Z</time>
      </trkpt>
      <trkpt lat="47.508375" lon="8.014403">
        <ele>355.453799</ele>
        <time>2021-11-14T16:33:20.753Z</time>
      </trkpt>
      <trkpt lat="47.508333" lon="8.014419">
        <ele>355.404933</ele>
        <time>2021-11-14T16:33:21.227Z</time>
      </trkpt>
      <trkpt lat="47.508281" lon="8.014277">
        <ele>355.281993</ele>
        <time>2021-11-14T16:33:22.482Z</time>
      </trkpt>
      <trkpt lat="47.508214" lon="8.014183">
        <ele>355.177983</ele>
        <time>2021-11-14T16:33:23.740Z</time>
      </trkpt>
      <trkpt lat="47.508075" lon="8.014054">
        <ele>354.993130</ele>
        <time>2021-11-14T16:33:25.810Z</time>
      </trkpt>
      <trkpt lat="47.508011" lon="8.013995">
        <ele>354.908177</ele>
        <time>2021-11-14T16:33:26.784Z</time>
      </trkpt>
      <trkpt lat="47.507595" lon="8.013616">
        <ele>354.572114</ele>
        <time>2021-11-14T16:33:33.189Z</time>
      </trkpt>
      <trkpt lat="47.507559" lon="8.013585">
        <ele>354.552743</ele>
        <time>2021-11-14T16:33:33.818Z</time>
      </trkpt>
      <trkpt lat="47.507231" lon="8.013292">
        <ele>354.374560</ele>
        <time>2021-11-14T16:33:38.938Z</time>
      </trkpt>
      <trkpt lat="47.507191" lon="8.013279">
        <ele>354.355513</ele>
        <time>2021-11-14T16:33:39.483Z</time>
      </trkpt>
      <trkpt lat="47.507106" lon="8.013288">
        <ele>354.315876</ele>
        <time>2021-11-14T16:33:40.616Z</time>
      </trkpt>
      <trkpt lat="47.507084" lon="8.013290">
        <ele>354.305624</ele>
        <time>2021-11-14T16:33:40.906Z</time>
      </trkpt>
      <trkpt lat="47.507038" lon="8.013279">
        <ele>354.283952</ele>
        <time>2021-11-14T16:33:41.608Z</time>
      </trkpt>
      <trkpt lat="47.507007" lon="8.013263">
        <ele>354.268682</ele>
        <time>2021-11-14T16:33:42.061Z</time>
      </trkpt>
      <trkpt lat="47.506989" lon="8.013246">
        <ele>354.258751</ele>
        <time>2021-11-14T16:33:42.374Z</time>
      </trkpt>
      <trkpt lat="47.506955" lon="8.013213">
        <ele>354.239841</ele>
        <time>2021-11-14T16:33:42.983Z</time>
      </trkpt>
      <trkpt lat="47.506929" lon="8.013191">
        <ele>354.225912</ele>
        <time>2021-11-14T16:33:43.458Z</time>
      </trkpt>
      <trkpt lat="47.506890" lon="8.013159">
        <ele>354.205172</ele>
        <time>2021-11-14T16:33:44.110Z</time>
      </trkpt>
      <trkpt lat="47.506825" lon="8.013107">
        <ele>354.170807</ele>
        <time>2021-11-14T16:33:45.133Z</time>
      </trkpt>
      <trkpt lat="47.506760" lon="8.013057">
        <ele>354.136736</ele>
        <time>2021-11-14T16:33:46.138Z</time>
      </trkpt>
      <trkpt lat="47.506697" lon="8.013001">
        <ele>354.102557</ele>
        <time>2021-11-14T16:33:47.141Z</time>
      </trkpt>
      <trkpt lat="47.506663" lon="8.012973">
        <ele>354.084461</ele>
        <time>2021-11-14T16:33:47.714Z</time>
      </trkpt>
      <trkpt lat="47.506633" lon="8.012949">
        <ele>354.068600</ele>
        <time>2021-11-14T16:33:48.210Z</time>
      </trkpt>
      <trkpt lat="47.506533" lon="8.012868">
        <ele>354.015581</ele>
        <time>2021-11-14T16:33:49.735Z</time>
      </trkpt>
      <trkpt lat="47.506492" lon="8.012798">
        <ele>353.986471</ele>
        <time>2021-11-14T16:33:50.617Z</time>
      </trkpt>
      <trkpt lat="47.506472" lon="8.012743">
        <ele>353.966846</ele>
        <time>2021-11-14T16:33:51.128Z</time>
      </trkpt>
      <trkpt lat="47.506389" lon="8.012514">
        <ele>353.886796</ele>
        <time>2021-11-14T16:33:53.376Z</time>
      </trkpt>
      <trkpt lat="47.506346" lon="8.012464">
        <ele>353.902194</ele>
        <time>2021-11-14T16:33:54.097Z</time>
      </trkpt>
      <trkpt lat="47.506308" lon="8.012429">
        <ele>353.914797</ele>
        <time>2021-11-14T16:33:54.681Z</time>
      </trkpt>
      <trkpt lat="47.506101" lon="8.012240">
        <ele>353.983284</ele>
        <time>2021-11-14T16:33:57.755Z</time>
      </trkpt>
      <trkpt lat="47.505808" lon="8.011926">
        <ele>354.085145</ele>
        <time>2021-11-14T16:34:02.382Z</time>
      </trkpt>
      <trkpt lat="47.505388" lon="8.011390">
        <ele>354.241301</ele>
        <time>2021-11-14T16:34:11.051Z</time>
      </trkpt>
      <trkpt lat="47.505237" lon="8.011270">
        <ele>354.289563</ele>
        <time>2021-11-14T16:34:14.033Z</time>
      </trkpt>
      <trkpt lat="47.504446" lon="8.010688">
        <ele>355.625903</ele>
        <time>2021-11-14T16:34:33.009Z</time>
      </trkpt>
      <trkpt lat="47.504256" lon="8.010566">
        <ele>356.119826</ele>
        <time>2021-11-14T16:34:38.102Z</time>
      </trkpt>
      <trkpt lat="47.504178" lon="8.010516">
        <ele>356.322541</ele>
        <time>2021-11-14T16:34:40.303Z</time>
      </trkpt>
      <trkpt lat="47.504018" lon="8.010447">
        <ele>356.719988</ele>
        <time>2021-11-14T16:34:45.192Z</time>
      </trkpt>
      <trkpt lat="47.503467" lon="8.010296">
        <ele>358.056397</ele>
        <time>2021-11-14T16:34:59.057Z</time>
      </trkpt>
      <trkpt lat="47.502991" lon="8.010405">
        <ele>359.111109</ele>
        <time>2021-11-14T16:35:11.631Z</time>
      </trkpt>
      <trkpt lat="47.502959" lon="8.010415">
        <ele>359.175085</ele>
        <time>2021-11-14T16:35:13.246Z</time>
      </trkpt>
      <trkpt lat="47.502773" lon="8.009928">
        <ele>359.914364</ele>
        <time>2021-11-14T16:35:23.042Z</time>
      </trkpt>
      <trkpt lat="47.502267" lon="8.008979">
        <ele>361.511982</ele>
        <time>2021-11-14T16:35:40.473Z</time>
      </trkpt>
      <trkpt lat="47.502158" lon="8.008808">
        <ele>361.822666</ele>
        <time>2021-11-14T16:35:43.505Z</time>
      </trkpt>
      <trkpt lat="47.502062" lon="8.008650">
        <ele>362.103483</ele>
        <time>2021-11-14T16:35:46.891Z</time>
      </trkpt>
      <trkpt lat="47.501943" lon="8.008353">
        <ele>362.317361</ele>
        <time>2021-11-14T16:35:51.116Z</time>
      </trkpt>
      <trkpt lat="47.501537" lon="8.007308">
        <ele>362.835122</ele>
        <time>2021-11-14T16:36:05.353Z</time>
      </trkpt>
      <trkpt lat="47.501496" lon="8.007247">
        <ele>362.872080</ele>
        <time>2021-11-14T16:36:06.384Z</time>
      </trkpt>
      <trkpt lat="47.501293" lon="8.006936">
        <ele>363.057820</ele>
        <time>2021-11-14T16:36:11.180Z</time>
      </trkpt>
      <trkpt lat="47.501276" lon="8.006911">
        <ele>363.073055</ele>
        <time>2021-11-14T16:36:11.555Z</time>
      </trkpt>
      <trkpt lat="47.500997" lon="8.006551">
        <ele>363.308367</ele>
        <time>2021-11-14T16:36:17.104Z</time>
      </trkpt>
      <trkpt lat="47.500764" lon="8.006290">
        <ele>363.531122</ele>
        <time>2021-11-14T16:36:21.673Z</time>
      </trkpt>
      <trkpt lat="47.500647" lon="8.006180">
        <ele>363.640971</ele>
        <time>2021-11-14T16:36:24.142Z</time>
      </trkpt>
      <trkpt lat="47.500540" lon="8.006079">
        <ele>363.741547</ele>
        <time>2021-11-14T16:36:26.237Z</time>
      </trkpt>
      <trkpt lat="47.500310" lon="8.005852">
        <ele>363.960633</ele>
        <time>2021-11-14T16:36:31.055Z</time>
      </trkpt>
      <trkpt lat="47.500252" lon="8.005784">
        <ele>364.019272</ele>
        <time>2021-11-14T16:36:32.377Z</time>
      </trkpt>
      <trkpt lat="47.500207" lon="8.005727">
        <ele>364.066212</ele>
        <time>2021-11-14T16:36:33.393Z</time>
      </trkpt>
      <trkpt lat="47.500009" lon="8.005488">
        <ele>364.268696</ele>
        <time>2021-11-14T16:36:38.108Z</time>
      </trkpt>
      <trkpt lat="47.499991" lon="8.005468">
        <ele>364.286533</ele>
        <time>2021-11-14T16:36:38.515Z</time>
      </trkpt>
      <trkpt lat="47.499880" lon="8.005358">
        <ele>364.392400</ele>
        <time>2021-11-14T16:36:41.186Z</time>
      </trkpt>
      <trkpt lat="47.499856" lon="8.005338">
        <ele>364.414228</ele>
        <time>2021-11-14T16:36:41.731Z</time>
      </trkpt>
      <trkpt lat="47.499770" lon="8.005268">
        <ele>364.492011</ele>
        <time>2021-11-14T16:36:43.676Z</time>
      </trkpt>
      <trkpt lat="47.499523" lon="8.005078">
        <ele>364.712622</ele>
        <time>2021-11-14T16:36:49.147Z</time>
      </trkpt>
      <trkpt lat="47.499496" lon="8.005059">
        <ele>364.736315</ele>
        <time>2021-11-14T16:36:49.768Z</time>
      </trkpt>
      <trkpt lat="47.499409" lon="8.005000">
        <ele>364.857054</ele>
        <time>2021-11-14T16:36:51.558Z</time>
      </trkpt>
      <trkpt lat="47.499183" lon="8.004875">
        <ele>365.250068</ele>
        <time>2021-11-14T16:36:56.354Z</time>
      </trkpt>
      <trkpt lat="47.499012" lon="8.004762">
        <ele>365.555125</ele>
        <time>2021-11-14T16:36:59.938Z</time>
      </trkpt>
      <trkpt lat="47.498965" lon="8.004710">
        <ele>365.650712</ele>
        <time>2021-11-14T16:37:01.224Z</time>
      </trkpt>
      <trkpt lat="47.498898" lon="8.004636">
        <ele>365.786890</ele>
        <time>2021-11-14T16:37:03.063Z</time>
      </trkpt>
      <trkpt lat="47.498753" lon="8.004410">
        <ele>366.129901</ele>
        <time>2021-11-14T16:37:07.234Z</time>
      </trkpt>
      <trkpt lat="47.498698" lon="8.004313">
        <ele>366.269269</ele>
        <time>2021-11-14T16:37:09.309Z</time>
      </trkpt>
      <trkpt lat="47.498450" lon="8.003874">
        <ele>366.899059</ele>
        <time>2021-11-14T16:37:18.161Z</time>
      </trkpt>
      <trkpt lat="47.498213" lon="8.003454">
        <ele>367.501315</ele>
        <time>2021-11-14T16:37:26.481Z</time>
      </trkpt>
      <trkpt lat="47.498166" lon="8.003383">
        <ele>367.610712</ele>
        <time>2021-11-14T16:37:27.909Z</time>
      </trkpt>
      <trkpt lat="47.498072" lon="8.003250">
        <ele>367.837516</ele>
        <time>2021-11-14T16:37:30.657Z</time>
      </trkpt>
      <trkpt lat="47.497951" lon="8.003094">
        <ele>368.130743</ele>
        <time>2021-11-14T16:37:34.492Z</time>
      </trkpt>
      <trkpt lat="47.497607" lon="8.002710">
        <ele>368.918078</ele>
        <time>2021-11-14T16:37:43.737Z</time>
      </trkpt>
      <trkpt lat="47.497540" lon="8.002634">
        <ele>369.072329</ele>
        <time>2021-11-14T16:37:45.725Z</time>
      </trkpt>
      <trkpt lat="47.497390" lon="8.002409">
        <ele>369.462579</ele>
        <time>2021-11-14T16:37:50.361Z</time>
      </trkpt>
      <trkpt lat="47.497307" lon="8.002279">
        <ele>369.683403</ele>
        <time>2021-11-14T16:37:52.998Z</time>
      </trkpt>
      <trkpt lat="47.497264" lon="8.002219">
        <ele>369.791391</ele>
        <time>2021-11-14T16:37:54.428Z</time>
      </trkpt>
      <trkpt lat="47.497207" lon="8.002132">
        <ele>369.941010</ele>
        <time>2021-11-14T16:37:56.106Z</time>
      </trkpt>
      <trkpt lat="47.496932" lon="8.001715">
        <ele>370.660436</ele>
        <time>2021-11-14T16:38:05.243Z</time>
      </trkpt>
      <trkpt lat="47.496908" lon="8.001680">
        <ele>370.722004</ele>
        <time>2021-11-14T16:38:05.988Z</time>
      </trkpt>
      <trkpt lat="47.496861" lon="8.001608">
        <ele>370.845608</ele>
        <time>2021-11-14T16:38:07.467Z</time>
      </trkpt>
      <trkpt lat="47.496820" lon="8.001547">
        <ele>370.951838</ele>
        <time>2021-11-14T16:38:08.812Z</time>
      </trkpt>
      <trkpt lat="47.496585" lon="8.001187">
        <ele>371.327842</ele>
        <time>2021-11-14T16:38:15.865Z</time>
      </trkpt>
      <trkpt lat="47.496535" lon="8.001108">
        <ele>371.406059</ele>
        <time>2021-11-14T16:38:17.560Z</time>
      </trkpt>
      <trkpt lat="47.496533" lon="8.001104">
        <ele>371.409654</ele>
        <time>2021-11-14T16:38:17.631Z</time>
      </trkpt>
      <trkpt lat="47.496517" lon="8.001077">
        <ele>371.435605</ele>
        <time>2021-11-14T16:38:18.273Z</time>
      </trkpt>
      <trkpt lat="47.496429" lon="8.000925">
        <ele>371.580242</ele>
        <time>2021-11-14T16:38:20.685Z</time>
      </trkpt>
      <trkpt lat="47.496280" lon="8.000664">
        <ele>371.827142</ele>
        <time>2021-11-14T16:38:25.468Z</time>
      </trkpt>
      <trkpt lat="47.496272" lon="8.000651">
        <ele>371.839847</ele>
        <time>2021-11-14T16:38:25.686Z</time>
      </trkpt>
      <trkpt lat="47.496234" lon="8.000584">
        <ele>371.903056</ele>
        <time>2021-11-14T16:38:26.613Z</time>
      </trkpt>
      <trkpt lat="47.496011" lon="8.000286">
        <ele>372.224372</ele>
        <time>2021-11-14T16:38:32.270Z</time>
      </trkpt>
      <trkpt lat="47.495718" lon="8.000005">
        <ele>372.597759</ele>
        <time>2021-11-14T16:38:38.420Z</time>
      </trkpt>
      <trkpt lat="47.495430" lon="7.999752">
        <ele>372.922969</ele>
        <time>2021-11-14T16:38:44.085Z</time>
      </trkpt>
      <trkpt lat="47.495197" lon="7.999589">
        <ele>373.001179</ele>
        <time>2021-11-14T16:38:48.293Z</time>
      </trkpt>
      <trkpt lat="47.494812" lon="7.999457">
        <ele>373.121110</ele>
        <time>2021-11-14T16:38:54.518Z</time>
      </trkpt>
      <trkpt lat="47.494643" lon="7.999430">
        <ele>373.172695</ele>
        <time>2021-11-14T16:38:57.078Z</time>
      </trkpt>
      <trkpt lat="47.494489" lon="7.999417">
        <ele>373.219505</ele>
        <time>2021-11-14T16:38:59.285Z</time>
      </trkpt>
      <trkpt lat="47.494272" lon="7.999381">
        <ele>373.285771</ele>
        <time>2021-11-14T16:39:02.427Z</time>
      </trkpt>
      <trkpt lat="47.493961" lon="7.999292">
        <ele>373.381899</ele>
        <time>2021-11-14T16:39:07.442Z</time>
      </trkpt>
      <trkpt lat="47.493937" lon="7.999285">
        <ele>373.389323</ele>
        <time>2021-11-14T16:39:07.889Z</time>
      </trkpt>
      <trkpt lat="47.493742" lon="7.999216">
        <ele>373.450168</ele>
        <time>2021-11-14T16:39:11.286Z</time>
      </trkpt>
      <trkpt lat="47.493603" lon="7.999152">
        <ele>373.651967</ele>
        <time>2021-11-14T16:39:13.906Z</time>
      </trkpt>
      <trkpt lat="47.493502" lon="7.999071">
        <ele>373.829199</ele>
        <time>2021-11-14T16:39:15.980Z</time>
      </trkpt>
      <trkpt lat="47.493433" lon="7.998996">
        <ele>373.961279</ele>
        <time>2021-11-14T16:39:17.454Z</time>
      </trkpt>
      <trkpt lat="47.493358" lon="7.998911">
        <ele>374.107020</ele>
        <time>2021-11-14T16:39:19.105Z</time>
      </trkpt>
      <trkpt lat="47.493296" lon="7.998833">
        <ele>374.232564</ele>
        <time>2021-11-14T16:39:20.752Z</time>
      </trkpt>
      <trkpt lat="47.493144" lon="7.998645">
        <ele>374.538182</ele>
        <time>2021-11-14T16:39:24.404Z</time>
      </trkpt>
      <trkpt lat="47.492877" lon="7.998257">
        <ele>375.115490</ele>
        <time>2021-11-14T16:39:32.805Z</time>
      </trkpt>
      <trkpt lat="47.492747" lon="7.998084">
        <ele>375.385215</ele>
        <time>2021-11-14T16:39:36.777Z</time>
      </trkpt>
      <trkpt lat="47.492722" lon="7.998050">
        <ele>375.437597</ele>
        <time>2021-11-14T16:39:37.456Z</time>
      </trkpt>
      <trkpt lat="47.492617" lon="7.997908">
        <ele>375.657040</ele>
        <time>2021-11-14T16:39:40.907Z</time>
      </trkpt>
      <trkpt lat="47.492477" lon="7.997747">
        <ele>375.930577</ele>
        <time>2021-11-14T16:39:44.948Z</time>
      </trkpt>
      <trkpt lat="47.492317" lon="7.997637">
        <ele>376.202763</ele>
        <time>2021-11-14T16:39:49.239Z</time>
      </trkpt>
      <trkpt lat="47.491886" lon="7.997365">
        <ele>377.211928</ele>
        <time>2021-11-14T16:40:00.288Z</time>
      </trkpt>
      <trkpt lat="47.491854" lon="7.997405">
        <ele>377.303174</ele>
        <time>2021-11-14T16:40:01.544Z</time>
      </trkpt>
      <trkpt lat="47.491748" lon="7.997367">
        <ele>377.540762</ele>
        <time>2021-11-14T16:40:04.607Z</time>
      </trkpt>
      <trkpt lat="47.491680" lon="7.997343">
        <ele>377.693046</ele>
        <time>2021-11-14T16:40:07.152Z</time>
      </trkpt>
      <trkpt lat="47.490780" lon="7.996642">
        <ele>379.908549</ele>
        <time>2021-11-14T16:40:36.609Z</time>
      </trkpt>
      <trkpt lat="47.489284" lon="7.995053">
        <ele>383.390615</ele>
        <time>2021-11-14T16:41:27.583Z</time>
      </trkpt>
      <trkpt lat="47.488959" lon="7.994757">
        <ele>384.024759</ele>
        <time>2021-11-14T16:41:38.025Z</time>
      </trkpt>
      <trkpt lat="47.488959" lon="7.994757">
        <ele>384.024759</ele>
        <time>2021-11-14T16:41:38.859Z</time>
      </trkpt>
      <trkpt lat="47.488959" lon="7.994757">
        <ele>384.024759</ele>
        <time>2021-11-14T16:41:38.944Z</time>
      </trkpt>
      <trkpt lat="47.488246" lon="7.994102">
        <ele>385.381242</ele>
        <time>2021-11-14T16:42:01.671Z</time>
      </trkpt>
      <trkpt lat="47.487633" lon="7.993524">
        <ele>386.505620</ele>
        <time>2021-11-14T16:42:20.503Z</time>
      </trkpt>
      <trkpt lat="47.487213" lon="7.993014">
        <ele>387.047170</ele>
        <time>2021-11-14T16:42:33.849Z</time>
      </trkpt>
      <trkpt lat="47.486383" lon="7.991737">
        <ele>388.241992</ele>
        <time>2021-11-14T16:43:02.190Z</time>
      </trkpt>
      <trkpt lat="47.486334" lon="7.991668">
        <ele>388.313315</ele>
        <time>2021-11-14T16:43:03.756Z</time>
      </trkpt>
      <trkpt lat="47.486260" lon="7.991591">
        <ele>388.408705</ele>
        <time>2021-11-14T16:43:06.052Z</time>
      </trkpt>
      <trkpt lat="47.486202" lon="7.991524">
        <ele>388.486291</ele>
        <time>2021-11-14T16:43:07.843Z</time>
      </trkpt>
      <trkpt lat="47.486129" lon="7.991440">
        <ele>388.583800</ele>
        <time>2021-11-14T16:43:09.882Z</time>
      </trkpt>
      <trkpt lat="47.486063" lon="7.991399">
        <ele>388.659278</ele>
        <time>2021-11-14T16:43:11.527Z</time>
      </trkpt>
      <trkpt lat="47.485991" lon="7.991440">
        <ele>388.740626</ele>
        <time>2021-11-14T16:43:12.977Z</time>
      </trkpt>
      <trkpt lat="47.485898" lon="7.991482">
        <ele>388.843156</ele>
        <time>2021-11-14T16:43:14.910Z</time>
      </trkpt>
      <trkpt lat="47.485635" lon="7.991515">
        <ele>389.121473</ele>
        <time>2021-11-14T16:43:19.640Z</time>
      </trkpt>
      <trkpt lat="47.485528" lon="7.991512">
        <ele>389.234321</ele>
        <time>2021-11-14T16:43:21.921Z</time>
      </trkpt>
      <trkpt lat="47.484597" lon="7.991511">
        <ele>390.244604</ele>
        <time>2021-11-14T16:43:40.013Z</time>
      </trkpt>
      <trkpt lat="47.484196" lon="7.991380">
        <ele>390.798731</ele>
        <time>2021-11-14T16:43:48.262Z</time>
      </trkpt>
      <trkpt lat="47.484004" lon="7.991285">
        <ele>391.071910</ele>
        <time>2021-11-14T16:43:52.503Z</time>
      </trkpt>
      <trkpt lat="47.483794" lon="7.991174">
        <ele>391.372814</ele>
        <time>2021-11-14T16:43:56.766Z</time>
      </trkpt>
      <trkpt lat="47.483302" lon="7.991001">
        <ele>392.055191</ele>
        <time>2021-11-14T16:44:06.993Z</time>
      </trkpt>
      <trkpt lat="47.483009" lon="7.990995">
        <ele>392.450594</ele>
        <time>2021-11-14T16:44:12.926Z</time>
      </trkpt>
      <trkpt lat="47.482872" lon="7.991012">
        <ele>392.651570</ele>
        <time>2021-11-14T16:44:16.025Z</time>
      </trkpt>
      <trkpt lat="47.482259" lon="7.991194">
        <ele>393.632186</ele>
        <time>2021-11-14T16:44:29.098Z</time>
      </trkpt>
      <trkpt lat="47.481732" lon="7.991480">
        <ele>394.512593</ele>
        <time>2021-11-14T16:44:41.121Z</time>
      </trkpt>
      <trkpt lat="47.481496" lon="7.991617">
        <ele>394.910212</ele>
        <time>2021-11-14T16:44:46.650Z</time>
      </trkpt>
      <trkpt lat="47.481096" lon="7.991850">
        <ele>395.575560</ele>
        <time>2021-11-14T16:44:55.570Z</time>
      </trkpt>
      <trkpt lat="47.480657" lon="7.991988">
        <ele>396.251347</ele>
        <time>2021-11-14T16:45:04.802Z</time>
      </trkpt>
      <trkpt lat="47.480402" lon="7.991988">
        <ele>396.635318</ele>
        <time>2021-11-14T16:45:10.441Z</time>
      </trkpt>
      <trkpt lat="47.479254" lon="7.991575">
        <ele>398.427507</ele>
        <time>2021-11-14T16:45:34.595Z</time>
      </trkpt>
      <trkpt lat="47.479179" lon="7.991567">
        <ele>398.545077</ele>
        <time>2021-11-14T16:45:36.218Z</time>
      </trkpt>
      <trkpt lat="47.479142" lon="7.991563">
        <ele>398.603083</ele>
        <time>2021-11-14T16:45:36.937Z</time>
      </trkpt>
      <trkpt lat="47.478975" lon="7.991551">
        <ele>398.864502</ele>
        <time>2021-11-14T16:45:40.314Z</time>
      </trkpt>
      <trkpt lat="47.477593" lon="7.991455">
        <ele>401.183530</ele>
        <time>2021-11-14T16:46:09.599Z</time>
      </trkpt>
      <trkpt lat="47.477212" lon="7.991382">
        <ele>402.428983</ele>
        <time>2021-11-14T16:46:18.334Z</time>
      </trkpt>
      <trkpt lat="47.476858" lon="7.991285">
        <ele>403.596107</ele>
        <time>2021-11-14T16:46:27.211Z</time>
      </trkpt>
      <trkpt lat="47.476495" lon="7.991119">
        <ele>404.827822</ele>
        <time>2021-11-14T16:46:37.765Z</time>
      </trkpt>
      <trkpt lat="47.475752" lon="7.990844">
        <ele>407.943915</ele>
        <time>2021-11-14T16:47:03.141Z</time>
      </trkpt>
      <trkpt lat="47.475384" lon="7.990744">
        <ele>410.442688</ele>
        <time>2021-11-14T16:47:17.397Z</time>
      </trkpt>
      <trkpt lat="47.474869" lon="7.990750">
        <ele>413.882187</ele>
        <time>2021-11-14T16:47:39.009Z</time>
      </trkpt>
      <trkpt lat="47.473566" lon="7.991189">
        <ele>422.424639</ele>
        <time>2021-11-14T16:48:41.326Z</time>
      </trkpt>
      <trkpt lat="47.473097" lon="7.991272">
        <ele>425.283648</ele>
        <time>2021-11-14T16:49:00.379Z</time>
      </trkpt>
      <trkpt lat="47.472796" lon="7.991311">
        <ele>427.112519</ele>
        <time>2021-11-14T16:49:11.595Z</time>
      </trkpt>
      <trkpt lat="47.472461" lon="7.991354">
        <ele>429.147830</ele>
        <time>2021-11-14T16:49:22.479Z</time>
      </trkpt>
      <trkpt lat="47.471790" lon="7.991484">
        <ele>430.548229</ele>
        <time>2021-11-14T16:49:40.602Z</time>
      </trkpt>
      <trkpt lat="47.471617" lon="7.991535">
        <ele>430.823375</ele>
        <time>2021-11-14T16:49:44.149Z</time>
      </trkpt>
      <trkpt lat="47.470749" lon="7.991887">
        <ele>432.227202</ele>
        <time>2021-11-14T16:49:59.367Z</time>
      </trkpt>
      <trkpt lat="47.470033" lon="7.992305">
        <ele>432.723216</ele>
        <time>2021-11-14T16:50:11.019Z</time>
      </trkpt>
      <trkpt lat="47.469747" lon="7.992506">
        <ele>432.872532</ele>
        <time>2021-11-14T16:50:16.291Z</time>
      </trkpt>
      <trkpt lat="47.469362" lon="7.992773">
        <ele>433.073049</ele>
        <time>2021-11-14T16:50:23.754Z</time>
      </trkpt>
      <trkpt lat="47.468375" lon="7.993424">
        <ele>433.844706</ele>
        <time>2021-11-14T16:50:42.777Z</time>
      </trkpt>
      <trkpt lat="47.468089" lon="7.993593">
        <ele>434.110147</ele>
        <time>2021-11-14T16:50:48.446Z</time>
      </trkpt>
      <trkpt lat="47.467721" lon="7.993817">
        <ele>434.453128</ele>
        <time>2021-11-14T16:50:55.620Z</time>
      </trkpt>
      <trkpt lat="47.467579" lon="7.993896">
        <ele>434.583887</ele>
        <time>2021-11-14T16:50:58.215Z</time>
      </trkpt>
      <trkpt lat="47.467154" lon="7.994150">
        <ele>435.048980</ele>
        <time>2021-11-14T16:51:07.372Z</time>
      </trkpt>
      <trkpt lat="47.466146" lon="7.994726">
        <ele>436.381310</ele>
        <time>2021-11-14T16:51:29.148Z</time>
      </trkpt>
      <trkpt lat="47.465905" lon="7.994879">
        <ele>436.704663</ele>
        <time>2021-11-14T16:51:34.580Z</time>
      </trkpt>
      <trkpt lat="47.465772" lon="7.994973">
        <ele>436.886403</ele>
        <time>2021-11-14T16:51:37.708Z</time>
      </trkpt>
      <trkpt lat="47.465613" lon="7.995104">
        <ele>437.061445</ele>
        <time>2021-11-14T16:51:41.003Z</time>
      </trkpt>
      <trkpt lat="47.465230" lon="7.995479">
        <ele>437.263952</ele>
        <time>2021-11-14T16:51:49.411Z</time>
      </trkpt>
      <trkpt lat="47.465119" lon="7.995595">
        <ele>437.323874</ele>
        <time>2021-11-14T16:51:52.171Z</time>
      </trkpt>
      <trkpt lat="47.465105" lon="7.995610">
        <ele>437.331496</ele>
        <time>2021-11-14T16:51:52.344Z</time>
      </trkpt>
      <trkpt lat="47.464249" lon="7.996297">
        <ele>437.760882</ele>
        <time>2021-11-14T16:52:07.996Z</time>
      </trkpt>
      <trkpt lat="47.464131" lon="7.996368">
        <ele>437.817048</ele>
        <time>2021-11-14T16:52:09.705Z</time>
      </trkpt>
      <trkpt lat="47.463691" lon="7.996686">
        <ele>437.861270</ele>
        <time>2021-11-14T16:52:16.043Z</time>
      </trkpt>
      <trkpt lat="47.463326" lon="7.997031">
        <ele>437.893049</ele>
        <time>2021-11-14T16:52:22.074Z</time>
      </trkpt>
      <trkpt lat="47.463107" lon="7.997172">
        <ele>437.910572</ele>
        <time>2021-11-14T16:52:25.340Z</time>
      </trkpt>
      <trkpt lat="47.463019" lon="7.997210">
        <ele>437.917298</ele>
        <time>2021-11-14T16:52:26.759Z</time>
      </trkpt>
      <trkpt lat="47.462705" lon="7.997285">
        <ele>437.940634</ele>
        <time>2021-11-14T16:52:31.926Z</time>
      </trkpt>
      <trkpt lat="47.462598" lon="7.997285">
        <ele>437.948484</ele>
        <time>2021-11-14T16:52:33.758Z</time>
      </trkpt>
      <trkpt lat="47.462350" lon="7.997293">
        <ele>438.206838</ele>
        <time>2021-11-14T16:52:38.330Z</time>
      </trkpt>
      <trkpt lat="47.462299" lon="7.997298">
        <ele>438.327145</ele>
        <time>2021-11-14T16:52:39.398Z</time>
      </trkpt>
      <trkpt lat="47.461927" lon="7.997527">
        <ele>439.275561</ele>
        <time>2021-11-14T16:52:47.000Z</time>
      </trkpt>
      <trkpt lat="47.461552" lon="7.997973">
        <ele>440.408189</ele>
        <time>2021-11-14T16:52:57.375Z</time>
      </trkpt>
      <trkpt lat="47.461502" lon="7.997997">
        <ele>440.531921</ele>
        <time>2021-11-14T16:52:58.912Z</time>
      </trkpt>
      <trkpt lat="47.461438" lon="7.998032">
        <ele>440.692531</ele>
        <time>2021-11-14T16:53:00.264Z</time>
      </trkpt>
      <trkpt lat="47.461284" lon="7.998059">
        <ele>441.057552</ele>
        <time>2021-11-14T16:53:04.047Z</time>
      </trkpt>
      <trkpt lat="47.461300" lon="7.998198">
        <ele>441.281936</ele>
        <time>2021-11-14T16:53:06.559Z</time>
      </trkpt>
      <trkpt lat="47.461368" lon="7.998875">
        <ele>442.732650</ele>
        <time>2021-11-14T16:53:25.247Z</time>
      </trkpt>
      <trkpt lat="47.461364" lon="7.999029">
        <ele>443.474547</ele>
        <time>2021-11-14T16:53:29.049Z</time>
      </trkpt>
      <trkpt lat="47.461358" lon="7.999105">
        <ele>443.842895</ele>
        <time>2021-11-14T16:53:30.916Z</time>
      </trkpt>
      <trkpt lat="47.461337" lon="7.999448">
        <ele>445.500842</ele>
        <time>2021-11-14T16:53:40.548Z</time>
      </trkpt>
      <trkpt lat="47.461342" lon="7.999620">
        <ele>446.329610</ele>
        <time>2021-11-14T16:53:45.635Z</time>
      </trkpt>
      <trkpt lat="47.461344" lon="7.999697">
        <ele>446.700559</ele>
        <time>2021-11-14T16:53:47.759Z</time>
      </trkpt>
      <trkpt lat="47.461478" lon="8.000145">
        <ele>449.058845</ele>
        <time>2021-11-14T16:54:05.575Z</time>
      </trkpt>
      <trkpt lat="47.461510" lon="8.000292">
        <ele>449.802274</ele>
        <time>2021-11-14T16:54:10.033Z</time>
      </trkpt>
      <trkpt lat="47.461537" lon="8.000414">
        <ele>450.420241</ele>
        <time>2021-11-14T16:54:16.651Z</time>
      </trkpt>
      <trkpt lat="47.461661" lon="8.000696">
        <ele>452.039637</ele>
        <time>2021-11-14T16:54:26.897Z</time>
      </trkpt>
      <trkpt lat="47.461684" lon="8.000834">
        <ele>452.723849</ele>
        <time>2021-11-14T16:54:32.012Z</time>
      </trkpt>
      <trkpt lat="47.461729" lon="8.001155">
        <ele>454.301991</ele>
        <time>2021-11-14T16:54:44.783Z</time>
      </trkpt>
      <trkpt lat="47.461847" lon="8.001490">
        <ele>456.266417</ele>
        <time>2021-11-14T16:54:59.322Z</time>
      </trkpt>
      <trkpt lat="47.461882" lon="8.001606">
        <ele>456.957577</ele>
        <time>2021-11-14T16:55:03.971Z</time>
      </trkpt>
      <trkpt lat="47.461931" lon="8.001828">
        <ele>458.228222</ele>
        <time>2021-11-14T16:55:12.109Z</time>
      </trkpt>
      <trkpt lat="47.461939" lon="8.001862">
        <ele>458.424100</ele>
        <time>2021-11-14T16:55:14.869Z</time>
      </trkpt>
      <trkpt lat="47.462279" lon="8.003233">
        <ele>466.369713</ele>
        <time>2021-11-14T16:56:08.568Z</time>
      </trkpt>
      <trkpt lat="47.462480" lon="8.004780">
        <ele>471.995123</ele>
        <time>2021-11-14T16:56:55.405Z</time>
      </trkpt>
      <trkpt lat="47.462493" lon="8.004947">
        <ele>472.416850</ele>
        <time>2021-11-14T16:57:00.123Z</time>
      </trkpt>
      <trkpt lat="47.462616" lon="8.006075">
        <ele>475.283268</ele>
        <time>2021-11-14T16:57:23.285Z</time>
      </trkpt>
      <trkpt lat="47.462805" lon="8.007456">
        <ele>476.773411</ele>
        <time>2021-11-14T16:57:45.366Z</time>
      </trkpt>
      <trkpt lat="47.462800" lon="8.007890">
        <ele>477.028134</ele>
        <time>2021-11-14T16:57:50.962Z</time>
      </trkpt>
      <trkpt lat="47.462728" lon="8.008388">
        <ele>477.326984</ele>
        <time>2021-11-14T16:57:57.747Z</time>
      </trkpt>
      <trkpt lat="47.462547" lon="8.009129">
        <ele>478.067112</ele>
        <time>2021-11-14T16:58:11.017Z</time>
      </trkpt>
      <trkpt lat="47.462463" lon="8.009587">
        <ele>479.324543</ele>
        <time>2021-11-14T16:58:20.952Z</time>
      </trkpt>
      <trkpt lat="47.462361" lon="8.010261">
        <ele>481.154649</ele>
        <time>2021-11-14T16:58:37.122Z</time>
      </trkpt>
      <trkpt lat="47.462345" lon="8.010623">
        <ele>482.115896</ele>
        <time>2021-11-14T16:58:46.156Z</time>
      </trkpt>
      <trkpt lat="47.462351" lon="8.011574">
        <ele>484.635890</ele>
        <time>2021-11-14T16:59:12.293Z</time>
      </trkpt>
      <trkpt lat="47.462387" lon="8.012673">
        <ele>489.605749</ele>
        <time>2021-11-14T16:59:46.767Z</time>
      </trkpt>
      <trkpt lat="47.463043" lon="8.013715">
        <ele>496.154825</ele>
        <time>2021-11-14T17:00:34.631Z</time>
      </trkpt>
      <trkpt lat="47.463120" lon="8.013943">
        <ele>497.336300</ele>
        <time>2021-11-14T17:00:43.400Z</time>
      </trkpt>
      <trkpt lat="47.463217" lon="8.014264">
        <ele>498.998581</ele>
        <time>2021-11-14T17:00:53.889Z</time>
      </trkpt>
      <trkpt lat="47.463250" lon="8.014644">
        <ele>500.809857</ele>
        <time>2021-11-14T17:01:06.529Z</time>
      </trkpt>
      <trkpt lat="47.463232" lon="8.014758">
        <ele>501.363316</ele>
        <time>2021-11-14T17:01:10.793Z</time>
      </trkpt>
      <trkpt lat="47.463219" lon="8.014847">
        <ele>501.793787</ele>
        <time>2021-11-14T17:01:14.412Z</time>
      </trkpt>
      <trkpt lat="47.463215" lon="8.015260">
        <ele>503.746518</ele>
        <time>2021-11-14T17:01:27.542Z</time>
      </trkpt>
      <trkpt lat="47.463353" lon="8.015951">
        <ele>507.152891</ele>
        <time>2021-11-14T17:01:52.311Z</time>
      </trkpt>
      <trkpt lat="47.463392" lon="8.016476">
        <ele>509.624365</ele>
        <time>2021-11-14T17:02:09.050Z</time>
      </trkpt>
      <trkpt lat="47.463387" lon="8.016679">
        <ele>510.259547</ele>
        <time>2021-11-14T17:02:14.916Z</time>
      </trkpt>
      <trkpt lat="47.463376" lon="8.016772">
        <ele>510.554766</ele>
        <time>2021-11-14T17:02:18.394Z</time>
      </trkpt>
      <trkpt lat="47.463155" lon="8.017375">
        <ele>512.699534</ele>
        <time>2021-11-14T17:02:36.718Z</time>
      </trkpt>
      <trkpt lat="47.463020" lon="8.017608">
        <ele>513.659061</ele>
        <time>2021-11-14T17:02:44.957Z</time>
      </trkpt>
      <trkpt lat="47.463037" lon="8.017698">
        <ele>513.951262</ele>
        <time>2021-11-14T17:02:47.806Z</time>
      </trkpt>
      <trkpt lat="47.463069" lon="8.018018">
        <ele>514.962764</ele>
        <time>2021-11-14T17:02:54.943Z</time>
      </trkpt>
      <trkpt lat="47.463141" lon="8.018161">
        <ele>515.520294</ele>
        <time>2021-11-14T17:03:00.433Z</time>
      </trkpt>
      <trkpt lat="47.463300" lon="8.018293">
        <ele>516.363610</ele>
        <time>2021-11-14T17:03:05.946Z</time>
      </trkpt>
      <trkpt lat="47.463685" lon="8.018246">
        <ele>518.109303</ele>
        <time>2021-11-14T17:03:19.893Z</time>
      </trkpt>
      <trkpt lat="47.464158" lon="8.018035">
        <ele>520.028933</ele>
        <time>2021-11-14T17:03:35.071Z</time>
      </trkpt>
      <trkpt lat="47.464409" lon="8.017763">
        <ele>521.237929</ele>
        <time>2021-11-14T17:03:43.494Z</time>
      </trkpt>
      <trkpt lat="47.464552" lon="8.017494">
        <ele>522.136837</ele>
        <time>2021-11-14T17:03:49.808Z</time>
      </trkpt>
      <trkpt lat="47.464850" lon="8.016298">
        <ele>525.996543</ele>
        <time>2021-11-14T17:04:26.385Z</time>
      </trkpt>
      <trkpt lat="47.465028" lon="8.015884">
        <ele>528.378963</ele>
        <time>2021-11-14T17:04:43.111Z</time>
      </trkpt>
      <trkpt lat="47.465221" lon="8.015666">
        <ele>530.123173</ele>
        <time>2021-11-14T17:04:55.003Z</time>
      </trkpt>
      <trkpt lat="47.465279" lon="8.015633">
        <ele>530.569524</ele>
        <time>2021-11-14T17:04:58.718Z</time>
      </trkpt>
      <trkpt lat="47.465279" lon="8.015633">
        <ele>530.569524</ele>
        <time>2021-11-14T17:04:58.908Z</time>
      </trkpt>
      <trkpt lat="47.465418" lon="8.015638">
        <ele>531.568214</ele>
        <time>2021-11-14T17:05:06.004Z</time>
      </trkpt>
      <trkpt lat="47.465708" lon="8.015825">
        <ele>533.840509</ele>
        <time>2021-11-14T17:05:22.383Z</time>
      </trkpt>
      <trkpt lat="47.465766" lon="8.015874">
        <ele>534.320262</ele>
        <time>2021-11-14T17:05:25.913Z</time>
      </trkpt>
      <trkpt lat="47.465966" lon="8.016069">
        <ele>536.040785</ele>
        <time>2021-11-14T17:05:38.274Z</time>
      </trkpt>
      <trkpt lat="47.466160" lon="8.016232">
        <ele>537.643321</ele>
        <time>2021-11-14T17:05:48.142Z</time>
      </trkpt>
      <trkpt lat="47.466556" lon="8.016519">
        <ele>539.677848</ele>
        <time>2021-11-14T17:06:09.318Z</time>
      </trkpt>
      <trkpt lat="47.467003" lon="8.017013">
        <ele>542.176832</ele>
        <time>2021-11-14T17:06:33.028Z</time>
      </trkpt>
      <trkpt lat="47.467430" lon="8.017481">
        <ele>544.556954</ele>
        <time>2021-11-14T17:06:51.455Z</time>
      </trkpt>
      <trkpt lat="47.467888" lon="8.018032">
        <ele>545.888092</ele>
        <time>2021-11-14T17:07:06.459Z</time>
      </trkpt>
      <trkpt lat="47.468513" lon="8.018969">
        <ele>545.980214</ele>
        <time>2021-11-14T17:07:24.198Z</time>
      </trkpt>
      <trkpt lat="47.468974" lon="8.019662">
        <ele>545.972522</ele>
        <time>2021-11-14T17:07:36.054Z</time>
      </trkpt>
      <trkpt lat="47.469419" lon="8.020349">
        <ele>545.035185</ele>
        <time>2021-11-14T17:07:47.195Z</time>
      </trkpt>
      <trkpt lat="47.469692" lon="8.020817">
        <ele>544.426219</ele>
        <time>2021-11-14T17:07:53.836Z</time>
      </trkpt>
      <trkpt lat="47.469714" lon="8.020855">
        <ele>544.376932</ele>
        <time>2021-11-14T17:07:54.361Z</time>
      </trkpt>
      <trkpt lat="47.469735" lon="8.020913">
        <ele>544.312115</ele>
        <time>2021-11-14T17:07:55.050Z</time>
      </trkpt>
      <trkpt lat="47.469813" lon="8.021123">
        <ele>544.076068</ele>
        <time>2021-11-14T17:07:57.602Z</time>
      </trkpt>
      <trkpt lat="47.470288" lon="8.022852">
        <ele>542.608463</ele>
        <time>2021-11-14T17:08:17.966Z</time>
      </trkpt>
      <trkpt lat="47.470537" lon="8.024482">
        <ele>541.420719</ele>
        <time>2021-11-14T17:08:39.839Z</time>
      </trkpt>
      <trkpt lat="47.470674" lon="8.025499">
        <ele>540.440870</ele>
        <time>2021-11-14T17:08:51.899Z</time>
      </trkpt>
      <trkpt lat="47.470815" lon="8.026472">
        <ele>539.500605</ele>
        <time>2021-11-14T17:09:03.294Z</time>
      </trkpt>
      <trkpt lat="47.470901" lon="8.026456">
        <ele>539.379444</ele>
        <time>2021-11-14T17:09:04.470Z</time>
      </trkpt>
      <trkpt lat="47.471101" lon="8.026357">
        <ele>539.026110</ele>
        <time>2021-11-14T17:09:08.128Z</time>
      </trkpt>
      <trkpt lat="47.471288" lon="8.026223">
        <ele>537.991744</ele>
        <time>2021-11-14T17:09:11.090Z</time>
      </trkpt>
      <trkpt lat="47.471605" lon="8.025997">
        <ele>536.239993</ele>
        <time>2021-11-14T17:09:16.094Z</time>
      </trkpt>
      <trkpt lat="47.472160" lon="8.025637">
        <ele>533.223232</ele>
        <time>2021-11-14T17:09:24.250Z</time>
      </trkpt>
      <trkpt lat="47.472261" lon="8.025623">
        <ele>532.718240</ele>
        <time>2021-11-14T17:09:25.517Z</time>
      </trkpt>
      <trkpt lat="47.472351" lon="8.026149">
        <ele>530.892454</ele>
        <time>2021-11-14T17:09:30.272Z</time>
      </trkpt>
      <trkpt lat="47.472410" lon="8.026520">
        <ele>529.352308</ele>
        <time>2021-11-14T17:09:33.636Z</time>
      </trkpt>
      <trkpt lat="47.472555" lon="8.027433">
        <ele>524.700731</ele>
        <time>2021-11-14T17:09:41.780Z</time>
      </trkpt>
      <trkpt lat="47.473064" lon="8.029879">
        <ele>511.480991</ele>
        <time>2021-11-14T17:10:03.625Z</time>
      </trkpt>
      <trkpt lat="47.473798" lon="8.032299">
        <ele>496.843676</ele>
        <time>2021-11-14T17:10:26.030Z</time>
      </trkpt>
      <trkpt lat="47.473885" lon="8.033180">
        <ele>491.883737</ele>
        <time>2021-11-14T17:10:33.551Z</time>
      </trkpt>
      <trkpt lat="47.473847" lon="8.033563">
        <ele>489.727275</ele>
        <time>2021-11-14T17:10:36.814Z</time>
      </trkpt>
      <trkpt lat="47.473840" lon="8.033635">
        <ele>489.322052</ele>
        <time>2021-11-14T17:10:37.409Z</time>
      </trkpt>
      <trkpt lat="47.473790" lon="8.034413">
        <ele>485.385501</ele>
        <time>2021-11-14T17:10:44.104Z</time>
      </trkpt>
      <trkpt lat="47.473831" lon="8.035129">
        <ele>482.034040</ele>
        <time>2021-11-14T17:10:50.295Z</time>
      </trkpt>
      <trkpt lat="47.473839" lon="8.035286">
        <ele>481.299698</ele>
        <time>2021-11-14T17:10:51.652Z</time>
      </trkpt>
      <trkpt lat="47.473860" lon="8.035698">
        <ele>479.372633</ele>
        <time>2021-11-14T17:10:55.237Z</time>
      </trkpt>
      <trkpt lat="47.474180" lon="8.037564">
        <ele>470.683393</ele>
        <time>2021-11-14T17:11:12.333Z</time>
      </trkpt>
      <trkpt lat="47.474209" lon="8.038339">
        <ele>467.285107</ele>
        <time>2021-11-14T17:11:19.166Z</time>
      </trkpt>
      <trkpt lat="47.474215" lon="8.038707">
        <ele>465.673468</ele>
        <time>2021-11-14T17:11:22.390Z</time>
      </trkpt>
      <trkpt lat="47.474227" lon="8.039152">
        <ele>463.723629</ele>
        <time>2021-11-14T17:11:26.289Z</time>
      </trkpt>
      <trkpt lat="47.474221" lon="8.039449">
        <ele>461.991200</ele>
        <time>2021-11-14T17:11:28.852Z</time>
      </trkpt>
      <trkpt lat="47.474163" lon="8.039992">
        <ele>458.591924</ele>
        <time>2021-11-14T17:11:33.511Z</time>
      </trkpt>
      <trkpt lat="47.474138" lon="8.040208">
        <ele>457.236859</ele>
        <time>2021-11-14T17:11:35.328Z</time>
      </trkpt>
      <trkpt lat="47.474123" lon="8.040321">
        <ele>456.524782</ele>
        <time>2021-11-14T17:11:36.266Z</time>
      </trkpt>
      <trkpt lat="47.473985" lon="8.040949">
        <ele>452.441510</ele>
        <time>2021-11-14T17:11:41.719Z</time>
      </trkpt>
      <trkpt lat="47.473978" lon="8.040984">
        <ele>452.215813</ele>
        <time>2021-11-14T17:11:42.014Z</time>
      </trkpt>
      <trkpt lat="47.473879" lon="8.041501">
        <ele>448.893144</ele>
        <time>2021-11-14T17:11:46.467Z</time>
      </trkpt>
      <trkpt lat="47.473852" lon="8.041693">
        <ele>447.680494</ele>
        <time>2021-11-14T17:11:48.084Z</time>
      </trkpt>
      <trkpt lat="47.473777" lon="8.042224">
        <ele>444.436983</ele>
        <time>2021-11-14T17:11:52.558Z</time>
      </trkpt>
      <trkpt lat="47.473758" lon="8.042402">
        <ele>443.368616</ele>
        <time>2021-11-14T17:11:54.025Z</time>
      </trkpt>
      <trkpt lat="47.473704" lon="8.042917">
        <ele>440.278869</ele>
        <time>2021-11-14T17:11:58.354Z</time>
      </trkpt>
      <trkpt lat="47.473636" lon="8.043549">
        <ele>436.484817</ele>
        <time>2021-11-14T17:12:03.671Z</time>
      </trkpt>
      <trkpt lat="47.473516" lon="8.044367">
        <ele>431.522306</ele>
        <time>2021-11-14T17:12:10.777Z</time>
      </trkpt>
      <trkpt lat="47.473438" lon="8.044899">
        <ele>429.836042</ele>
        <time>2021-11-14T17:12:15.603Z</time>
      </trkpt>
      <trkpt lat="47.473401" lon="8.045179">
        <ele>429.030000</ele>
        <time>2021-11-14T17:12:18.262Z</time>
      </trkpt>
      <trkpt lat="47.473326" lon="8.045734">
        <ele>427.430962</ele>
        <time>2021-11-14T17:12:23.733Z</time>
      </trkpt>
      <trkpt lat="47.473281" lon="8.046069">
        <ele>426.465997</ele>
        <time>2021-11-14T17:12:27.122Z</time>
      </trkpt>
      <trkpt lat="47.473279" lon="8.046135">
        <ele>426.279343</ele>
        <time>2021-11-14T17:12:27.767Z</time>
      </trkpt>
      <trkpt lat="47.473275" lon="8.046246">
        <ele>425.965296</ele>
        <time>2021-11-14T17:12:28.866Z</time>
      </trkpt>
      <trkpt lat="47.473267" lon="8.046478">
        <ele>425.308986</ele>
        <time>2021-11-14T17:12:31.208Z</time>
      </trkpt>
      <trkpt lat="47.473288" lon="8.046956">
        <ele>423.955669</ele>
        <time>2021-11-14T17:12:36.061Z</time>
      </trkpt>
      <trkpt lat="47.473293" lon="8.047019">
        <ele>423.776456</ele>
        <time>2021-11-14T17:12:36.699Z</time>
      </trkpt>
      <trkpt lat="47.473330" lon="8.047516">
        <ele>422.791555</ele>
        <time>2021-11-14T17:12:41.675Z</time>
      </trkpt>
      <trkpt lat="47.473426" lon="8.048250">
        <ele>421.344996</ele>
        <time>2021-11-14T17:12:49.150Z</time>
      </trkpt>
      <trkpt lat="47.473399" lon="8.048317">
        <ele>421.194067</ele>
        <time>2021-11-14T17:12:49.933Z</time>
      </trkpt>
      <trkpt lat="47.473653" lon="8.048798">
        <ele>420.013036</ele>
        <time>2021-11-14T17:12:56.161Z</time>
      </trkpt>
      <trkpt lat="47.473721" lon="8.049149">
        <ele>419.306545</ele>
        <time>2021-11-14T17:12:59.820Z</time>
      </trkpt>
      <trkpt lat="47.473721" lon="8.049484">
        <ele>418.658358</ele>
        <time>2021-11-14T17:13:03.180Z</time>
      </trkpt>
      <trkpt lat="47.473739" lon="8.049805">
        <ele>418.115659</ele>
        <time>2021-11-14T17:13:06.365Z</time>
      </trkpt>
      <trkpt lat="47.473822" lon="8.050049">
        <ele>417.666356</ele>
        <time>2021-11-14T17:13:09.065Z</time>
      </trkpt>
      <trkpt lat="47.473894" lon="8.050166">
        <ele>417.406097</ele>
        <time>2021-11-14T17:13:10.631Z</time>
      </trkpt>
      <trkpt lat="47.474081" lon="8.050366">
        <ele>416.844580</ele>
        <time>2021-11-14T17:13:13.974Z</time>
      </trkpt>
      <trkpt lat="47.474117" lon="8.050413">
        <ele>416.727742</ele>
        <time>2021-11-14T17:13:14.677Z</time>
      </trkpt>
      <trkpt lat="47.474137" lon="8.050449">
        <ele>416.651093</ele>
        <time>2021-11-14T17:13:15.124Z</time>
      </trkpt>
      <trkpt lat="47.474195" lon="8.050557">
        <ele>416.424206</ele>
        <time>2021-11-14T17:13:16.497Z</time>
      </trkpt>
      <trkpt lat="47.474254" lon="8.050712">
        <ele>416.131608</ele>
        <time>2021-11-14T17:13:18.312Z</time>
      </trkpt>
      <trkpt lat="47.474369" lon="8.050670">
        <ele>415.843357</ele>
        <time>2021-11-14T17:13:19.546Z</time>
      </trkpt>
      <trkpt lat="47.474655" lon="8.050582">
        <ele>415.132490</ele>
        <time>2021-11-14T17:13:22.740Z</time>
      </trkpt>
      <trkpt lat="47.474739" lon="8.050557">
        <ele>414.923983</ele>
        <time>2021-11-14T17:13:23.714Z</time>
      </trkpt>
      <trkpt lat="47.474739" lon="8.050556">
        <ele>414.922338</ele>
        <time>2021-11-14T17:13:23.719Z</time>
      </trkpt>
      <trkpt lat="47.474798" lon="8.050543">
        <ele>414.777180</ele>
        <time>2021-11-14T17:13:24.394Z</time>
      </trkpt>
      <trkpt lat="47.474929" lon="8.050514">
        <ele>414.454845</ele>
        <time>2021-11-14T17:13:25.921Z</time>
      </trkpt>
      <trkpt lat="47.475093" lon="8.050477">
        <ele>414.161496</ele>
        <time>2021-11-14T17:13:27.918Z</time>
      </trkpt>
      <trkpt lat="47.475144" lon="8.050466">
        <ele>414.132000</ele>
        <time>2021-11-14T17:13:28.528Z</time>
      </trkpt>
      <trkpt lat="47.475253" lon="8.050461">
        <ele>414.069590</ele>
        <time>2021-11-14T17:13:29.807Z</time>
      </trkpt>
      <trkpt lat="47.475284" lon="8.050458">
        <ele>414.051810</ele>
        <time>2021-11-14T17:13:30.198Z</time>
      </trkpt>
      <trkpt lat="47.475357" lon="8.050458">
        <ele>414.010032</ele>
        <time>2021-11-14T17:13:31.080Z</time>
      </trkpt>
      <trkpt lat="47.475715" lon="8.050478">
        <ele>413.805002</ele>
        <time>2021-11-14T17:13:35.637Z</time>
      </trkpt>
      <trkpt lat="47.476449" lon="8.050502">
        <ele>413.384830</ele>
        <time>2021-11-14T17:13:45.401Z</time>
      </trkpt>
      <trkpt lat="47.476860" lon="8.050513">
        <ele>413.174094</ele>
        <time>2021-11-14T17:13:51.650Z</time>
      </trkpt>
      <trkpt lat="47.477294" lon="8.050539">
        <ele>413.295168</ele>
        <time>2021-11-14T17:13:58.731Z</time>
      </trkpt>
      <trkpt lat="47.477651" lon="8.050602">
        <ele>413.395386</ele>
        <time>2021-11-14T17:14:04.677Z</time>
      </trkpt>
      <trkpt lat="47.478162" lon="8.050827">
        <ele>413.543998</ele>
        <time>2021-11-14T17:14:13.653Z</time>
      </trkpt>
      <trkpt lat="47.478764" lon="8.051342">
        <ele>413.737668</ele>
        <time>2021-11-14T17:14:24.054Z</time>
      </trkpt>
      <trkpt lat="47.479245" lon="8.051933">
        <ele>413.911540</ele>
        <time>2021-11-14T17:14:33.409Z</time>
      </trkpt>
      <trkpt lat="47.479583" lon="8.052216">
        <ele>414.019541</ele>
        <time>2021-11-14T17:14:39.655Z</time>
      </trkpt>
      <trkpt lat="47.479686" lon="8.052283">
        <ele>414.050831</ele>
        <time>2021-11-14T17:14:41.227Z</time>
      </trkpt>
      <trkpt lat="47.479652" lon="8.052438">
        <ele>414.081459</ele>
        <time>2021-11-14T17:14:43.308Z</time>
      </trkpt>
      <trkpt lat="47.479649" lon="8.052498">
        <ele>414.092767</ele>
        <time>2021-11-14T17:14:43.953Z</time>
      </trkpt>
      <trkpt lat="47.479630" lon="8.052929">
        <ele>414.202205</ele>
        <time>2021-11-14T17:14:48.985Z</time>
      </trkpt>
      <trkpt lat="47.479620" lon="8.053140">
        <ele>414.419497</ele>
        <time>2021-11-14T17:14:51.521Z</time>
      </trkpt>
      <trkpt lat="47.479594" lon="8.053426">
        <ele>414.715951</ele>
        <time>2021-11-14T17:14:55.064Z</time>
      </trkpt>
      <trkpt lat="47.479449" lon="8.054321">
        <ele>415.661432</ele>
        <time>2021-11-14T17:15:06.927Z</time>
      </trkpt>
      <trkpt lat="47.478979" lon="8.055981">
        <ele>418.002024</ele>
        <time>2021-11-14T17:15:36.076Z</time>
      </trkpt>
      <trkpt lat="47.478659" lon="8.057076">
        <ele>420.217371</ele>
        <time>2021-11-14T17:15:56.516Z</time>
      </trkpt>
      <trkpt lat="47.478571" lon="8.057384">
        <ele>420.838333</ele>
        <time>2021-11-14T17:16:02.611Z</time>
      </trkpt>
      <trkpt lat="47.478460" lon="8.057765">
        <ele>421.608783</ele>
        <time>2021-11-14T17:16:10.119Z</time>
      </trkpt>
      <trkpt lat="47.478373" lon="8.058057">
        <ele>422.327028</ele>
        <time>2021-11-14T17:16:15.936Z</time>
      </trkpt>
      <trkpt lat="47.478205" lon="8.058640">
        <ele>423.917152</ele>
        <time>2021-11-14T17:16:28.875Z</time>
      </trkpt>
      <trkpt lat="47.478082" lon="8.059042">
        <ele>425.024295</ele>
        <time>2021-11-14T17:16:38.226Z</time>
      </trkpt>
      <trkpt lat="47.477696" lon="8.060296">
        <ele>428.481484</ele>
        <time>2021-11-14T17:17:06.006Z</time>
      </trkpt>
      <trkpt lat="47.477593" lon="8.060547">
        <ele>429.322624</ele>
        <time>2021-11-14T17:17:12.338Z</time>
      </trkpt>
      <trkpt lat="47.477285" lon="8.061239">
        <ele>431.712511</ele>
        <time>2021-11-14T17:17:28.085Z</time>
      </trkpt>
      <trkpt lat="47.476839" lon="8.062096">
        <ele>434.832283</ele>
        <time>2021-11-14T17:17:52.594Z</time>
      </trkpt>
      <trkpt lat="47.476746" lon="8.062377">
        <ele>435.734750</ele>
        <time>2021-11-14T17:18:00.192Z</time>
      </trkpt>
      <trkpt lat="47.476674" lon="8.062789">
        <ele>437.005696</ele>
        <time>2021-11-14T17:18:10.430Z</time>
      </trkpt>
      <trkpt lat="47.476719" lon="8.063355">
        <ele>438.742859</ele>
        <time>2021-11-14T17:18:22.768Z</time>
      </trkpt>
      <trkpt lat="47.476767" lon="8.063535">
        <ele>439.332690</ele>
        <time>2021-11-14T17:18:26.392Z</time>
      </trkpt>
      <trkpt lat="47.476813" lon="8.063687">
        <ele>439.840336</ele>
        <time>2021-11-14T17:18:31.389Z</time>
      </trkpt>
      <trkpt lat="47.476881" lon="8.064024">
        <ele>440.912369</ele>
        <time>2021-11-14T17:18:37.438Z</time>
      </trkpt>
      <trkpt lat="47.476881" lon="8.064143">
        <ele>441.275100</ele>
        <time>2021-11-14T17:18:41.108Z</time>
      </trkpt>
      <trkpt lat="47.476873" lon="8.064293">
        <ele>441.733746</ele>
        <time>2021-11-14T17:18:44.456Z</time>
      </trkpt>
      <trkpt lat="47.476826" lon="8.064458">
        <ele>442.279535</ele>
        <time>2021-11-14T17:18:47.197Z</time>
      </trkpt>
      <trkpt lat="47.476646" lon="8.064696">
        <ele>443.368241</ele>
        <time>2021-11-14T17:18:55.501Z</time>
      </trkpt>
      <trkpt lat="47.475931" lon="8.065110">
        <ele>447.088090</ele>
        <time>2021-11-14T17:19:21.792Z</time>
      </trkpt>
      <trkpt lat="47.475682" lon="8.065341">
        <ele>448.548638</ele>
        <time>2021-11-14T17:19:31.920Z</time>
      </trkpt>
      <trkpt lat="47.475564" lon="8.065578">
        <ele>449.537364</ele>
        <time>2021-11-14T17:19:37.386Z</time>
      </trkpt>
      <trkpt lat="47.475533" lon="8.065878">
        <ele>450.556745</ele>
        <time>2021-11-14T17:19:43.084Z</time>
      </trkpt>
      <trkpt lat="47.475557" lon="8.065984">
        <ele>450.932235</ele>
        <time>2021-11-14T17:19:44.447Z</time>
      </trkpt>
      <trkpt lat="47.475620" lon="8.066136">
        <ele>451.531137</ele>
        <time>2021-11-14T17:19:49.448Z</time>
      </trkpt>
      <trkpt lat="47.476133" lon="8.066601">
        <ele>455.573048</ele>
        <time>2021-11-14T17:20:13.250Z</time>
      </trkpt>
      <trkpt lat="47.476744" lon="8.067772">
        <ele>464.643253</ele>
        <time>2021-11-14T17:21:06.205Z</time>
      </trkpt>
      <trkpt lat="47.476804" lon="8.067876">
        <ele>465.481606</ele>
        <time>2021-11-14T17:21:11.809Z</time>
      </trkpt>
      <trkpt lat="47.476905" lon="8.068078">
        <ele>467.022168</ele>
        <time>2021-11-14T17:21:21.725Z</time>
      </trkpt>
      <trkpt lat="47.477226" lon="8.069153">
        <ele>474.060290</ele>
        <time>2021-11-14T17:22:06.073Z</time>
      </trkpt>
      <trkpt lat="47.477535" lon="8.069856">
        <ele>479.017198</ele>
        <time>2021-11-14T17:22:40.081Z</time>
      </trkpt>
      <trkpt lat="47.477782" lon="8.070670">
        <ele>484.291433</ele>
        <time>2021-11-14T17:23:05.632Z</time>
      </trkpt>
      <trkpt lat="47.477949" lon="8.070940">
        <ele>485.414339</ele>
        <time>2021-11-14T17:23:14.872Z</time>
      </trkpt>
      <trkpt lat="47.478196" lon="8.071038">
        <ele>485.648459</ele>
        <time>2021-11-14T17:23:21.466Z</time>
      </trkpt>
      <trkpt lat="47.478297" lon="8.071031">
        <ele>485.741027</ele>
        <time>2021-11-14T17:23:25.269Z</time>
      </trkpt>
      <trkpt lat="47.478431" lon="8.070989">
        <ele>485.866427</ele>
        <time>2021-11-14T17:23:27.682Z</time>
      </trkpt>
      <trkpt lat="47.478654" lon="8.070906">
        <ele>486.076946</ele>
        <time>2021-11-14T17:23:33.931Z</time>
      </trkpt>
      <trkpt lat="47.478791" lon="8.070894">
        <ele>486.202590</ele>
        <time>2021-11-14T17:23:35.506Z</time>
      </trkpt>
      <trkpt lat="47.479057" lon="8.070985">
        <ele>486.452540</ele>
        <time>2021-11-14T17:23:39.962Z</time>
      </trkpt>
      <trkpt lat="47.479285" lon="8.071346">
        <ele>486.758260</ele>
        <time>2021-11-14T17:23:43.832Z</time>
      </trkpt>
      <trkpt lat="47.479338" lon="8.071641">
        <ele>486.896927</ele>
        <time>2021-11-14T17:23:45.855Z</time>
      </trkpt>
      <trkpt lat="47.479329" lon="8.071876">
        <ele>486.102007</ele>
        <time>2021-11-14T17:23:47.503Z</time>
      </trkpt>
      <trkpt lat="47.479171" lon="8.072344">
        <ele>484.335242</ele>
        <time>2021-11-14T17:23:50.832Z</time>
      </trkpt>
      <trkpt lat="47.478998" lon="8.072745">
        <ele>482.728578</ele>
        <time>2021-11-14T17:23:53.807Z</time>
      </trkpt>
      <trkpt lat="47.478822" lon="8.073582">
        <ele>479.768170</ele>
        <time>2021-11-14T17:23:59.390Z</time>
      </trkpt>
      <trkpt lat="47.478771" lon="8.073890">
        <ele>478.697211</ele>
        <time>2021-11-14T17:24:01.355Z</time>
      </trkpt>
      <trkpt lat="47.478524" lon="8.075393">
        <ele>471.780513</ele>
        <time>2021-11-14T17:24:10.813Z</time>
      </trkpt>
      <trkpt lat="47.478503" lon="8.075683">
        <ele>470.423172</ele>
        <time>2021-11-14T17:24:12.603Z</time>
      </trkpt>
      <trkpt lat="47.478495" lon="8.075936">
        <ele>469.244459</ele>
        <time>2021-11-14T17:24:14.148Z</time>
      </trkpt>
      <trkpt lat="47.478491" lon="8.076404">
        <ele>467.066282</ele>
        <time>2021-11-14T17:24:16.938Z</time>
      </trkpt>
      <trkpt lat="47.478468" lon="8.076931">
        <ele>464.620358</ele>
        <time>2021-11-14T17:24:20.110Z</time>
      </trkpt>
      <trkpt lat="47.478370" lon="8.077594">
        <ele>461.500709</ele>
        <time>2021-11-14T17:24:24.201Z</time>
      </trkpt>
      <trkpt lat="47.478243" lon="8.078050">
        <ele>459.233616</ele>
        <time>2021-11-14T17:24:27.193Z</time>
      </trkpt>
      <trkpt lat="47.478205" lon="8.078154">
        <ele>458.690170</ele>
        <time>2021-11-14T17:24:27.877Z</time>
      </trkpt>
      <trkpt lat="47.478154" lon="8.078277">
        <ele>458.026855</ele>
        <time>2021-11-14T17:24:28.751Z</time>
      </trkpt>
      <trkpt lat="47.477953" lon="8.078709">
        <ele>455.616012</ele>
        <time>2021-11-14T17:24:31.992Z</time>
      </trkpt>
      <trkpt lat="47.476966" lon="8.080185">
        <ele>448.375151</ele>
        <time>2021-11-14T17:24:45.131Z</time>
      </trkpt>
      <trkpt lat="47.476896" lon="8.080345">
        <ele>447.776930</ele>
        <time>2021-11-14T17:24:46.414Z</time>
      </trkpt>
      <trkpt lat="47.476835" lon="8.080553">
        <ele>447.065269</ele>
        <time>2021-11-14T17:24:47.929Z</time>
      </trkpt>
      <trkpt lat="47.476800" lon="8.080768">
        <ele>446.371147</ele>
        <time>2021-11-14T17:24:49.378Z</time>
      </trkpt>
      <trkpt lat="47.476765" lon="8.080944">
        <ele>445.795318</ele>
        <time>2021-11-14T17:24:50.640Z</time>
      </trkpt>
      <trkpt lat="47.476757" lon="8.081196">
        <ele>445.003488</ele>
        <time>2021-11-14T17:24:52.309Z</time>
      </trkpt>
      <trkpt lat="47.476762" lon="8.081362">
        <ele>444.636909</ele>
        <time>2021-11-14T17:24:53.457Z</time>
      </trkpt>
      <trkpt lat="47.476787" lon="8.081713">
        <ele>443.873056</ele>
        <time>2021-11-14T17:24:55.809Z</time>
      </trkpt>
      <trkpt lat="47.476871" lon="8.082057">
        <ele>443.081461</ele>
        <time>2021-11-14T17:24:58.324Z</time>
      </trkpt>
      <trkpt lat="47.476884" lon="8.082262">
        <ele>442.635844</ele>
        <time>2021-11-14T17:24:59.679Z</time>
      </trkpt>
      <trkpt lat="47.477235" lon="8.082227">
        <ele>441.509371</ele>
        <time>2021-11-14T17:25:03.166Z</time>
      </trkpt>
      <trkpt lat="47.477544" lon="8.082234">
        <ele>440.519818</ele>
        <time>2021-11-14T17:25:06.272Z</time>
      </trkpt>
      <trkpt lat="47.477616" lon="8.082223">
        <ele>440.288044</ele>
        <time>2021-11-14T17:25:07.005Z</time>
      </trkpt>
      <trkpt lat="47.477722" lon="8.082181">
        <ele>439.936665</ele>
        <time>2021-11-14T17:25:08.171Z</time>
      </trkpt>
      <trkpt lat="47.477822" lon="8.082067">
        <ele>439.532435</ele>
        <time>2021-11-14T17:25:09.494Z</time>
      </trkpt>
      <trkpt lat="47.478231" lon="8.081453">
        <ele>438.169818</ele>
        <time>2021-11-14T17:25:15.973Z</time>
      </trkpt>
      <trkpt lat="47.478462" lon="8.081099">
        <ele>437.449441</ele>
        <time>2021-11-14T17:25:19.753Z</time>
      </trkpt>
      <trkpt lat="47.479043" lon="8.080208">
        <ele>435.636919</ele>
        <time>2021-11-14T17:25:28.735Z</time>
      </trkpt>
      <trkpt lat="47.479342" lon="8.079816">
        <ele>434.825969</ele>
        <time>2021-11-14T17:25:32.989Z</time>
      </trkpt>
      <trkpt lat="47.479645" lon="8.079484">
        <ele>434.089419</ele>
        <time>2021-11-14T17:25:37.040Z</time>
      </trkpt>
      <trkpt lat="47.479948" lon="8.079192">
        <ele>433.383022</ele>
        <time>2021-11-14T17:25:41.019Z</time>
      </trkpt>
      <trkpt lat="47.480493" lon="8.078716">
        <ele>432.146707</ele>
        <time>2021-11-14T17:25:48.073Z</time>
      </trkpt>
      <trkpt lat="47.480717" lon="8.078508">
        <ele>431.696869</ele>
        <time>2021-11-14T17:25:51.067Z</time>
      </trkpt>
      <trkpt lat="47.481210" lon="8.078069">
        <ele>430.985408</ele>
        <time>2021-11-14T17:25:58.064Z</time>
      </trkpt>
      <trkpt lat="47.481574" lon="8.077775">
        <ele>430.472640</ele>
        <time>2021-11-14T17:26:03.406Z</time>
      </trkpt>
      <trkpt lat="47.481888" lon="8.077545">
        <ele>430.039417</ele>
        <time>2021-11-14T17:26:07.746Z</time>
      </trkpt>
      <trkpt lat="47.482606" lon="8.077102">
        <ele>428.658626</ele>
        <time>2021-11-14T17:26:16.559Z</time>
      </trkpt>
      <trkpt lat="47.482846" lon="8.076901">
        <ele>428.037826</ele>
        <time>2021-11-14T17:26:19.520Z</time>
      </trkpt>
      <trkpt lat="47.483204" lon="8.076386">
        <ele>426.913855</ele>
        <time>2021-11-14T17:26:24.816Z</time>
      </trkpt>
      <trkpt lat="47.483442" lon="8.075992">
        <ele>426.109916</ele>
        <time>2021-11-14T17:26:28.605Z</time>
      </trkpt>
      <trkpt lat="47.483708" lon="8.075503">
        <ele>425.153818</ele>
        <time>2021-11-14T17:26:32.967Z</time>
      </trkpt>
      <trkpt lat="47.483940" lon="8.075218">
        <ele>424.473052</ele>
        <time>2021-11-14T17:26:36.086Z</time>
      </trkpt>
      <trkpt lat="47.484460" lon="8.074477">
        <ele>422.843170</ele>
        <time>2021-11-14T17:26:43.667Z</time>
      </trkpt>
      <trkpt lat="47.484546" lon="8.074390">
        <ele>422.607970</ele>
        <time>2021-11-14T17:26:44.755Z</time>
      </trkpt>
      <trkpt lat="47.484749" lon="8.074215">
        <ele>422.077551</ele>
        <time>2021-11-14T17:26:47.404Z</time>
      </trkpt>
      <trkpt lat="47.485670" lon="8.073279">
        <ele>420.712367</ele>
        <time>2021-11-14T17:27:00.787Z</time>
      </trkpt>
      <trkpt lat="47.485914" lon="8.073024">
        <ele>420.443790</ele>
        <time>2021-11-14T17:27:04.464Z</time>
      </trkpt>
      <trkpt lat="47.486053" lon="8.072916">
        <ele>420.302634</ele>
        <time>2021-11-14T17:27:06.489Z</time>
      </trkpt>
      <trkpt lat="47.486697" lon="8.072574">
        <ele>419.840903</ele>
        <time>2021-11-14T17:27:15.632Z</time>
      </trkpt>
      <trkpt lat="47.487572" lon="8.071962">
        <ele>419.739678</ele>
        <time>2021-11-14T17:27:30.009Z</time>
      </trkpt>
      <trkpt lat="47.487825" lon="8.071796">
        <ele>419.710732</ele>
        <time>2021-11-14T17:27:34.258Z</time>
      </trkpt>
      <trkpt lat="47.488398" lon="8.071466">
        <ele>419.498731</ele>
        <time>2021-11-14T17:27:43.760Z</time>
      </trkpt>
      <trkpt lat="47.489580" lon="8.070655">
        <ele>418.604665</ele>
        <time>2021-11-14T17:28:00.357Z</time>
      </trkpt>
      <trkpt lat="47.489984" lon="8.070326">
        <ele>418.087739</ele>
        <time>2021-11-14T17:28:05.723Z</time>
      </trkpt>
      <trkpt lat="47.490102" lon="8.070230">
        <ele>417.872214</ele>
        <time>2021-11-14T17:28:07.370Z</time>
      </trkpt>
      <trkpt lat="47.490253" lon="8.070056">
        <ele>417.565902</ele>
        <time>2021-11-14T17:28:09.464Z</time>
      </trkpt>
      <trkpt lat="47.490515" lon="8.069809">
        <ele>417.068693</ele>
        <time>2021-11-14T17:28:13.009Z</time>
      </trkpt>
      <trkpt lat="47.490739" lon="8.069606">
        <ele>416.648282</ele>
        <time>2021-11-14T17:28:16.083Z</time>
      </trkpt>
      <trkpt lat="47.492282" lon="8.068118">
        <ele>412.965592</ele>
        <time>2021-11-14T17:28:36.448Z</time>
      </trkpt>
      <trkpt lat="47.492751" lon="8.067366">
        <ele>411.399526</ele>
        <time>2021-11-14T17:28:43.643Z</time>
      </trkpt>
      <trkpt lat="47.493032" lon="8.066764">
        <ele>410.097475</ele>
        <time>2021-11-14T17:28:48.821Z</time>
      </trkpt>
      <trkpt lat="47.493208" lon="8.066419">
        <ele>409.328205</ele>
        <time>2021-11-14T17:28:51.817Z</time>
      </trkpt>
      <trkpt lat="47.493543" lon="8.065948">
        <ele>408.111272</ele>
        <time>2021-11-14T17:28:56.652Z</time>
      </trkpt>
      <trkpt lat="47.493759" lon="8.065762">
        <ele>407.453113</ele>
        <time>2021-11-14T17:28:59.228Z</time>
      </trkpt>
      <trkpt lat="47.494846" lon="8.065397">
        <ele>404.588565</ele>
        <time>2021-11-14T17:29:11.217Z</time>
      </trkpt>
      <trkpt lat="47.495120" lon="8.065246">
        <ele>403.842433</ele>
        <time>2021-11-14T17:29:14.409Z</time>
      </trkpt>
      <trkpt lat="47.495626" lon="8.064806">
        <ele>402.344777</ele>
        <time>2021-11-14T17:29:20.603Z</time>
      </trkpt>
      <trkpt lat="47.496545" lon="8.063506">
        <ele>397.169042</ele>
        <time>2021-11-14T17:29:33.050Z</time>
      </trkpt>
      <trkpt lat="47.497823" lon="8.061938">
        <ele>390.247830</ele>
        <time>2021-11-14T17:29:48.709Z</time>
      </trkpt>
      <trkpt lat="47.498382" lon="8.061234">
        <ele>387.228645</ele>
        <time>2021-11-14T17:29:56.024Z</time>
      </trkpt>
      <trkpt lat="47.498687" lon="8.060849">
        <ele>386.812490</ele>
        <time>2021-11-14T17:30:00.358Z</time>
      </trkpt>
      <trkpt lat="47.498745" lon="8.060776">
        <ele>386.733449</ele>
        <time>2021-11-14T17:30:01.232Z</time>
      </trkpt>
      <trkpt lat="47.499412" lon="8.059771">
        <ele>385.745324</ele>
        <time>2021-11-14T17:30:13.537Z</time>
      </trkpt>
      <trkpt lat="47.499896" lon="8.058937">
        <ele>384.997884</ele>
        <time>2021-11-14T17:30:26.151Z</time>
      </trkpt>
      <trkpt lat="47.500311" lon="8.058239">
        <ele>384.383879</ele>
        <time>2021-11-14T17:30:33.878Z</time>
      </trkpt>
      <trkpt lat="47.500413" lon="8.058068">
        <ele>384.233243</ele>
        <time>2021-11-14T17:30:35.543Z</time>
      </trkpt>
      <trkpt lat="47.500613" lon="8.057724">
        <ele>383.933545</ele>
        <time>2021-11-14T17:30:39.030Z</time>
      </trkpt>
      <trkpt lat="47.500657" lon="8.057647">
        <ele>383.866949</ele>
        <time>2021-11-14T17:30:39.772Z</time>
      </trkpt>
      <trkpt lat="47.500865" lon="8.057376">
        <ele>383.581949</ele>
        <time>2021-11-14T17:30:42.932Z</time>
      </trkpt>
      <trkpt lat="47.501083" lon="8.057348">
        <ele>383.248008</ele>
        <time>2021-11-14T17:30:45.491Z</time>
      </trkpt>
      <trkpt lat="47.501197" lon="8.057405">
        <ele>383.064375</ele>
        <time>2021-11-14T17:30:46.814Z</time>
      </trkpt>
      <trkpt lat="47.501190" lon="8.057442">
        <ele>383.024760</ele>
        <time>2021-11-14T17:30:47.053Z</time>
      </trkpt>
      <trkpt lat="47.501236" lon="8.057572">
        <ele>382.873459</ele>
        <time>2021-11-14T17:30:48.192Z</time>
      </trkpt>
      <trkpt lat="47.501265" lon="8.057592">
        <ele>382.824634</ele>
        <time>2021-11-14T17:30:48.502Z</time>
      </trkpt>
      <trkpt lat="47.501139" lon="8.058076">
        <ele>382.289864</ele>
        <time>2021-11-14T17:30:52.511Z</time>
      </trkpt>
      <trkpt lat="47.501095" lon="8.058247">
        <ele>382.101208</ele>
        <time>2021-11-14T17:30:54.204Z</time>
      </trkpt>
      <trkpt lat="47.500993" lon="8.058641">
        <ele>381.666189</ele>
        <time>2021-11-14T17:30:57.299Z</time>
      </trkpt>
      <trkpt lat="47.500919" lon="8.058927">
        <ele>381.350436</ele>
        <time>2021-11-14T17:30:59.598Z</time>
      </trkpt>
      <trkpt lat="47.500708" lon="8.059752">
        <ele>381.194735</ele>
        <time>2021-11-14T17:31:06.633Z</time>
      </trkpt>
      <trkpt lat="47.500604" lon="8.060344">
        <ele>381.655801</ele>
        <time>2021-11-14T17:31:12.249Z</time>
      </trkpt>
      <trkpt lat="47.501242" lon="8.060602">
        <ele>382.393717</ele>
        <time>2021-11-14T17:31:29.964Z</time>
      </trkpt>
      <trkpt lat="47.501541" lon="8.060732">
        <ele>382.741410</ele>
        <time>2021-11-14T17:31:40.329Z</time>
      </trkpt>
      <trkpt lat="47.501802" lon="8.060823">
        <ele>383.659531</ele>
        <time>2021-11-14T17:31:49.271Z</time>
      </trkpt>
      <trkpt lat="47.502009" lon="8.060892">
        <ele>384.827125</ele>
        <time>2021-11-14T17:31:56.096Z</time>
      </trkpt>
      <trkpt lat="47.502612" lon="8.061128">
        <ele>388.259307</ele>
        <time>2021-11-14T17:32:20.843Z</time>
      </trkpt>
      <trkpt lat="47.502725" lon="8.061108">
        <ele>388.885547</ele>
        <time>2021-11-14T17:32:25.242Z</time>
      </trkpt>
      <trkpt lat="47.502780" lon="8.061071">
        <ele>389.217987</ele>
        <time>2021-11-14T17:32:28.092Z</time>
      </trkpt>
      <trkpt lat="47.502857" lon="8.060989">
        <ele>389.739957</ele>
        <time>2021-11-14T17:32:33.654Z</time>
      </trkpt>
      <trkpt lat="47.503219" lon="8.060489">
        <ele>392.464439</ele>
        <time>2021-11-14T17:32:57.342Z</time>
      </trkpt>
      <trkpt lat="47.503370" lon="8.060338">
        <ele>393.646433</ele>
        <time>2021-11-14T17:33:07.652Z</time>
      </trkpt>
      <trkpt lat="47.503390" lon="8.060324">
        <ele>393.799959</ele>
        <time>2021-11-14T17:33:09.143Z</time>
      </trkpt>
      <trkpt lat="47.503788" lon="8.060053">
        <ele>396.840047</ele>
        <time>2021-11-14T17:33:31.893Z</time>
      </trkpt>
      <trkpt lat="47.503958" lon="8.059935">
        <ele>398.143011</ele>
        <time>2021-11-14T17:33:39.950Z</time>
      </trkpt>
      <trkpt lat="47.504078" lon="8.059826">
        <ele>399.120022</ele>
        <time>2021-11-14T17:33:47.838Z</time>
      </trkpt>
      <trkpt lat="47.504169" lon="8.059693">
        <ele>400.007445</ele>
        <time>2021-11-14T17:33:52.456Z</time>
      </trkpt>
      <trkpt lat="47.504282" lon="8.059500">
        <ele>401.204731</ele>
        <time>2021-11-14T17:34:00.606Z</time>
      </trkpt>
      <trkpt lat="47.505291" lon="8.057302">
        <ele>413.574663</ele>
        <time>2021-11-14T17:35:23.886Z</time>
      </trkpt>
      <trkpt lat="47.505423" lon="8.056514">
        <ele>417.340710</ele>
        <time>2021-11-14T17:35:48.097Z</time>
      </trkpt>
      <trkpt lat="47.505441" lon="8.056483">
        <ele>417.530333</ele>
        <time>2021-11-14T17:35:49.795Z</time>
      </trkpt>
      <trkpt lat="47.505475" lon="8.056464">
        <ele>417.872481</ele>
        <time>2021-11-14T17:35:53.831Z</time>
      </trkpt>
      <trkpt lat="47.505625" lon="8.056515">
        <ele>419.517260</ele>
        <time>2021-11-14T17:36:00.664Z</time>
      </trkpt>
      <trkpt lat="47.505677" lon="8.056765">
        <ele>421.405683</ele>
        <time>2021-11-14T17:36:09.497Z</time>
      </trkpt>
      <trkpt lat="47.505517" lon="8.058346">
        <ele>432.946648</ele>
        <time>2021-11-14T17:37:20.981Z</time>
      </trkpt>
      <trkpt lat="47.505451" lon="8.058764">
        <ele>436.045626</ele>
        <time>2021-11-14T17:37:41.922Z</time>
      </trkpt>
      <trkpt lat="47.505424" lon="8.058918">
        <ele>437.236345</ele>
        <time>2021-11-14T17:37:49.321Z</time>
      </trkpt>
      <trkpt lat="47.505387" lon="8.059133">
        <ele>439.026101</ele>
        <time>2021-11-14T17:37:59.586Z</time>
      </trkpt>
      <trkpt lat="47.505370" lon="8.059258">
        <ele>440.054683</ele>
        <time>2021-11-14T17:38:04.919Z</time>
      </trkpt>
      <trkpt lat="47.505307" lon="8.059618">
        <ele>443.054596</ele>
        <time>2021-11-14T17:38:22.802Z</time>
      </trkpt>
      <trkpt lat="47.504942" lon="8.061411">
        <ele>458.160904</ele>
        <time>2021-11-14T17:39:51.062Z</time>
      </trkpt>
      <trkpt lat="47.503369" lon="8.065330">
        <ele>488.555412</ele>
        <time>2021-11-14T17:42:51.148Z</time>
      </trkpt>
      <trkpt lat="47.503323" lon="8.065713">
        <ele>491.137962</ele>
        <time>2021-11-14T17:43:06.837Z</time>
      </trkpt>
      <trkpt lat="47.503327" lon="8.066232">
        <ele>494.590360</ele>
        <time>2021-11-14T17:43:29.081Z</time>
      </trkpt>
      <trkpt lat="47.503405" lon="8.066731">
        <ele>498.018303</ele>
        <time>2021-11-14T17:43:51.002Z</time>
      </trkpt>
      <trkpt lat="47.503534" lon="8.067213">
        <ele>501.488164</ele>
        <time>2021-11-14T17:44:12.332Z</time>
      </trkpt>
      <trkpt lat="47.503632" lon="8.067340">
        <ele>502.778563</ele>
        <time>2021-11-14T17:44:20.499Z</time>
      </trkpt>
      <trkpt lat="47.503779" lon="8.067381">
        <ele>504.260551</ele>
        <time>2021-11-14T17:44:29.013Z</time>
      </trkpt>
      <trkpt lat="47.504036" lon="8.067372">
        <ele>506.807420</ele>
        <time>2021-11-14T17:44:45.476Z</time>
      </trkpt>
      <trkpt lat="47.504101" lon="8.067367">
        <ele>507.452259</ele>
        <time>2021-11-14T17:44:48.761Z</time>
      </trkpt>
      <trkpt lat="47.504397" lon="8.067358">
        <ele>510.385416</ele>
        <time>2021-11-14T17:45:06.572Z</time>
      </trkpt>
      <trkpt lat="47.505081" lon="8.067225">
        <ele>515.214167</ele>
        <time>2021-11-14T17:45:43.604Z</time>
      </trkpt>
      <trkpt lat="47.505473" lon="8.067198">
        <ele>517.716858</ele>
        <time>2021-11-14T17:46:03.248Z</time>
      </trkpt>
      <trkpt lat="47.505540" lon="8.066896">
        <ele>519.086284</ele>
        <time>2021-11-14T17:46:15.799Z</time>
      </trkpt>
      <trkpt lat="47.506010" lon="8.064980">
        <ele>524.180261</ele>
        <time>2021-11-14T17:47:28.189Z</time>
      </trkpt>
      <trkpt lat="47.506078" lon="8.064758">
        <ele>524.424842</ele>
        <time>2021-11-14T17:47:35.889Z</time>
      </trkpt>
      <trkpt lat="47.506276" lon="8.063954">
        <ele>525.283497</ele>
        <time>2021-11-14T17:47:58.023Z</time>
      </trkpt>
      <trkpt lat="47.506664" lon="8.062340">
        <ele>523.215297</ele>
        <time>2021-11-14T17:48:34.311Z</time>
      </trkpt>
      <trkpt lat="47.506799" lon="8.061960">
        <ele>522.361681</ele>
        <time>2021-11-14T17:48:42.557Z</time>
      </trkpt>
      <trkpt lat="47.506834" lon="8.061792">
        <ele>522.012145</ele>
        <time>2021-11-14T17:48:44.164Z</time>
      </trkpt>
      <trkpt lat="47.506868" lon="8.061294">
        <ele>521.016997</ele>
        <time>2021-11-14T17:48:48.894Z</time>
      </trkpt>
      <trkpt lat="47.507095" lon="8.060549">
        <ele>519.047647</ele>
        <time>2021-11-14T17:48:56.819Z</time>
      </trkpt>
      <trkpt lat="47.507282" lon="8.059981">
        <ele>517.377805</ele>
        <time>2021-11-14T17:49:02.871Z</time>
      </trkpt>
      <trkpt lat="47.507442" lon="8.059522">
        <ele>516.012824</ele>
        <time>2021-11-14T17:49:07.865Z</time>
      </trkpt>
      <trkpt lat="47.507796" lon="8.058923">
        <ele>513.909544</ele>
        <time>2021-11-14T17:49:15.558Z</time>
      </trkpt>
      <trkpt lat="47.508101" lon="8.058498">
        <ele>511.210262</ele>
        <time>2021-11-14T17:49:21.347Z</time>
      </trkpt>
      <trkpt lat="47.508257" lon="8.058324">
        <ele>509.729420</ele>
        <time>2021-11-14T17:49:23.895Z</time>
      </trkpt>
      <trkpt lat="47.509137" lon="8.057413">
        <ele>501.588245</ele>
        <time>2021-11-14T17:49:37.371Z</time>
      </trkpt>
      <trkpt lat="47.509761" lon="8.057079">
        <ele>495.343850</ele>
        <time>2021-11-14T17:49:45.419Z</time>
      </trkpt>
      <trkpt lat="47.509954" lon="8.057004">
        <ele>493.258564</ele>
        <time>2021-11-14T17:49:47.823Z</time>
      </trkpt>
      <trkpt lat="47.510082" lon="8.056966">
        <ele>491.894262</ele>
        <time>2021-11-14T17:49:49.421Z</time>
      </trkpt>
      <trkpt lat="47.510829" lon="8.056804">
        <ele>484.004377</ele>
        <time>2021-11-14T17:49:58.549Z</time>
      </trkpt>
      <trkpt lat="47.511847" lon="8.056597">
        <ele>472.906919</ele>
        <time>2021-11-14T17:50:11.004Z</time>
      </trkpt>
      <trkpt lat="47.512296" lon="8.056517">
        <ele>467.960535</ele>
        <time>2021-11-14T17:50:16.489Z</time>
      </trkpt>
      <trkpt lat="47.512855" lon="8.056583">
        <ele>461.827048</ele>
        <time>2021-11-14T17:50:23.190Z</time>
      </trkpt>
      <trkpt lat="47.513354" lon="8.056772">
        <ele>456.505322</ele>
        <time>2021-11-14T17:50:29.387Z</time>
      </trkpt>
      <trkpt lat="47.513766" lon="8.057043">
        <ele>451.875765</ele>
        <time>2021-11-14T17:50:34.825Z</time>
      </trkpt>
      <trkpt lat="47.513979" lon="8.057155">
        <ele>449.554626</ele>
        <time>2021-11-14T17:50:37.547Z</time>
      </trkpt>
      <trkpt lat="47.514860" lon="8.057684">
        <ele>440.734961</ele>
        <time>2021-11-14T17:50:49.355Z</time>
      </trkpt>
      <trkpt lat="47.514913" lon="8.057730">
        <ele>440.300206</ele>
        <time>2021-11-14T17:50:50.067Z</time>
      </trkpt>
      <trkpt lat="47.514980" lon="8.057838">
        <ele>439.599305</ele>
        <time>2021-11-14T17:50:51.334Z</time>
      </trkpt>
      <trkpt lat="47.515549" lon="8.058544">
        <ele>434.345731</ele>
        <time>2021-11-14T17:51:01.067Z</time>
      </trkpt>
      <trkpt lat="47.516592" lon="8.059424">
        <ele>425.889439</ele>
        <time>2021-11-14T17:51:16.625Z</time>
      </trkpt>
      <trkpt lat="47.516879" lon="8.059595">
        <ele>423.720230</ele>
        <time>2021-11-14T17:51:20.665Z</time>
      </trkpt>
      <trkpt lat="47.517045" lon="8.059678">
        <ele>422.491697</ele>
        <time>2021-11-14T17:51:22.866Z</time>
      </trkpt>
      <trkpt lat="47.517499" lon="8.059959">
        <ele>419.041402</ele>
        <time>2021-11-14T17:51:29.180Z</time>
      </trkpt>
      <trkpt lat="47.517511" lon="8.059968">
        <ele>418.947082</ele>
        <time>2021-11-14T17:51:29.353Z</time>
      </trkpt>
      <trkpt lat="47.517603" lon="8.060042">
        <ele>418.212959</ele>
        <time>2021-11-14T17:51:30.659Z</time>
      </trkpt>
      <trkpt lat="47.517670" lon="8.060139">
        <ele>417.555918</ele>
        <time>2021-11-14T17:51:31.803Z</time>
      </trkpt>
      <trkpt lat="47.517774" lon="8.060359">
        <ele>416.370012</ele>
        <time>2021-11-14T17:51:34.127Z</time>
      </trkpt>
      <trkpt lat="47.517832" lon="8.060561">
        <ele>415.404809</ele>
        <time>2021-11-14T17:51:35.943Z</time>
      </trkpt>
      <trkpt lat="47.517920" lon="8.060669">
        <ele>414.660606</ele>
        <time>2021-11-14T17:51:37.407Z</time>
      </trkpt>
      <trkpt lat="47.518058" lon="8.060729">
        <ele>413.724143</ele>
        <time>2021-11-14T17:51:39.214Z</time>
      </trkpt>
      <trkpt lat="47.518109" lon="8.060687">
        <ele>413.344175</ele>
        <time>2021-11-14T17:51:39.923Z</time>
      </trkpt>
      <trkpt lat="47.518153" lon="8.060621">
        <ele>412.936372</ele>
        <time>2021-11-14T17:51:40.702Z</time>
      </trkpt>
      <trkpt lat="47.518168" lon="8.060542">
        <ele>412.575518</ele>
        <time>2021-11-14T17:51:41.464Z</time>
      </trkpt>
      <trkpt lat="47.518185" lon="8.060410">
        <ele>411.984616</ele>
        <time>2021-11-14T17:51:42.708Z</time>
      </trkpt>
      <trkpt lat="47.518145" lon="8.060201">
        <ele>411.029392</ele>
        <time>2021-11-14T17:51:44.003Z</time>
      </trkpt>
      <trkpt lat="47.518115" lon="8.059928">
        <ele>409.813143</ele>
        <time>2021-11-14T17:51:45.796Z</time>
      </trkpt>
      <trkpt lat="47.518107" lon="8.059678">
        <ele>408.712586</ele>
        <time>2021-11-14T17:51:47.309Z</time>
      </trkpt>
      <trkpt lat="47.518111" lon="8.059250">
        <ele>406.830364</ele>
        <time>2021-11-14T17:51:50.052Z</time>
      </trkpt>
      <trkpt lat="47.518110" lon="8.059176">
        <ele>406.504899</ele>
        <time>2021-11-14T17:51:50.493Z</time>
      </trkpt>
      <trkpt lat="47.518153" lon="8.058825">
        <ele>405.266921</ele>
        <time>2021-11-14T17:51:52.889Z</time>
      </trkpt>
      <trkpt lat="47.518181" lon="8.058723">
        <ele>404.973836</ele>
        <time>2021-11-14T17:51:53.558Z</time>
      </trkpt>
      <trkpt lat="47.518245" lon="8.058536">
        <ele>404.415797</ele>
        <time>2021-11-14T17:51:54.879Z</time>
      </trkpt>
      <trkpt lat="47.518297" lon="8.058380">
        <ele>403.952718</ele>
        <time>2021-11-14T17:51:56.139Z</time>
      </trkpt>
      <trkpt lat="47.518370" lon="8.058169">
        <ele>403.321653</ele>
        <time>2021-11-14T17:51:57.583Z</time>
      </trkpt>
      <trkpt lat="47.518693" lon="8.057336">
        <ele>400.764833</ele>
        <time>2021-11-14T17:52:04.028Z</time>
      </trkpt>
      <trkpt lat="47.519179" lon="8.056358">
        <ele>397.504490</ele>
        <time>2021-11-14T17:52:12.548Z</time>
      </trkpt>
      <trkpt lat="47.519217" lon="8.056276">
        <ele>397.233283</ele>
        <time>2021-11-14T17:52:13.261Z</time>
      </trkpt>
      <trkpt lat="47.519301" lon="8.056122">
        <ele>396.693435</ele>
        <time>2021-11-14T17:52:14.608Z</time>
      </trkpt>
      <trkpt lat="47.519792" lon="8.055311">
        <ele>393.723144</ele>
        <time>2021-11-14T17:52:21.721Z</time>
      </trkpt>
      <trkpt lat="47.520109" lon="8.054903">
        <ele>392.027094</ele>
        <time>2021-11-14T17:52:25.783Z</time>
      </trkpt>
      <trkpt lat="47.520138" lon="8.054877">
        <ele>391.890197</ele>
        <time>2021-11-14T17:52:26.079Z</time>
      </trkpt>
      <trkpt lat="47.520200" lon="8.054838">
        <ele>391.618180</ele>
        <time>2021-11-14T17:52:26.681Z</time>
      </trkpt>
      <trkpt lat="47.520447" lon="8.054686">
        <ele>390.321939</ele>
        <time>2021-11-14T17:52:29.245Z</time>
      </trkpt>
      <trkpt lat="47.520495" lon="8.054640">
        <ele>390.034590</ele>
        <time>2021-11-14T17:52:29.739Z</time>
      </trkpt>
      <trkpt lat="47.520622" lon="8.054507">
        <ele>389.252827</ele>
        <time>2021-11-14T17:52:31.242Z</time>
      </trkpt>
      <trkpt lat="47.520983" lon="8.054002">
        <ele>386.756963</ele>
        <time>2021-11-14T17:52:35.979Z</time>
      </trkpt>
      <trkpt lat="47.521342" lon="8.053276">
        <ele>383.702999</ele>
        <time>2021-11-14T17:52:41.585Z</time>
      </trkpt>
      <trkpt lat="47.521468" lon="8.053086">
        <ele>382.799213</ele>
        <time>2021-11-14T17:52:43.301Z</time>
      </trkpt>
      <trkpt lat="47.521510" lon="8.053033">
        <ele>382.521883</ele>
        <time>2021-11-14T17:52:43.814Z</time>
      </trkpt>
      <trkpt lat="47.521555" lon="8.052973">
        <ele>382.251921</ele>
        <time>2021-11-14T17:52:44.381Z</time>
      </trkpt>
      <trkpt lat="47.521761" lon="8.052748">
        <ele>381.233948</ele>
        <time>2021-11-14T17:52:46.875Z</time>
      </trkpt>
      <trkpt lat="47.521902" lon="8.052655">
        <ele>380.620104</ele>
        <time>2021-11-14T17:52:48.385Z</time>
      </trkpt>
      <trkpt lat="47.522238" lon="8.052476">
        <ele>379.200044</ele>
        <time>2021-11-14T17:52:51.860Z</time>
      </trkpt>
      <trkpt lat="47.523089" lon="8.052118">
        <ele>375.681837</ele>
        <time>2021-11-14T17:53:00.540Z</time>
      </trkpt>
      <trkpt lat="47.523941" lon="8.051728">
        <ele>373.069343</ele>
        <time>2021-11-14T17:53:09.760Z</time>
      </trkpt>
      <trkpt lat="47.524373" lon="8.051538">
        <ele>371.818178</ele>
        <time>2021-11-14T17:53:14.503Z</time>
      </trkpt>
      <trkpt lat="47.525100" lon="8.051220">
        <ele>369.665576</ele>
        <time>2021-11-14T17:53:22.589Z</time>
      </trkpt>
      <trkpt lat="47.527655" lon="8.049761">
        <ele>360.937846</ele>
        <time>2021-11-14T17:53:50.396Z</time>
      </trkpt>
      <trkpt lat="47.527953" lon="8.049615">
        <ele>359.867650</ele>
        <time>2021-11-14T17:53:53.455Z</time>
      </trkpt>
      <trkpt lat="47.528839" lon="8.049183">
        <ele>356.997542</ele>
        <time>2021-11-14T17:54:02.684Z</time>
      </trkpt>
      <trkpt lat="47.529656" lon="8.048773">
        <ele>354.521188</ele>
        <time>2021-11-14T17:54:11.635Z</time>
      </trkpt>
      <trkpt lat="47.530227" lon="8.048487">
        <ele>353.013291</ele>
        <time>2021-11-14T17:54:18.267Z</time>
      </trkpt>
      <trkpt lat="47.530578" lon="8.048313">
        <ele>352.290258</ele>
        <time>2021-11-14T17:54:22.428Z</time>
      </trkpt>
      <trkpt lat="47.531509" lon="8.047769">
        <ele>350.335223</ele>
        <time>2021-11-14T17:54:33.677Z</time>
      </trkpt>
      <trkpt lat="47.531748" lon="8.047580">
        <ele>349.765649</ele>
        <time>2021-11-14T17:54:36.600Z</time>
      </trkpt>
      <trkpt lat="47.532024" lon="8.047221">
        <ele>348.875456</ele>
        <time>2021-11-14T17:54:40.490Z</time>
      </trkpt>
      <trkpt lat="47.532368" lon="8.046806">
        <ele>347.800239</ele>
        <time>2021-11-14T17:54:45.140Z</time>
      </trkpt>
      <trkpt lat="47.532987" lon="8.046028">
        <ele>345.832798</ele>
        <time>2021-11-14T17:54:53.739Z</time>
      </trkpt>
      <trkpt lat="47.533268" lon="8.045675">
        <ele>345.082287</ele>
        <time>2021-11-14T17:54:57.664Z</time>
      </trkpt>
      <trkpt lat="47.533321" lon="8.045604">
        <ele>344.945655</ele>
        <time>2021-11-14T17:54:58.410Z</time>
      </trkpt>
      <trkpt lat="47.533634" lon="8.045197">
        <ele>344.149318</ele>
        <time>2021-11-14T17:55:02.905Z</time>
      </trkpt>
      <trkpt lat="47.533862" lon="8.044961">
        <ele>343.617495</ele>
        <time>2021-11-14T17:55:05.993Z</time>
      </trkpt>
      <trkpt lat="47.533961" lon="8.044883">
        <ele>343.403100</ele>
        <time>2021-11-14T17:55:07.244Z</time>
      </trkpt>
      <trkpt lat="47.534054" lon="8.044829">
        <ele>343.212114</ele>
        <time>2021-11-14T17:55:08.379Z</time>
      </trkpt>
      <trkpt lat="47.534374" lon="8.044734">
        <ele>342.588125</ele>
        <time>2021-11-14T17:55:12.144Z</time>
      </trkpt>
      <trkpt lat="47.534636" lon="8.044665">
        <ele>342.123170</ele>
        <time>2021-11-14T17:55:15.198Z</time>
      </trkpt>
      <trkpt lat="47.534737" lon="8.044640">
        <ele>342.016357</ele>
        <time>2021-11-14T17:55:16.430Z</time>
      </trkpt>
      <trkpt lat="47.534992" lon="8.044570">
        <ele>341.745839</ele>
        <time>2021-11-14T17:55:19.399Z</time>
      </trkpt>
      <trkpt lat="47.536130" lon="8.044277">
        <ele>340.541002</ele>
        <time>2021-11-14T17:55:33.540Z</time>
      </trkpt>
      <trkpt lat="47.536364" lon="8.044230">
        <ele>340.294936</ele>
        <time>2021-11-14T17:55:36.426Z</time>
      </trkpt>
      <trkpt lat="47.536508" lon="8.044238">
        <ele>340.152237</ele>
        <time>2021-11-14T17:55:38.583Z</time>
      </trkpt>
      <trkpt lat="47.536646" lon="8.044284">
        <ele>340.012163</ele>
        <time>2021-11-14T17:55:40.278Z</time>
      </trkpt>
      <trkpt lat="47.536844" lon="8.044412">
        <ele>339.798229</ele>
        <time>2021-11-14T17:55:43.546Z</time>
      </trkpt>
      <trkpt lat="47.537460" lon="8.044932">
        <ele>339.096118</ele>
        <time>2021-11-14T17:55:52.483Z</time>
      </trkpt>
      <trkpt lat="47.537686" lon="8.045112">
        <ele>338.842017</ele>
        <time>2021-11-14T17:55:55.451Z</time>
      </trkpt>
      <trkpt lat="47.538203" lon="8.045387">
        <ele>338.173682</ele>
        <time>2021-11-14T17:56:01.698Z</time>
      </trkpt>
      <trkpt lat="47.538294" lon="8.045418">
        <ele>338.029057</ele>
        <time>2021-11-14T17:56:02.731Z</time>
      </trkpt>
      <trkpt lat="47.538340" lon="8.045430">
        <ele>337.956714</ele>
        <time>2021-11-14T17:56:03.320Z</time>
      </trkpt>
      <trkpt lat="47.538467" lon="8.045443">
        <ele>337.759541</ele>
        <time>2021-11-14T17:56:04.773Z</time>
      </trkpt>
      <trkpt lat="47.538479" lon="8.045444">
        <ele>337.740925</ele>
        <time>2021-11-14T17:56:04.884Z</time>
      </trkpt>
      <trkpt lat="47.538763" lon="8.045382">
        <ele>337.296300</ele>
        <time>2021-11-14T17:56:08.132Z</time>
      </trkpt>
      <trkpt lat="47.538912" lon="8.045281">
        <ele>337.042506</ele>
        <time>2021-11-14T17:56:09.881Z</time>
      </trkpt>
      <trkpt lat="47.538984" lon="8.045208">
        <ele>336.907368</ele>
        <time>2021-11-14T17:56:10.815Z</time>
      </trkpt>
      <trkpt lat="47.539049" lon="8.045146">
        <ele>336.787626</ele>
        <time>2021-11-14T17:56:11.735Z</time>
      </trkpt>
      <trkpt lat="47.539168" lon="8.044994">
        <ele>336.544252</ele>
        <time>2021-11-14T17:56:13.485Z</time>
      </trkpt>
      <trkpt lat="47.539357" lon="8.044726">
        <ele>336.139015</ele>
        <time>2021-11-14T17:56:16.512Z</time>
      </trkpt>
      <trkpt lat="47.539485" lon="8.044571">
        <ele>335.882948</ele>
        <time>2021-11-14T17:56:18.626Z</time>
      </trkpt>
      <trkpt lat="47.539769" lon="8.044372">
        <ele>335.402717</ele>
        <time>2021-11-14T17:56:22.842Z</time>
      </trkpt>
      <trkpt lat="47.540105" lon="8.044383">
        <ele>334.892040</ele>
        <time>2021-11-14T17:56:26.799Z</time>
      </trkpt>
      <trkpt lat="47.540316" lon="8.044416">
        <ele>334.569643</ele>
        <time>2021-11-14T17:56:29.159Z</time>
      </trkpt>
      <trkpt lat="47.540484" lon="8.044413">
        <ele>334.314349</ele>
        <time>2021-11-14T17:56:31.308Z</time>
      </trkpt>
      <trkpt lat="47.540613" lon="8.044397">
        <ele>334.117647</ele>
        <time>2021-11-14T17:56:32.631Z</time>
      </trkpt>
      <trkpt lat="47.540685" lon="8.044388">
        <ele>334.007854</ele>
        <time>2021-11-14T17:56:33.423Z</time>
      </trkpt>
      <trkpt lat="47.540801" lon="8.044393">
        <ele>333.831518</ele>
        <time>2021-11-14T17:56:34.990Z</time>
      </trkpt>
      <trkpt lat="47.540913" lon="8.044428">
        <ele>333.657588</ele>
        <time>2021-11-14T17:56:36.228Z</time>
      </trkpt>
      <trkpt lat="47.540994" lon="8.044486">
        <ele>333.520883</ele>
        <time>2021-11-14T17:56:37.146Z</time>
      </trkpt>
      <trkpt lat="47.541082" lon="8.044576">
        <ele>333.358395</ele>
        <time>2021-11-14T17:56:38.686Z</time>
      </trkpt>
      <trkpt lat="47.541181" lon="8.044448">
        <ele>333.158724</ele>
        <time>2021-11-14T17:56:40.146Z</time>
      </trkpt>
      <trkpt lat="47.541242" lon="8.044402">
        <ele>333.054716</ele>
        <time>2021-11-14T17:56:40.834Z</time>
      </trkpt>
      <trkpt lat="47.541299" lon="8.044369">
        <ele>332.927386</ele>
        <time>2021-11-14T17:56:41.461Z</time>
      </trkpt>
      <trkpt lat="47.541407" lon="8.044320">
        <ele>332.600301</ele>
        <time>2021-11-14T17:56:43.051Z</time>
      </trkpt>
      <trkpt lat="47.541497" lon="8.044288">
        <ele>332.332277</ele>
        <time>2021-11-14T17:56:44.048Z</time>
      </trkpt>
      <trkpt lat="47.541871" lon="8.044264">
        <ele>331.248234</ele>
        <time>2021-11-14T17:56:48.118Z</time>
      </trkpt>
      <trkpt lat="47.541931" lon="8.044267">
        <ele>331.074387</ele>
        <time>2021-11-14T17:56:48.681Z</time>
      </trkpt>
      <trkpt lat="47.542130" lon="8.044303">
        <ele>330.493843</ele>
        <time>2021-11-14T17:56:50.833Z</time>
      </trkpt>
      <trkpt lat="47.542217" lon="8.044311">
        <ele>330.241424</ele>
        <time>2021-11-14T17:56:51.723Z</time>
      </trkpt>
      <trkpt lat="47.542342" lon="8.044323">
        <ele>329.878690</ele>
        <time>2021-11-14T17:56:52.931Z</time>
      </trkpt>
      <trkpt lat="47.542515" lon="8.044335">
        <ele>329.377169</ele>
        <time>2021-11-14T17:56:54.719Z</time>
      </trkpt>
      <trkpt lat="47.542941" lon="8.044348">
        <ele>328.143299</ele>
        <time>2021-11-14T17:56:58.843Z</time>
      </trkpt>
      <trkpt lat="47.543113" lon="8.044348">
        <ele>327.688233</ele>
        <time>2021-11-14T17:57:00.531Z</time>
      </trkpt>
      <trkpt lat="47.543344" lon="8.044345">
        <ele>327.216472</ele>
        <time>2021-11-14T17:57:02.943Z</time>
      </trkpt>
      <trkpt lat="47.543429" lon="8.044346">
        <ele>327.042881</ele>
        <time>2021-11-14T17:57:03.771Z</time>
      </trkpt>
      <trkpt lat="47.543537" lon="8.044348">
        <ele>326.822309</ele>
        <time>2021-11-14T17:57:04.922Z</time>
      </trkpt>
      <trkpt lat="47.543748" lon="8.044351">
        <ele>326.391389</ele>
        <time>2021-11-14T17:57:07.253Z</time>
      </trkpt>
      <trkpt lat="47.543766" lon="8.044352">
        <ele>326.354604</ele>
        <time>2021-11-14T17:57:07.430Z</time>
      </trkpt>
      <trkpt lat="47.544716" lon="8.044385">
        <ele>324.414000</ele>
        <time>2021-11-14T17:57:18.434Z</time>
      </trkpt>
      <trkpt lat="47.544756" lon="8.044387">
        <ele>324.332267</ele>
        <time>2021-11-14T17:57:18.876Z</time>
      </trkpt>
      <trkpt lat="47.544980" lon="8.044395">
        <ele>324.016851</ele>
        <time>2021-11-14T17:57:21.599Z</time>
      </trkpt>
      <trkpt lat="47.545593" lon="8.044410">
        <ele>323.496422</ele>
        <time>2021-11-14T17:57:29.159Z</time>
      </trkpt>
      <trkpt lat="47.545699" lon="8.044413">
        <ele>323.406426</ele>
        <time>2021-11-14T17:57:30.567Z</time>
      </trkpt>
      <trkpt lat="47.546375" lon="8.044435">
        <ele>322.832450</ele>
        <time>2021-11-14T17:57:38.914Z</time>
      </trkpt>
      <trkpt lat="47.546609" lon="8.044441">
        <ele>322.633785</ele>
        <time>2021-11-14T17:57:41.947Z</time>
      </trkpt>
      <trkpt lat="47.547110" lon="8.044384">
        <ele>322.313892</ele>
        <time>2021-11-14T17:57:48.661Z</time>
      </trkpt>
      <trkpt lat="47.547324" lon="8.044298">
        <ele>322.177954</ele>
        <time>2021-11-14T17:57:51.850Z</time>
      </trkpt>
      <trkpt lat="47.547545" lon="8.044164">
        <ele>322.031557</ele>
        <time>2021-11-14T17:57:55.067Z</time>
      </trkpt>
      <trkpt lat="47.547710" lon="8.044026">
        <ele>321.915394</ele>
        <time>2021-11-14T17:57:57.691Z</time>
      </trkpt>
      <trkpt lat="47.547874" lon="8.043865">
        <ele>321.794780</ele>
        <time>2021-11-14T17:58:00.210Z</time>
      </trkpt>
      <trkpt lat="47.548086" lon="8.043564">
        <ele>321.614762</ele>
        <time>2021-11-14T17:58:04.009Z</time>
      </trkpt>
      <trkpt lat="47.548321" lon="8.043094">
        <ele>321.180574</ele>
        <time>2021-11-14T17:58:08.894Z</time>
      </trkpt>
      <trkpt lat="47.548412" lon="8.042841">
        <ele>320.865005</ele>
        <time>2021-11-14T17:58:11.174Z</time>
      </trkpt>
      <trkpt lat="47.548524" lon="8.042433">
        <ele>320.380169</ele>
        <time>2021-11-14T17:58:14.563Z</time>
      </trkpt>
      <trkpt lat="47.548724" lon="8.041601">
        <ele>319.407985</ele>
        <time>2021-11-14T17:58:21.333Z</time>
      </trkpt>
      <trkpt lat="47.548827" lon="8.041204">
        <ele>318.939810</ele>
        <time>2021-11-14T17:58:24.511Z</time>
      </trkpt>
      <trkpt lat="47.548984" lon="8.040683">
        <ele>318.255359</ele>
        <time>2021-11-14T17:58:28.656Z</time>
      </trkpt>
      <trkpt lat="47.549410" lon="8.039725">
        <ele>316.699962</ele>
        <time>2021-11-14T17:58:36.840Z</time>
      </trkpt>
      <trkpt lat="47.549870" lon="8.038947">
        <ele>315.297680</ele>
        <time>2021-11-14T17:58:44.472Z</time>
      </trkpt>
      <trkpt lat="47.549942" lon="8.038834">
        <ele>315.086995</ele>
        <time>2021-11-14T17:58:45.683Z</time>
      </trkpt>
      <trkpt lat="47.550081" lon="8.038625">
        <ele>314.882278</ele>
        <time>2021-11-14T17:58:48.125Z</time>
      </trkpt>
      <trkpt lat="47.550288" lon="8.038288">
        <ele>314.735980</ele>
        <time>2021-11-14T17:58:52.005Z</time>
      </trkpt>
      <trkpt lat="47.550415" lon="8.038099">
        <ele>314.650353</ele>
        <time>2021-11-14T17:58:54.270Z</time>
      </trkpt>
      <trkpt lat="47.550520" lon="8.037972">
        <ele>314.585875</ele>
        <time>2021-11-14T17:58:56.401Z</time>
      </trkpt>
      <trkpt lat="47.550627" lon="8.037879">
        <ele>314.526865</ele>
        <time>2021-11-14T17:58:57.977Z</time>
      </trkpt>
      <trkpt lat="47.550697" lon="8.037820">
        <ele>314.488555</ele>
        <time>2021-11-14T17:58:59.110Z</time>
      </trkpt>
      <trkpt lat="47.551038" lon="8.037822">
        <ele>314.326343</ele>
        <time>2021-11-14T17:59:03.967Z</time>
      </trkpt>
      <trkpt lat="47.551249" lon="8.038008">
        <ele>314.209550</ele>
        <time>2021-11-14T17:59:07.620Z</time>
      </trkpt>
      <trkpt lat="47.551401" lon="8.038402">
        <ele>314.100985</ele>
        <time>2021-11-14T17:59:12.361Z</time>
      </trkpt>
      <trkpt lat="47.551405" lon="8.038736">
        <ele>314.168851</ele>
        <time>2021-11-14T17:59:15.459Z</time>
      </trkpt>
      <trkpt lat="47.551379" lon="8.038856">
        <ele>314.194456</ele>
        <time>2021-11-14T17:59:16.987Z</time>
      </trkpt>
      <trkpt lat="47.551371" lon="8.038893">
        <ele>314.202349</ele>
        <time>2021-11-14T17:59:17.334Z</time>
      </trkpt>
      <trkpt lat="47.551313" lon="8.039013">
        <ele>314.232335</ele>
        <time>2021-11-14T17:59:18.604Z</time>
      </trkpt>
      <trkpt lat="47.551237" lon="8.039168">
        <ele>314.271257</ele>
        <time>2021-11-14T17:59:20.453Z</time>
      </trkpt>
      <trkpt lat="47.551141" lon="8.039284">
        <ele>314.308546</ele>
        <time>2021-11-14T17:59:22.681Z</time>
      </trkpt>
      <trkpt lat="47.551001" lon="8.039426">
        <ele>314.359616</ele>
        <time>2021-11-14T17:59:25.133Z</time>
      </trkpt>
      <trkpt lat="47.550515" lon="8.038174">
        <ele>314.702462</ele>
        <time>2021-11-14T17:59:41.563Z</time>
      </trkpt>
      <trkpt lat="47.550424" lon="8.037956">
        <ele>314.857306</ele>
        <time>2021-11-14T17:59:44.607Z</time>
      </trkpt>
      <trkpt lat="47.550111" lon="8.037123">
        <ele>315.433240</ele>
        <time>2021-11-14T17:59:56.981Z</time>
      </trkpt>
      <trkpt lat="47.549832" lon="8.036349">
        <ele>315.963314</ele>
        <time>2021-11-14T18:00:08.264Z</time>
      </trkpt>
      <trkpt lat="47.549753" lon="8.036077">
        <ele>316.142196</ele>
        <time>2021-11-14T18:00:11.753Z</time>
      </trkpt>
      <trkpt lat="47.549699" lon="8.035900">
        <ele>316.245643</ele>
        <time>2021-11-14T18:00:14.201Z</time>
      </trkpt>
      <trkpt lat="47.549632" lon="8.035633">
        <ele>316.307536</ele>
        <time>2021-11-14T18:00:17.686Z</time>
      </trkpt>
      <trkpt lat="47.549554" lon="8.035288">
        <ele>316.386591</ele>
        <time>2021-11-14T18:00:21.978Z</time>
      </trkpt>
      <trkpt lat="47.549494" lon="8.034935">
        <ele>316.465686</ele>
        <time>2021-11-14T18:00:25.962Z</time>
      </trkpt>
      <trkpt lat="47.549442" lon="8.034584">
        <ele>316.543767</ele>
        <time>2021-11-14T18:00:29.818Z</time>
      </trkpt>
      <trkpt lat="47.549395" lon="8.034029">
        <ele>316.665303</ele>
        <time>2021-11-14T18:00:35.879Z</time>
      </trkpt>
      <trkpt lat="47.549394" lon="8.034003">
        <ele>316.670961</ele>
        <time>2021-11-14T18:00:36.193Z</time>
      </trkpt>
      <trkpt lat="47.549386" lon="8.033799">
        <ele>316.715362</ele>
        <time>2021-11-14T18:00:38.359Z</time>
      </trkpt>
      <trkpt lat="47.549374" lon="8.033423">
        <ele>316.797150</ele>
        <time>2021-11-14T18:00:41.992Z</time>
      </trkpt>
      <trkpt lat="47.549363" lon="8.032869">
        <ele>316.829940</ele>
        <time>2021-11-14T18:00:47.247Z</time>
      </trkpt>
      <trkpt lat="47.549368" lon="8.032544">
        <ele>316.839117</ele>
        <time>2021-11-14T18:00:50.222Z</time>
      </trkpt>
      <trkpt lat="47.549372" lon="8.031883">
        <ele>316.857776</ele>
        <time>2021-11-14T18:00:56.578Z</time>
      </trkpt>
      <trkpt lat="47.549378" lon="8.030790">
        <ele>316.888630</ele>
        <time>2021-11-14T18:01:07.908Z</time>
      </trkpt>
      <trkpt lat="47.549380" lon="8.030702">
        <ele>316.891115</ele>
        <time>2021-11-14T18:01:08.747Z</time>
      </trkpt>
      <trkpt lat="47.549418" lon="8.028906">
        <ele>317.461129</ele>
        <time>2021-11-14T18:01:29.455Z</time>
      </trkpt>
      <trkpt lat="47.549431" lon="8.028306">
        <ele>317.654916</ele>
        <time>2021-11-14T18:01:36.199Z</time>
      </trkpt>
      <trkpt lat="47.549445" lon="8.027599">
        <ele>317.910479</ele>
        <time>2021-11-14T18:01:44.376Z</time>
      </trkpt>
      <trkpt lat="47.549454" lon="8.027138">
        <ele>318.090329</ele>
        <time>2021-11-14T18:01:49.902Z</time>
      </trkpt>
      <trkpt lat="47.549436" lon="8.026046">
        <ele>318.516301</ele>
        <time>2021-11-14T18:02:03.186Z</time>
      </trkpt>
      <trkpt lat="47.549322" lon="8.024323">
        <ele>318.779299</ele>
        <time>2021-11-14T18:02:21.791Z</time>
      </trkpt>
      <trkpt lat="47.549268" lon="8.023385">
        <ele>318.768078</ele>
        <time>2021-11-14T18:02:31.238Z</time>
      </trkpt>
      <trkpt lat="47.549201" lon="8.022146">
        <ele>318.421931</ele>
        <time>2021-11-14T18:02:42.455Z</time>
      </trkpt>
      <trkpt lat="47.549191" lon="8.021436">
        <ele>317.981771</ele>
        <time>2021-11-14T18:02:48.422Z</time>
      </trkpt>
      <trkpt lat="47.549186" lon="8.021006">
        <ele>317.715213</ele>
        <time>2021-11-14T18:02:52.006Z</time>
      </trkpt>
      <trkpt lat="47.549208" lon="8.019997">
        <ele>317.077268</ele>
        <time>2021-11-14T18:03:00.240Z</time>
      </trkpt>
      <trkpt lat="47.549261" lon="8.017878">
        <ele>314.897674</ele>
        <time>2021-11-14T18:03:16.362Z</time>
      </trkpt>
      <trkpt lat="47.549256" lon="8.017769">
        <ele>314.785376</ele>
        <time>2021-11-14T18:03:17.226Z</time>
      </trkpt>
      <trkpt lat="47.549291" lon="8.017761">
        <ele>314.731444</ele>
        <time>2021-11-14T18:03:17.623Z</time>
      </trkpt>
      <trkpt lat="47.549324" lon="8.017738">
        <ele>314.675905</ele>
        <time>2021-11-14T18:03:18.012Z</time>
      </trkpt>
      <trkpt lat="47.549351" lon="8.017702">
        <ele>314.620588</ele>
        <time>2021-11-14T18:03:18.415Z</time>
      </trkpt>
      <trkpt lat="47.549370" lon="8.017656">
        <ele>314.565154</ele>
        <time>2021-11-14T18:03:18.874Z</time>
      </trkpt>
      <trkpt lat="47.549379" lon="8.017603">
        <ele>314.508978</ele>
        <time>2021-11-14T18:03:19.279Z</time>
      </trkpt>
      <trkpt lat="47.549377" lon="8.017547">
        <ele>314.451336</ele>
        <time>2021-11-14T18:03:19.837Z</time>
      </trkpt>
      <trkpt lat="47.549310" lon="8.017418">
        <ele>314.300893</ele>
        <time>2021-11-14T18:03:21.184Z</time>
      </trkpt>
      <trkpt lat="47.549274" lon="8.017401">
        <ele>314.254784</ele>
        <time>2021-11-14T18:03:21.665Z</time>
      </trkpt>
      <trkpt lat="47.549281" lon="8.017304">
        <ele>314.174434</ele>
        <time>2021-11-14T18:03:22.381Z</time>
      </trkpt>
      <trkpt lat="47.549431" lon="8.015998">
        <ele>313.083276</ele>
        <time>2021-11-14T18:03:33.126Z</time>
      </trkpt>
      <trkpt lat="47.549589" lon="8.015316">
        <ele>312.489375</ele>
        <time>2021-11-14T18:03:38.969Z</time>
      </trkpt>
      <trkpt lat="47.549795" lon="8.014667">
        <ele>311.849015</ele>
        <time>2021-11-14T18:03:44.785Z</time>
      </trkpt>
      <trkpt lat="47.549871" lon="8.014427">
        <ele>311.591292</ele>
        <time>2021-11-14T18:03:46.920Z</time>
      </trkpt>
      <trkpt lat="47.550001" lon="8.014034">
        <ele>311.165813</ele>
        <time>2021-11-14T18:03:50.308Z</time>
      </trkpt>
      <trkpt lat="47.550565" lon="8.012461">
        <ele>309.546083</ele>
        <time>2021-11-14T18:04:03.916Z</time>
      </trkpt>
      <trkpt lat="47.550764" lon="8.011985">
        <ele>309.410122</ele>
        <time>2021-11-14T18:04:08.415Z</time>
      </trkpt>
      <trkpt lat="47.551187" lon="8.011080">
        <ele>309.142819</ele>
        <time>2021-11-14T18:04:18.533Z</time>
      </trkpt>
      <trkpt lat="47.551275" lon="8.010934">
        <ele>309.095288</ele>
        <time>2021-11-14T18:04:20.343Z</time>
      </trkpt>
      <trkpt lat="47.551902" lon="8.009884">
        <ele>309.473385</ele>
        <time>2021-11-14T18:04:37.297Z</time>
      </trkpt>
      <trkpt lat="47.552604" lon="8.008677">
        <ele>310.619258</ele>
        <time>2021-11-14T18:04:59.778Z</time>
      </trkpt>
      <trkpt lat="47.552640" lon="8.008615">
        <ele>310.678077</ele>
        <time>2021-11-14T18:05:01.363Z</time>
      </trkpt>
      <trkpt lat="47.552935" lon="8.007851">
        <ele>310.654656</ele>
        <time>2021-11-14T18:05:10.962Z</time>
      </trkpt>
      <trkpt lat="47.553173" lon="8.006642">
        <ele>310.263085</ele>
        <time>2021-11-14T18:05:21.765Z</time>
      </trkpt>
      <trkpt lat="47.553211" lon="8.006270">
        <ele>310.146105</ele>
        <time>2021-11-14T18:05:24.978Z</time>
      </trkpt>
      <trkpt lat="47.553220" lon="8.006182">
        <ele>310.118431</ele>
        <time>2021-11-14T18:05:25.569Z</time>
      </trkpt>
      <trkpt lat="47.553251" lon="8.005657">
        <ele>309.974511</ele>
        <time>2021-11-14T18:05:29.817Z</time>
      </trkpt>
      <trkpt lat="47.553256" lon="8.004837">
        <ele>309.792579</ele>
        <time>2021-11-14T18:05:36.742Z</time>
      </trkpt>
      <trkpt lat="47.553266" lon="8.003502">
        <ele>309.496380</ele>
        <time>2021-11-14T18:05:49.329Z</time>
      </trkpt>
      <trkpt lat="47.553270" lon="8.002465">
        <ele>309.865943</ele>
        <time>2021-11-14T18:06:02.000Z</time>
      </trkpt>
      <trkpt lat="47.553271" lon="8.002109">
        <ele>310.071228</ele>
        <time>2021-11-14T18:06:06.978Z</time>
      </trkpt>
      <trkpt lat="47.553273" lon="8.001687">
        <ele>310.314574</ele>
        <time>2021-11-14T18:06:12.659Z</time>
      </trkpt>
      <trkpt lat="47.553275" lon="7.999860">
        <ele>310.799191</ele>
        <time>2021-11-14T18:06:34.845Z</time>
      </trkpt>
      <trkpt lat="47.553278" lon="7.999508">
        <ele>310.712332</ele>
        <time>2021-11-14T18:06:38.391Z</time>
      </trkpt>
      <trkpt lat="47.553287" lon="7.998380">
        <ele>310.433991</ele>
        <time>2021-11-14T18:06:48.158Z</time>
      </trkpt>
      <trkpt lat="47.553287" lon="7.997190">
        <ele>309.580275</ele>
        <time>2021-11-14T18:06:57.458Z</time>
      </trkpt>
      <trkpt lat="47.553279" lon="7.996528">
        <ele>308.884094</ele>
        <time>2021-11-14T18:07:02.473Z</time>
      </trkpt>
      <trkpt lat="47.553268" lon="7.996252">
        <ele>308.593384</ele>
        <time>2021-11-14T18:07:04.546Z</time>
      </trkpt>
      <trkpt lat="47.553246" lon="7.995617">
        <ele>307.924825</ele>
        <time>2021-11-14T18:07:09.397Z</time>
      </trkpt>
      <trkpt lat="47.553164" lon="7.993925">
        <ele>306.676159</ele>
        <time>2021-11-14T18:07:22.726Z</time>
      </trkpt>
      <trkpt lat="47.553156" lon="7.993696">
        <ele>306.529291</ele>
        <time>2021-11-14T18:07:24.725Z</time>
      </trkpt>
      <trkpt lat="47.553137" lon="7.993190">
        <ele>306.204703</ele>
        <time>2021-11-14T18:07:29.181Z</time>
      </trkpt>
      <trkpt lat="47.553130" lon="7.993014">
        <ele>306.091782</ele>
        <time>2021-11-14T18:07:30.783Z</time>
      </trkpt>
      <trkpt lat="47.553107" lon="7.992226">
        <ele>305.501685</ele>
        <time>2021-11-14T18:07:38.013Z</time>
      </trkpt>
      <trkpt lat="47.553091" lon="7.991915">
        <ele>305.223518</ele>
        <time>2021-11-14T18:07:41.162Z</time>
      </trkpt>
      <trkpt lat="47.553050" lon="7.990744">
        <ele>304.177768</ele>
        <time>2021-11-14T18:07:50.855Z</time>
      </trkpt>
      <trkpt lat="47.553126" lon="7.990240">
        <ele>303.717198</ele>
        <time>2021-11-14T18:07:54.767Z</time>
      </trkpt>
      <trkpt lat="47.553146" lon="7.990113">
        <ele>303.600891</ele>
        <time>2021-11-14T18:07:55.696Z</time>
      </trkpt>
      <trkpt lat="47.553163" lon="7.990004">
        <ele>303.501119</ele>
        <time>2021-11-14T18:07:56.481Z</time>
      </trkpt>
      <trkpt lat="47.553214" lon="7.989758">
        <ele>303.004386</ele>
        <time>2021-11-14T18:07:58.260Z</time>
      </trkpt>
      <trkpt lat="47.553253" lon="7.989578">
        <ele>302.544390</ele>
        <time>2021-11-14T18:07:59.549Z</time>
      </trkpt>
      <trkpt lat="47.553352" lon="7.989142">
        <ele>301.425074</ele>
        <time>2021-11-14T18:08:02.645Z</time>
      </trkpt>
      <trkpt lat="47.553424" lon="7.988762">
        <ele>300.464705</ele>
        <time>2021-11-14T18:08:05.290Z</time>
      </trkpt>
      <trkpt lat="47.553410" lon="7.988607">
        <ele>300.084195</ele>
        <time>2021-11-14T18:08:06.322Z</time>
      </trkpt>
      <trkpt lat="47.553343" lon="7.988401">
        <ele>299.527784</ele>
        <time>2021-11-14T18:08:07.844Z</time>
      </trkpt>
      <trkpt lat="47.553232" lon="7.988247">
        <ele>298.979550</ele>
        <time>2021-11-14T18:08:09.315Z</time>
      </trkpt>
      <trkpt lat="47.552867" lon="7.987810">
        <ele>297.287710</ele>
        <time>2021-11-14T18:08:13.884Z</time>
      </trkpt>
      <trkpt lat="47.552713" lon="7.987638">
        <ele>296.732072</ele>
        <time>2021-11-14T18:08:15.721Z</time>
      </trkpt>
      <trkpt lat="47.552504" lon="7.987369">
        <ele>296.133137</ele>
        <time>2021-11-14T18:08:18.432Z</time>
      </trkpt>
      <trkpt lat="47.552436" lon="7.987273">
        <ele>295.929935</ele>
        <time>2021-11-14T18:08:19.375Z</time>
      </trkpt>
      <trkpt lat="47.552224" lon="7.986975">
        <ele>295.297723</ele>
        <time>2021-11-14T18:08:22.360Z</time>
      </trkpt>
      <trkpt lat="47.552152" lon="7.986883">
        <ele>295.092031</ele>
        <time>2021-11-14T18:08:23.340Z</time>
      </trkpt>
      <trkpt lat="47.551971" lon="7.986555">
        <ele>294.473394</ele>
        <time>2021-11-14T18:08:26.339Z</time>
      </trkpt>
      <trkpt lat="47.551917" lon="7.986288">
        <ele>294.066404</ele>
        <time>2021-11-14T18:08:28.419Z</time>
      </trkpt>
      <trkpt lat="47.551915" lon="7.986209">
        <ele>293.950971</ele>
        <time>2021-11-14T18:08:28.980Z</time>
      </trkpt>
      <trkpt lat="47.551898" lon="7.985654">
        <ele>293.139750</ele>
        <time>2021-11-14T18:08:34.488Z</time>
      </trkpt>
      <trkpt lat="47.551939" lon="7.985151">
        <ele>293.631738</ele>
        <time>2021-11-14T18:08:40.643Z</time>
      </trkpt>
      <trkpt lat="47.551934" lon="7.984260">
        <ele>294.794777</ele>
        <time>2021-11-14T18:08:54.230Z</time>
      </trkpt>
      <trkpt lat="47.551993" lon="7.984014">
        <ele>295.135545</ele>
        <time>2021-11-14T18:08:57.834Z</time>
      </trkpt>
      <trkpt lat="47.552007" lon="7.983931">
        <ele>295.247215</ele>
        <time>2021-11-14T18:08:59.408Z</time>
      </trkpt>
      <trkpt lat="47.552005" lon="7.983849">
        <ele>295.354317</ele>
        <time>2021-11-14T18:09:01.490Z</time>
      </trkpt>
      <trkpt lat="47.551911" lon="7.983632">
        <ele>295.690882</ele>
        <time>2021-11-14T18:09:05.683Z</time>
      </trkpt>
      <trkpt lat="47.551892" lon="7.983447">
        <ele>295.935137</ele>
        <time>2021-11-14T18:09:09.027Z</time>
      </trkpt>
      <trkpt lat="47.551861" lon="7.981113">
        <ele>299.454660</ele>
        <time>2021-11-14T18:09:52.317Z</time>
      </trkpt>
      <trkpt lat="47.551865" lon="7.980584">
        <ele>300.278162</ele>
        <time>2021-11-14T18:09:58.958Z</time>
      </trkpt>
      <trkpt lat="47.551873" lon="7.980135">
        <ele>300.636681</ele>
        <time>2021-11-14T18:10:03.714Z</time>
      </trkpt>
      <trkpt lat="47.551933" lon="7.979363">
        <ele>300.473478</ele>
        <time>2021-11-14T18:10:12.073Z</time>
      </trkpt>
      <trkpt lat="47.551923" lon="7.979308">
        <ele>300.461515</ele>
        <time>2021-11-14T18:10:12.441Z</time>
      </trkpt>
      <trkpt lat="47.551901" lon="7.979190">
        <ele>300.435805</ele>
        <time>2021-11-14T18:10:13.412Z</time>
      </trkpt>
      <trkpt lat="47.551829" lon="7.976305">
        <ele>299.989320</ele>
        <time>2021-11-14T18:10:38.460Z</time>
      </trkpt>
      <trkpt lat="47.551793" lon="7.974325">
        <ele>299.866499</ele>
        <time>2021-11-14T18:11:00.573Z</time>
      </trkpt>
      <trkpt lat="47.551755" lon="7.972603">
        <ele>299.861719</ele>
        <time>2021-11-14T18:11:17.872Z</time>
      </trkpt>
      <trkpt lat="47.551725" lon="7.970823">
        <ele>299.308008</ele>
        <time>2021-11-14T18:11:33.101Z</time>
      </trkpt>
      <trkpt lat="47.551734" lon="7.970034">
        <ele>299.021965</ele>
        <time>2021-11-14T18:11:40.060Z</time>
      </trkpt>
      <trkpt lat="47.551750" lon="7.968659">
        <ele>298.924339</ele>
        <time>2021-11-14T18:11:53.250Z</time>
      </trkpt>
      <trkpt lat="47.551825" lon="7.968445">
        <ele>298.931241</ele>
        <time>2021-11-14T18:11:55.503Z</time>
      </trkpt>
      <trkpt lat="47.551847" lon="7.968315">
        <ele>298.935077</ele>
        <time>2021-11-14T18:11:56.973Z</time>
      </trkpt>
      <trkpt lat="47.551839" lon="7.968208">
        <ele>298.938159</ele>
        <time>2021-11-14T18:11:58.175Z</time>
      </trkpt>
      <trkpt lat="47.551767" lon="7.967910">
        <ele>298.947219</ele>
        <time>2021-11-14T18:12:01.408Z</time>
      </trkpt>
      <trkpt lat="47.551902" lon="7.964650">
        <ele>299.560820</ele>
        <time>2021-11-14T18:12:37.809Z</time>
      </trkpt>
      <trkpt lat="47.551918" lon="7.963725">
        <ele>299.503811</ele>
        <time>2021-11-14T18:12:47.207Z</time>
      </trkpt>
      <trkpt lat="47.551906" lon="7.962453">
        <ele>299.290070</ele>
        <time>2021-11-14T18:12:59.137Z</time>
      </trkpt>
      <trkpt lat="47.551859" lon="7.961133">
        <ele>298.991996</ele>
        <time>2021-11-14T18:13:10.721Z</time>
      </trkpt>
      <trkpt lat="47.551894" lon="7.960729">
        <ele>298.873219</ele>
        <time>2021-11-14T18:13:14.472Z</time>
      </trkpt>
      <trkpt lat="47.551882" lon="7.960631">
        <ele>298.844175</ele>
        <time>2021-11-14T18:13:15.242Z</time>
      </trkpt>
      <trkpt lat="47.551865" lon="7.960528">
        <ele>298.813254</ele>
        <time>2021-11-14T18:13:16.188Z</time>
      </trkpt>
      <trkpt lat="47.551677" lon="7.960100">
        <ele>298.664340</ele>
        <time>2021-11-14T18:13:20.712Z</time>
      </trkpt>
      <trkpt lat="47.551300" lon="7.958844">
        <ele>298.386046</ele>
        <time>2021-11-14T18:13:33.623Z</time>
      </trkpt>
      <trkpt lat="47.550869" lon="7.957700">
        <ele>298.362360</ele>
        <time>2021-11-14T18:13:46.987Z</time>
      </trkpt>
      <trkpt lat="47.550745" lon="7.957569">
        <ele>298.358280</ele>
        <time>2021-11-14T18:13:49.225Z</time>
      </trkpt>
      <trkpt lat="47.550735" lon="7.957541">
        <ele>298.357708</ele>
        <time>2021-11-14T18:13:49.667Z</time>
      </trkpt>
      <trkpt lat="47.550613" lon="7.957254">
        <ele>298.351576</ele>
        <time>2021-11-14T18:13:53.006Z</time>
      </trkpt>
      <trkpt lat="47.550549" lon="7.957126">
        <ele>298.348696</ele>
        <time>2021-11-14T18:13:54.553Z</time>
      </trkpt>
      <trkpt lat="47.550445" lon="7.956918">
        <ele>298.356046</ele>
        <time>2021-11-14T18:13:57.226Z</time>
      </trkpt>
      <trkpt lat="47.550380" lon="7.956806">
        <ele>298.369837</ele>
        <time>2021-11-14T18:13:58.711Z</time>
      </trkpt>
      <trkpt lat="47.550205" lon="7.956552">
        <ele>298.403725</ele>
        <time>2021-11-14T18:14:02.421Z</time>
      </trkpt>
      <trkpt lat="47.549444" lon="7.955496">
        <ele>298.547954</ele>
        <time>2021-11-14T18:14:18.787Z</time>
      </trkpt>
      <trkpt lat="47.549157" lon="7.955099">
        <ele>298.606224</ele>
        <time>2021-11-14T18:14:24.588Z</time>
      </trkpt>
      <trkpt lat="47.549042" lon="7.954942">
        <ele>298.639271</ele>
        <time>2021-11-14T18:14:26.940Z</time>
      </trkpt>
      <trkpt lat="47.548833" lon="7.954652">
        <ele>298.699783</ele>
        <time>2021-11-14T18:14:31.296Z</time>
      </trkpt>
      <trkpt lat="47.548542" lon="7.954269">
        <ele>298.782039</ele>
        <time>2021-11-14T18:14:37.314Z</time>
      </trkpt>
      <trkpt lat="47.548342" lon="7.954009">
        <ele>298.838268</ele>
        <time>2021-11-14T18:14:41.496Z</time>
      </trkpt>
      <trkpt lat="47.548251" lon="7.953895">
        <ele>298.863452</ele>
        <time>2021-11-14T18:14:43.424Z</time>
      </trkpt>
      <trkpt lat="47.548115" lon="7.953729">
        <ele>298.900689</ele>
        <time>2021-11-14T18:14:46.293Z</time>
      </trkpt>
      <trkpt lat="47.547994" lon="7.953584">
        <ele>298.933577</ele>
        <time>2021-11-14T18:14:48.855Z</time>
      </trkpt>
      <trkpt lat="47.547871" lon="7.953437">
        <ele>298.966973</ele>
        <time>2021-11-14T18:14:51.446Z</time>
      </trkpt>
      <trkpt lat="47.547797" lon="7.953355">
        <ele>298.996647</ele>
        <time>2021-11-14T18:14:52.949Z</time>
      </trkpt>
      <trkpt lat="47.547624" lon="7.953160">
        <ele>299.082657</ele>
        <time>2021-11-14T18:14:56.442Z</time>
      </trkpt>
      <trkpt lat="47.547550" lon="7.953078">
        <ele>299.119220</ele>
        <time>2021-11-14T18:14:57.943Z</time>
      </trkpt>
      <trkpt lat="47.547458" lon="7.952975">
        <ele>299.164846</ele>
        <time>2021-11-14T18:14:59.771Z</time>
      </trkpt>
      <trkpt lat="47.547400" lon="7.952910">
        <ele>299.193621</ele>
        <time>2021-11-14T18:15:00.937Z</time>
      </trkpt>
      <trkpt lat="47.547090" lon="7.952543">
        <ele>299.350629</ele>
        <time>2021-11-14T18:15:07.326Z</time>
      </trkpt>
      <trkpt lat="47.546935" lon="7.952372">
        <ele>299.427094</ele>
        <time>2021-11-14T18:15:10.484Z</time>
      </trkpt>
      <trkpt lat="47.546776" lon="7.952185">
        <ele>299.507418</ele>
        <time>2021-11-14T18:15:13.926Z</time>
      </trkpt>
      <trkpt lat="47.546695" lon="7.952091">
        <ele>299.548129</ele>
        <time>2021-11-14T18:15:15.702Z</time>
      </trkpt>
      <trkpt lat="47.546634" lon="7.952024">
        <ele>299.578174</ele>
        <time>2021-11-14T18:15:17.024Z</time>
      </trkpt>
      <trkpt lat="47.546421" lon="7.951793">
        <ele>299.682619</ele>
        <time>2021-11-14T18:15:21.587Z</time>
      </trkpt>
      <trkpt lat="47.546231" lon="7.951558">
        <ele>299.645610</ele>
        <time>2021-11-14T18:15:25.745Z</time>
      </trkpt>
      <trkpt lat="47.546212" lon="7.951535">
        <ele>299.641384</ele>
        <time>2021-11-14T18:15:26.155Z</time>
      </trkpt>
      <trkpt lat="47.546135" lon="7.951406">
        <ele>299.621364</ele>
        <time>2021-11-14T18:15:27.918Z</time>
      </trkpt>
      <trkpt lat="47.545886" lon="7.951110">
        <ele>299.566378</ele>
        <time>2021-11-14T18:15:32.784Z</time>
      </trkpt>
      <trkpt lat="47.545824" lon="7.951061">
        <ele>299.554275</ele>
        <time>2021-11-14T18:15:33.833Z</time>
      </trkpt>
      <trkpt lat="47.545759" lon="7.950982">
        <ele>299.539794</ele>
        <time>2021-11-14T18:15:35.105Z</time>
      </trkpt>
      <trkpt lat="47.545727" lon="7.950947">
        <ele>299.532943</ele>
        <time>2021-11-14T18:15:35.841Z</time>
      </trkpt>
      <trkpt lat="47.545625" lon="7.950829">
        <ele>299.510653</ele>
        <time>2021-11-14T18:15:37.535Z</time>
      </trkpt>
      <trkpt lat="47.545567" lon="7.950765">
        <ele>299.498197</ele>
        <time>2021-11-14T18:15:38.537Z</time>
      </trkpt>
      <trkpt lat="47.545494" lon="7.950684">
        <ele>299.482488</ele>
        <time>2021-11-14T18:15:39.779Z</time>
      </trkpt>
      <trkpt lat="47.545434" lon="7.950668">
        <ele>299.471988</ele>
        <time>2021-11-14T18:15:40.767Z</time>
      </trkpt>
      <trkpt lat="47.545166" lon="7.950366">
        <ele>299.413993</ele>
        <time>2021-11-14T18:15:45.128Z</time>
      </trkpt>
      <trkpt lat="47.544901" lon="7.950044">
        <ele>299.369449</ele>
        <time>2021-11-14T18:15:49.363Z</time>
      </trkpt>
      <trkpt lat="47.544521" lon="7.949558">
        <ele>299.340487</ele>
        <time>2021-11-14T18:15:55.553Z</time>
      </trkpt>
      <trkpt lat="47.544239" lon="7.949202">
        <ele>299.319113</ele>
        <time>2021-11-14T18:16:00.460Z</time>
      </trkpt>
      <trkpt lat="47.543864" lon="7.948694">
        <ele>299.289797</ele>
        <time>2021-11-14T18:16:08.424Z</time>
      </trkpt>
      <trkpt lat="47.543760" lon="7.948548">
        <ele>299.281532</ele>
        <time>2021-11-14T18:16:10.666Z</time>
      </trkpt>
      <trkpt lat="47.543579" lon="7.948287">
        <ele>299.511711</ele>
        <time>2021-11-14T18:16:16.383Z</time>
      </trkpt>
      <trkpt lat="47.543532" lon="7.948214">
        <ele>299.667481</ele>
        <time>2021-11-14T18:16:17.510Z</time>
      </trkpt>
      <trkpt lat="47.543435" lon="7.948000">
        <ele>300.065503</ele>
        <time>2021-11-14T18:16:20.572Z</time>
      </trkpt>
      <trkpt lat="47.543407" lon="7.947938">
        <ele>300.180687</ele>
        <time>2021-11-14T18:16:22.429Z</time>
      </trkpt>
      <trkpt lat="47.543280" lon="7.947656">
        <ele>300.704139</ele>
        <time>2021-11-14T18:16:26.916Z</time>
      </trkpt>
      <trkpt lat="47.543142" lon="7.947250">
        <ele>301.406038</ele>
        <time>2021-11-14T18:16:34.380Z</time>
      </trkpt>
      <trkpt lat="47.543086" lon="7.947052">
        <ele>301.737524</ele>
        <time>2021-11-14T18:16:37.809Z</time>
      </trkpt>
      <trkpt lat="47.543056" lon="7.946935">
        <ele>301.930780</ele>
        <time>2021-11-14T18:16:40.651Z</time>
      </trkpt>
      <trkpt lat="47.543045" lon="7.946881">
        <ele>302.017877</ele>
        <time>2021-11-14T18:16:41.807Z</time>
      </trkpt>
      <trkpt lat="47.542982" lon="7.946547">
        <ele>302.553368</ele>
        <time>2021-11-14T18:16:47.207Z</time>
      </trkpt>
      <trkpt lat="47.542974" lon="7.946495">
        <ele>302.635721</ele>
        <time>2021-11-14T18:16:48.848Z</time>
      </trkpt>
      <trkpt lat="47.542960" lon="7.946400">
        <ele>302.785868</ele>
        <time>2021-11-14T18:16:50.913Z</time>
      </trkpt>
      <trkpt lat="47.542916" lon="7.945730">
        <ele>303.753987</ele>
        <time>2021-11-14T18:17:03.579Z</time>
      </trkpt>
      <trkpt lat="47.542913" lon="7.945267">
        <ele>304.352524</ele>
        <time>2021-11-14T18:17:12.074Z</time>
      </trkpt>
      <trkpt lat="47.543007" lon="7.943867">
        <ele>306.171198</ele>
        <time>2021-11-14T18:17:33.241Z</time>
      </trkpt>
      <trkpt lat="47.543161" lon="7.942213">
        <ele>306.466063</ele>
        <time>2021-11-14T18:17:51.647Z</time>
      </trkpt>
      <trkpt lat="47.543435" lon="7.940670">
        <ele>305.888877</ele>
        <time>2021-11-14T18:18:04.595Z</time>
      </trkpt>
      <trkpt lat="47.543826" lon="7.939433">
        <ele>304.334238</ele>
        <time>2021-11-14T18:18:14.997Z</time>
      </trkpt>
      <trkpt lat="47.544472" lon="7.937932">
        <ele>302.282325</ele>
        <time>2021-11-14T18:18:28.320Z</time>
      </trkpt>
      <trkpt lat="47.544705" lon="7.937395">
        <ele>301.526896</ele>
        <time>2021-11-14T18:18:33.160Z</time>
      </trkpt>
      <trkpt lat="47.544903" lon="7.936917">
        <ele>300.863233</ele>
        <time>2021-11-14T18:18:37.421Z</time>
      </trkpt>
      <trkpt lat="47.545074" lon="7.936484">
        <ele>300.269585</ele>
        <time>2021-11-14T18:18:41.251Z</time>
      </trkpt>
      <trkpt lat="47.545457" lon="7.935110">
        <ele>299.107043</ele>
        <time>2021-11-14T18:18:52.620Z</time>
      </trkpt>
      <trkpt lat="47.545674" lon="7.933625">
        <ele>298.137611</ele>
        <time>2021-11-14T18:19:05.700Z</time>
      </trkpt>
      <trkpt lat="47.545702" lon="7.933290">
        <ele>298.339061</ele>
        <time>2021-11-14T18:19:09.280Z</time>
      </trkpt>
      <trkpt lat="47.545724" lon="7.932758">
        <ele>298.774940</ele>
        <time>2021-11-14T18:19:15.547Z</time>
      </trkpt>
      <trkpt lat="47.545721" lon="7.931992">
        <ele>299.401376</ele>
        <time>2021-11-14T18:19:25.586Z</time>
      </trkpt>
      <trkpt lat="47.545696" lon="7.931497">
        <ele>299.807313</ele>
        <time>2021-11-14T18:19:32.792Z</time>
      </trkpt>
      <trkpt lat="47.545661" lon="7.930955">
        <ele>300.252579</ele>
        <time>2021-11-14T18:19:41.487Z</time>
      </trkpt>
      <trkpt lat="47.545563" lon="7.929641">
        <ele>301.519140</ele>
        <time>2021-11-14T18:20:03.827Z</time>
      </trkpt>
      <trkpt lat="47.545475" lon="7.928419">
        <ele>302.701710</ele>
        <time>2021-11-14T18:20:20.129Z</time>
      </trkpt>
      <trkpt lat="47.545421" lon="7.927686">
        <ele>301.964117</ele>
        <time>2021-11-14T18:20:26.233Z</time>
      </trkpt>
      <trkpt lat="47.545406" lon="7.927306">
        <ele>301.389067</ele>
        <time>2021-11-14T18:20:29.137Z</time>
      </trkpt>
      <trkpt lat="47.545407" lon="7.927001">
        <ele>300.928296</ele>
        <time>2021-11-14T18:20:31.423Z</time>
      </trkpt>
      <trkpt lat="47.545409" lon="7.926773">
        <ele>300.583826</ele>
        <time>2021-11-14T18:20:33.052Z</time>
      </trkpt>
      <trkpt lat="47.545417" lon="7.925848">
        <ele>299.186308</ele>
        <time>2021-11-14T18:20:39.387Z</time>
      </trkpt>
      <trkpt lat="47.545446" lon="7.925350">
        <ele>298.187439</ele>
        <time>2021-11-14T18:20:42.679Z</time>
      </trkpt>
      <trkpt lat="47.545466" lon="7.924880">
        <ele>297.033044</ele>
        <time>2021-11-14T18:20:45.733Z</time>
      </trkpt>
      <trkpt lat="47.545481" lon="7.924396">
        <ele>295.845369</ele>
        <time>2021-11-14T18:20:48.816Z</time>
      </trkpt>
      <trkpt lat="47.545521" lon="7.923709">
        <ele>294.155079</ele>
        <time>2021-11-14T18:20:53.341Z</time>
      </trkpt>
      <trkpt lat="47.545536" lon="7.923407">
        <ele>293.412789</ele>
        <time>2021-11-14T18:20:55.489Z</time>
      </trkpt>
      <trkpt lat="47.545553" lon="7.923142">
        <ele>292.760270</ele>
        <time>2021-11-14T18:20:57.320Z</time>
      </trkpt>
      <trkpt lat="47.545587" lon="7.922895">
        <ele>292.241366</ele>
        <time>2021-11-14T18:20:59.254Z</time>
      </trkpt>
      <trkpt lat="47.545641" lon="7.922610">
        <ele>291.999551</ele>
        <time>2021-11-14T18:21:01.399Z</time>
      </trkpt>
      <trkpt lat="47.545690" lon="7.922369">
        <ele>291.793940</ele>
        <time>2021-11-14T18:21:03.406Z</time>
      </trkpt>
      <trkpt lat="47.545699" lon="7.922325">
        <ele>291.756382</ele>
        <time>2021-11-14T18:21:03.700Z</time>
      </trkpt>
      <trkpt lat="47.545714" lon="7.922249">
        <ele>291.691698</ele>
        <time>2021-11-14T18:21:04.290Z</time>
      </trkpt>
      <trkpt lat="47.545778" lon="7.921947">
        <ele>291.433121</ele>
        <time>2021-11-14T18:21:06.993Z</time>
      </trkpt>
      <trkpt lat="47.545810" lon="7.921755">
        <ele>291.271566</ele>
        <time>2021-11-14T18:21:08.473Z</time>
      </trkpt>
      <trkpt lat="47.545881" lon="7.921096">
        <ele>290.726415</ele>
        <time>2021-11-14T18:21:13.935Z</time>
      </trkpt>
      <trkpt lat="47.545913" lon="7.920765">
        <ele>290.453262</ele>
        <time>2021-11-14T18:21:16.828Z</time>
      </trkpt>
      <trkpt lat="47.545973" lon="7.920313">
        <ele>290.104337</ele>
        <time>2021-11-14T18:21:21.298Z</time>
      </trkpt>
      <trkpt lat="47.546128" lon="7.919617">
        <ele>289.946923</ele>
        <time>2021-11-14T18:21:28.539Z</time>
      </trkpt>
      <trkpt lat="47.546262" lon="7.919081">
        <ele>289.824159</ele>
        <time>2021-11-14T18:21:34.588Z</time>
      </trkpt>
      <trkpt lat="47.546821" lon="7.916867">
        <ele>289.174554</ele>
        <time>2021-11-14T18:21:55.256Z</time>
      </trkpt>
      <trkpt lat="47.547032" lon="7.916218">
        <ele>288.922399</ele>
        <time>2021-11-14T18:22:01.563Z</time>
      </trkpt>
      <trkpt lat="47.547091" lon="7.916039">
        <ele>288.852670</ele>
        <time>2021-11-14T18:22:03.337Z</time>
      </trkpt>
      <trkpt lat="47.547113" lon="7.915971">
        <ele>288.826275</ele>
        <time>2021-11-14T18:22:03.927Z</time>
      </trkpt>
      <trkpt lat="47.547423" lon="7.915080">
        <ele>288.680162</ele>
        <time>2021-11-14T18:22:13.414Z</time>
      </trkpt>
      <trkpt lat="47.547994" lon="7.913433">
        <ele>289.025148</ele>
        <time>2021-11-14T18:22:33.119Z</time>
      </trkpt>
      <trkpt lat="47.548027" lon="7.913334">
        <ele>289.045720</ele>
        <time>2021-11-14T18:22:34.478Z</time>
      </trkpt>
      <trkpt lat="47.548412" lon="7.912168">
        <ele>289.812369</ele>
        <time>2021-11-14T18:22:50.881Z</time>
      </trkpt>
      <trkpt lat="47.549012" lon="7.910340">
        <ele>291.355272</ele>
        <time>2021-11-14T18:23:17.779Z</time>
      </trkpt>
      <trkpt lat="47.549102" lon="7.910058">
        <ele>291.646378</ele>
        <time>2021-11-14T18:23:21.896Z</time>
      </trkpt>
      <trkpt lat="47.549195" lon="7.909756">
        <ele>291.956158</ele>
        <time>2021-11-14T18:23:26.220Z</time>
      </trkpt>
      <trkpt lat="47.549374" lon="7.909163">
        <ele>292.562377</ele>
        <time>2021-11-14T18:23:34.648Z</time>
      </trkpt>
      <trkpt lat="47.549520" lon="7.908678">
        <ele>293.057962</ele>
        <time>2021-11-14T18:23:41.499Z</time>
      </trkpt>
      <trkpt lat="47.549539" lon="7.908625">
        <ele>293.113966</ele>
        <time>2021-11-14T18:23:42.231Z</time>
      </trkpt>
      <trkpt lat="47.550497" lon="7.905558">
        <ele>298.442677</ele>
        <time>2021-11-14T18:24:37.178Z</time>
      </trkpt>
      <trkpt lat="47.550283" lon="7.905413">
        <ele>299.303519</ele>
        <time>2021-11-14T18:24:45.344Z</time>
      </trkpt>
      <trkpt lat="47.550067" lon="7.905245">
        <ele>300.195959</ele>
        <time>2021-11-14T18:24:54.030Z</time>
      </trkpt>
      <trkpt lat="47.549867" lon="7.905155">
        <ele>300.960609</ele>
        <time>2021-11-14T18:25:01.659Z</time>
      </trkpt>
      <trkpt lat="47.549868" lon="7.905010">
        <ele>301.318650</ele>
        <time>2021-11-14T18:25:05.064Z</time>
      </trkpt>
      <trkpt lat="47.550025" lon="7.904774">
        <ele>302.136832</ele>
        <time>2021-11-14T18:25:13.215Z</time>
      </trkpt>
      <trkpt lat="47.550302" lon="7.904164">
        <ele>303.952139</ele>
        <time>2021-11-14T18:25:31.514Z</time>
      </trkpt>
      <trkpt lat="47.550498" lon="7.903445">
        <ele>305.866734</ele>
        <time>2021-11-14T18:25:51.086Z</time>
      </trkpt>
      <trkpt lat="47.550688" lon="7.902451">
        <ele>308.417508</ele>
        <time>2021-11-14T18:26:13.634Z</time>
      </trkpt>
      <trkpt lat="47.550757" lon="7.901591">
        <ele>310.555848</ele>
        <time>2021-11-14T18:26:33.431Z</time>
      </trkpt>
      <trkpt lat="47.550769" lon="7.901362">
        <ele>311.157479</ele>
        <time>2021-11-14T18:26:39.339Z</time>
      </trkpt>
      <trkpt lat="47.550801" lon="7.900244">
        <ele>314.374076</ele>
        <time>2021-11-14T18:27:03.736Z</time>
      </trkpt>
      <trkpt lat="47.550819" lon="7.898109">
        <ele>319.832636</ele>
        <time>2021-11-14T18:27:50.776Z</time>
      </trkpt>
      <trkpt lat="47.550648" lon="7.896481">
        <ele>322.909798</ele>
        <time>2021-11-14T18:28:18.431Z</time>
      </trkpt>
      <trkpt lat="47.550639" lon="7.896345">
        <ele>323.165020</ele>
        <time>2021-11-14T18:28:20.807Z</time>
      </trkpt>
      <trkpt lat="47.550660" lon="7.896255">
        <ele>323.342871</ele>
        <time>2021-11-14T18:28:21.607Z</time>
      </trkpt>
      <trkpt lat="47.550838" lon="7.895509">
        <ele>324.124311</ele>
        <time>2021-11-14T18:28:31.775Z</time>
      </trkpt>
      <trkpt lat="47.550878" lon="7.895158">
        <ele>324.424726</ele>
        <time>2021-11-14T18:28:35.838Z</time>
      </trkpt>
      <trkpt lat="47.550908" lon="7.894308">
        <ele>325.143052</ele>
        <time>2021-11-14T18:28:46.310Z</time>
      </trkpt>
      <trkpt lat="47.550892" lon="7.893176">
        <ele>326.760865</ele>
        <time>2021-11-14T18:29:01.027Z</time>
      </trkpt>
      <trkpt lat="47.550904" lon="7.891725">
        <ele>330.695132</ele>
        <time>2021-11-14T18:29:30.789Z</time>
      </trkpt>
      <trkpt lat="47.550915" lon="7.890600">
        <ele>334.146391</ele>
        <time>2021-11-14T18:29:59.629Z</time>
      </trkpt>
      <trkpt lat="47.550833" lon="7.889069">
        <ele>340.624705</ele>
        <time>2021-11-14T18:30:42.263Z</time>
      </trkpt>
      <trkpt lat="47.550831" lon="7.888611">
        <ele>342.556667</ele>
        <time>2021-11-14T18:30:54.833Z</time>
      </trkpt>
      <trkpt lat="47.550789" lon="7.887816">
        <ele>345.776476</ele>
        <time>2021-11-14T18:31:15.445Z</time>
      </trkpt>
      <trkpt lat="47.550758" lon="7.887295">
        <ele>347.790838</ele>
        <time>2021-11-14T18:31:29.266Z</time>
      </trkpt>
      <trkpt lat="47.550677" lon="7.886476">
        <ele>350.978824</ele>
        <time>2021-11-14T18:31:50.755Z</time>
      </trkpt>
      <trkpt lat="47.550548" lon="7.885799">
        <ele>353.688148</ele>
        <time>2021-11-14T18:32:07.958Z</time>
      </trkpt>
      <trkpt lat="47.550391" lon="7.885109">
        <ele>356.028232</ele>
        <time>2021-11-14T18:32:25.596Z</time>
      </trkpt>
      <trkpt lat="47.550332" lon="7.884727">
        <ele>357.180576</ele>
        <time>2021-11-14T18:32:34.286Z</time>
      </trkpt>
      <trkpt lat="47.550234" lon="7.883221">
        <ele>361.629660</ele>
        <time>2021-11-14T18:33:07.118Z</time>
      </trkpt>
      <trkpt lat="47.549927" lon="7.881490">
        <ele>366.077645</ele>
        <time>2021-11-14T18:33:39.381Z</time>
      </trkpt>
      <trkpt lat="47.549726" lon="7.880786">
        <ele>367.920786</ele>
        <time>2021-11-14T18:33:55.358Z</time>
      </trkpt>
      <trkpt lat="47.549327" lon="7.879547">
        <ele>371.662316</ele>
        <time>2021-11-14T18:34:25.142Z</time>
      </trkpt>
      <trkpt lat="47.549318" lon="7.879398">
        <ele>372.086802</ele>
        <time>2021-11-14T18:34:28.330Z</time>
      </trkpt>
      <trkpt lat="47.549140" lon="7.879391">
        <ele>372.835391</ele>
        <time>2021-11-14T18:34:35.201Z</time>
      </trkpt>
      <trkpt lat="47.548718" lon="7.879258">
        <ele>374.649207</ele>
        <time>2021-11-14T18:34:48.871Z</time>
      </trkpt>
      <trkpt lat="47.548422" lon="7.878959">
        <ele>376.155328</ele>
        <time>2021-11-14T18:34:59.518Z</time>
      </trkpt>
      <trkpt lat="47.548234" lon="7.878638">
        <ele>376.598251</ele>
        <time>2021-11-14T18:35:07.950Z</time>
      </trkpt>
      <trkpt lat="47.547992" lon="7.877974">
        <ele>377.119576</ele>
        <time>2021-11-14T18:35:21.047Z</time>
      </trkpt>
      <trkpt lat="47.547574" lon="7.876801">
        <ele>378.035952</ele>
        <time>2021-11-14T18:35:34.811Z</time>
      </trkpt>
      <trkpt lat="47.547126" lon="7.875801">
        <ele>375.806621</ele>
        <time>2021-11-14T18:35:43.593Z</time>
      </trkpt>
      <trkpt lat="47.546309" lon="7.874154">
        <ele>370.110223</ele>
        <time>2021-11-14T18:35:56.782Z</time>
      </trkpt>
      <trkpt lat="47.546135" lon="7.873859">
        <ele>368.393248</ele>
        <time>2021-11-14T18:35:59.164Z</time>
      </trkpt>
      <trkpt lat="47.546077" lon="7.873763">
        <ele>367.828582</ele>
        <time>2021-11-14T18:35:59.975Z</time>
      </trkpt>
      <trkpt lat="47.545934" lon="7.873549">
        <ele>366.508818</ele>
        <time>2021-11-14T18:36:01.779Z</time>
      </trkpt>
      <trkpt lat="47.545746" lon="7.873302">
        <ele>364.877267</ele>
        <time>2021-11-14T18:36:04.068Z</time>
      </trkpt>
      <trkpt lat="47.545515" lon="7.873015">
        <ele>362.919758</ele>
        <time>2021-11-14T18:36:06.766Z</time>
      </trkpt>
      <trkpt lat="47.545478" lon="7.872968">
        <ele>362.603296</ele>
        <time>2021-11-14T18:36:07.208Z</time>
      </trkpt>
      <trkpt lat="47.545375" lon="7.872836">
        <ele>361.719012</ele>
        <time>2021-11-14T18:36:08.402Z</time>
      </trkpt>
      <trkpt lat="47.545131" lon="7.872664">
        <ele>359.964696</ele>
        <time>2021-11-14T18:36:10.860Z</time>
      </trkpt>
      <trkpt lat="47.544883" lon="7.872555">
        <ele>358.332973</ele>
        <time>2021-11-14T18:36:13.183Z</time>
      </trkpt>
      <trkpt lat="47.544390" lon="7.872423">
        <ele>355.172853</ele>
        <time>2021-11-14T18:36:17.648Z</time>
      </trkpt>
      <trkpt lat="47.543332" lon="7.872237">
        <ele>348.625286</ele>
        <time>2021-11-14T18:36:27.422Z</time>
      </trkpt>
      <trkpt lat="47.543251" lon="7.872152">
        <ele>348.625286</ele>
        <time>2021-11-14T18:36:28.417Z</time>
      </trkpt>
      <trkpt lat="47.543233" lon="7.872082">
        <ele>348.625286</ele>
        <time>2021-11-14T18:36:28.843Z</time>
      </trkpt>
      <trkpt lat="47.543013" lon="7.872182">
        <ele>348.625286</ele>
        <time>2021-11-14T18:36:31.147Z</time>
      </trkpt>
      <trkpt lat="47.542919" lon="7.872226">
        <ele>348.625286</ele>
        <time>2021-11-14T18:36:32.134Z</time>
      </trkpt>
      <trkpt lat="47.542814" lon="7.872280">
        <ele>348.625286</ele>
        <time>2021-11-14T18:36:33.242Z</time>
      </trkpt>
      <trkpt lat="47.542714" lon="7.872334">
        <ele>348.625286</ele>
        <time>2021-11-14T18:36:34.337Z</time>
      </trkpt>
      <trkpt lat="47.542537" lon="7.872430">
        <ele>348.625286</ele>
        <time>2021-11-14T18:36:36.148Z</time>
      </trkpt>
      <trkpt lat="47.542436" lon="7.872494">
        <ele>348.625286</ele>
        <time>2021-11-14T18:36:37.596Z</time>
      </trkpt>
      <trkpt lat="47.542394" lon="7.872341">
        <ele>348.625286</ele>
        <time>2021-11-14T18:36:38.690Z</time>
      </trkpt>
      <trkpt lat="47.542249" lon="7.871951">
        <ele>348.625286</ele>
        <time>2021-11-14T18:36:41.893Z</time>
      </trkpt>
    </trkseg>
  </trk>
</gpx>